<?xml version="1.0" encoding="UTF-8" standalone="no" ?>
<gpx xmlns="http://www.topografix.com/GPX/1/1" xmlns:xsi="http://www.w3.org/2001/XMLSchema-instance" xsi:schemaLocation="http://www.topografix.com/GPX/1/1 http://www.topografix.com/GPX/1/1/gpx.xsd" version="1.1" creator="VisuGPX - https://www.visugpx.com">
  <metadata>
    <name>rando 25/12/2015 Parnay (49)</name>
    <desc><![CDATA[Rando nordique à travers vignoble et forêt]]></desc>
  </metadata>
  <trk>
    <name><![CDATA[Sequence 1]]></name>
    <trkseg>
      <trkpt lat="47.23129" lon="0.00811">
        <ele>56</ele>
        <time>2015-12-28T08:06:14Z</time>
      </trkpt>
      <trkpt lat="47.23124" lon="0.00806">
        <ele>56</ele>
        <time>2015-12-28T08:06:20Z</time>
      </trkpt>
      <trkpt lat="47.23119" lon="0.00805">
        <ele>58</ele>
        <time>2015-12-28T08:06:26Z</time>
      </trkpt>
      <trkpt lat="47.23113" lon="0.00805">
        <ele>58</ele>
        <time>2015-12-28T08:06:32Z</time>
      </trkpt>
      <trkpt lat="47.23105" lon="0.00804">
        <ele>60</ele>
        <time>2015-12-28T08:06:38Z</time>
      </trkpt>
      <trkpt lat="47.23099" lon="0.00802">
        <ele>58</ele>
        <time>2015-12-28T08:06:44Z</time>
      </trkpt>
      <trkpt lat="47.23093" lon="0.00798">
        <ele>58</ele>
        <time>2015-12-28T08:06:50Z</time>
      </trkpt>
      <trkpt lat="47.23087" lon="0.0079">
        <ele>55</ele>
        <time>2015-12-28T08:06:56Z</time>
      </trkpt>
      <trkpt lat="47.23081" lon="0.00784">
        <ele>56</ele>
        <time>2015-12-28T08:07:02Z</time>
      </trkpt>
      <trkpt lat="47.23075" lon="0.00778">
        <ele>56</ele>
        <time>2015-12-28T08:07:08Z</time>
      </trkpt>
      <trkpt lat="47.23069" lon="0.00772">
        <ele>56</ele>
        <time>2015-12-28T08:07:14Z</time>
      </trkpt>
      <trkpt lat="47.23063" lon="0.00764">
        <ele>55</ele>
        <time>2015-12-28T08:07:20Z</time>
      </trkpt>
      <trkpt lat="47.23056" lon="0.00755">
        <ele>51</ele>
        <time>2015-12-28T08:07:26Z</time>
      </trkpt>
      <trkpt lat="47.2305" lon="0.00745">
        <ele>50</ele>
        <time>2015-12-28T08:07:32Z</time>
      </trkpt>
      <trkpt lat="47.23037" lon="0.00723">
        <ele>53</ele>
        <time>2015-12-28T08:07:43Z</time>
      </trkpt>
      <trkpt lat="47.23036" lon="0.00721">
        <ele>52</ele>
        <time>2015-12-28T08:07:44Z</time>
      </trkpt>
      <trkpt lat="47.23027" lon="0.0071">
        <ele>53</ele>
        <time>2015-12-28T08:07:50Z</time>
      </trkpt>
      <trkpt lat="47.23018" lon="0.00699">
        <ele>58</ele>
        <time>2015-12-28T08:07:56Z</time>
      </trkpt>
      <trkpt lat="47.2301" lon="0.00689">
        <ele>54</ele>
        <time>2015-12-28T08:08:02Z</time>
      </trkpt>
      <trkpt lat="47.23012" lon="0.00677">
        <ele>52</ele>
        <time>2015-12-28T08:08:08Z</time>
      </trkpt>
      <trkpt lat="47.23016" lon="0.00665">
        <ele>50</ele>
        <time>2015-12-28T08:08:14Z</time>
      </trkpt>
      <trkpt lat="47.2302" lon="0.00652">
        <ele>51</ele>
        <time>2015-12-28T08:08:20Z</time>
      </trkpt>
      <trkpt lat="47.23026" lon="0.00642">
        <ele>53</ele>
        <time>2015-12-28T08:08:26Z</time>
      </trkpt>
      <trkpt lat="47.23032" lon="0.00636">
        <ele>52</ele>
        <time>2015-12-28T08:08:32Z</time>
      </trkpt>
      <trkpt lat="47.23036" lon="0.00627">
        <ele>53</ele>
        <time>2015-12-28T08:08:38Z</time>
      </trkpt>
      <trkpt lat="47.2304" lon="0.00617">
        <ele>54</ele>
        <time>2015-12-28T08:08:44Z</time>
      </trkpt>
      <trkpt lat="47.23043" lon="0.00604">
        <ele>55</ele>
        <time>2015-12-28T08:08:51Z</time>
      </trkpt>
      <trkpt lat="47.23045" lon="0.00595">
        <ele>54</ele>
        <time>2015-12-28T08:08:56Z</time>
      </trkpt>
      <trkpt lat="47.2305" lon="0.00584">
        <ele>54</ele>
        <time>2015-12-28T08:09:02Z</time>
      </trkpt>
      <trkpt lat="47.23055" lon="0.00573">
        <ele>54</ele>
        <time>2015-12-28T08:09:08Z</time>
      </trkpt>
      <trkpt lat="47.2306" lon="0.00549">
        <ele>52</ele>
        <time>2015-12-28T08:09:19Z</time>
      </trkpt>
      <trkpt lat="47.2306" lon="0.00547">
        <ele>52</ele>
        <time>2015-12-28T08:09:20Z</time>
      </trkpt>
      <trkpt lat="47.2305" lon="0.00528">
        <ele>49</ele>
        <time>2015-12-28T08:09:31Z</time>
      </trkpt>
      <trkpt lat="47.23049" lon="0.00527">
        <ele>48</ele>
        <time>2015-12-28T08:09:32Z</time>
      </trkpt>
      <trkpt lat="47.2304" lon="0.00502">
        <ele>48</ele>
        <time>2015-12-28T08:09:43Z</time>
      </trkpt>
      <trkpt lat="47.2304" lon="0.00499">
        <ele>48</ele>
        <time>2015-12-28T08:09:44Z</time>
      </trkpt>
      <trkpt lat="47.23042" lon="0.0048">
        <ele>54</ele>
        <time>2015-12-28T08:09:50Z</time>
      </trkpt>
      <trkpt lat="47.23043" lon="0.00465">
        <ele>55</ele>
        <time>2015-12-28T08:09:56Z</time>
      </trkpt>
      <trkpt lat="47.23035" lon="0.00457">
        <ele>56</ele>
        <time>2015-12-28T08:10:02Z</time>
      </trkpt>
      <trkpt lat="47.23026" lon="0.00451">
        <ele>60</ele>
        <time>2015-12-28T08:10:08Z</time>
      </trkpt>
      <trkpt lat="47.23016" lon="0.00446">
        <ele>62</ele>
        <time>2015-12-28T08:10:14Z</time>
      </trkpt>
      <trkpt lat="47.23008" lon="0.00439">
        <ele>63</ele>
        <time>2015-12-28T08:10:20Z</time>
      </trkpt>
      <trkpt lat="47.23001" lon="0.00431">
        <ele>63</ele>
        <time>2015-12-28T08:10:26Z</time>
      </trkpt>
      <trkpt lat="47.22993" lon="0.00423">
        <ele>61</ele>
        <time>2015-12-28T08:10:32Z</time>
      </trkpt>
      <trkpt lat="47.22985" lon="0.00415">
        <ele>59</ele>
        <time>2015-12-28T08:10:38Z</time>
      </trkpt>
      <trkpt lat="47.22977" lon="0.00406">
        <ele>55</ele>
        <time>2015-12-28T08:10:44Z</time>
      </trkpt>
      <trkpt lat="47.22969" lon="0.00398">
        <ele>55</ele>
        <time>2015-12-28T08:10:50Z</time>
      </trkpt>
      <trkpt lat="47.22959" lon="0.00391">
        <ele>55</ele>
        <time>2015-12-28T08:10:56Z</time>
      </trkpt>
      <trkpt lat="47.22951" lon="0.00386">
        <ele>57</ele>
        <time>2015-12-28T08:11:02Z</time>
      </trkpt>
      <trkpt lat="47.22941" lon="0.00379">
        <ele>56</ele>
        <time>2015-12-28T08:11:08Z</time>
      </trkpt>
      <trkpt lat="47.22931" lon="0.00372">
        <ele>57</ele>
        <time>2015-12-28T08:11:14Z</time>
      </trkpt>
      <trkpt lat="47.22922" lon="0.00364">
        <ele>52</ele>
        <time>2015-12-28T08:11:20Z</time>
      </trkpt>
      <trkpt lat="47.22913" lon="0.00358">
        <ele>55</ele>
        <time>2015-12-28T08:11:26Z</time>
      </trkpt>
      <trkpt lat="47.22905" lon="0.00351">
        <ele>54</ele>
        <time>2015-12-28T08:11:32Z</time>
      </trkpt>
      <trkpt lat="47.22896" lon="0.00347">
        <ele>54</ele>
        <time>2015-12-28T08:11:38Z</time>
      </trkpt>
      <trkpt lat="47.22891" lon="0.00347">
        <ele>53</ele>
        <time>2015-12-28T08:11:44Z</time>
      </trkpt>
      <trkpt lat="47.22884" lon="0.00345">
        <ele>52</ele>
        <time>2015-12-28T08:11:50Z</time>
      </trkpt>
      <trkpt lat="47.22874" lon="0.00342">
        <ele>51</ele>
        <time>2015-12-28T08:11:56Z</time>
      </trkpt>
      <trkpt lat="47.22865" lon="0.00339">
        <ele>53</ele>
        <time>2015-12-28T08:12:02Z</time>
      </trkpt>
      <trkpt lat="47.22853" lon="0.00336">
        <ele>51</ele>
        <time>2015-12-28T08:12:09Z</time>
      </trkpt>
      <trkpt lat="47.22844" lon="0.00334">
        <ele>53</ele>
        <time>2015-12-28T08:12:14Z</time>
      </trkpt>
      <trkpt lat="47.22832" lon="0.00329">
        <ele>51</ele>
        <time>2015-12-28T08:12:20Z</time>
      </trkpt>
      <trkpt lat="47.22821" lon="0.00324">
        <ele>48</ele>
        <time>2015-12-28T08:12:26Z</time>
      </trkpt>
      <trkpt lat="47.22812" lon="0.00318">
        <ele>50</ele>
        <time>2015-12-28T08:12:32Z</time>
      </trkpt>
      <trkpt lat="47.22804" lon="0.00313">
        <ele>48</ele>
        <time>2015-12-28T08:12:38Z</time>
      </trkpt>
      <trkpt lat="47.22794" lon="0.00305">
        <ele>48</ele>
        <time>2015-12-28T08:12:44Z</time>
      </trkpt>
      <trkpt lat="47.22784" lon="0.00298">
        <ele>47</ele>
        <time>2015-12-28T08:12:50Z</time>
      </trkpt>
      <trkpt lat="47.22773" lon="0.00295">
        <ele>50</ele>
        <time>2015-12-28T08:12:56Z</time>
      </trkpt>
      <trkpt lat="47.22766" lon="0.0031">
        <ele>55</ele>
        <time>2015-12-28T08:13:02Z</time>
      </trkpt>
      <trkpt lat="47.22764" lon="0.00328">
        <ele>61</ele>
        <time>2015-12-28T08:13:08Z</time>
      </trkpt>
      <trkpt lat="47.22761" lon="0.00342">
        <ele>65</ele>
        <time>2015-12-28T08:13:14Z</time>
      </trkpt>
      <trkpt lat="47.22756" lon="0.00359">
        <ele>68</ele>
        <time>2015-12-28T08:13:22Z</time>
      </trkpt>
      <trkpt lat="47.2275" lon="0.00363">
        <ele>66</ele>
        <time>2015-12-28T08:13:26Z</time>
      </trkpt>
      <trkpt lat="47.2274" lon="0.00353">
        <ele>61</ele>
        <time>2015-12-28T08:13:32Z</time>
      </trkpt>
      <trkpt lat="47.22731" lon="0.00342">
        <ele>58</ele>
        <time>2015-12-28T08:13:38Z</time>
      </trkpt>
      <trkpt lat="47.22722" lon="0.00331">
        <ele>55</ele>
        <time>2015-12-28T08:13:44Z</time>
      </trkpt>
      <trkpt lat="47.22713" lon="0.00321">
        <ele>55</ele>
        <time>2015-12-28T08:13:50Z</time>
      </trkpt>
      <trkpt lat="47.22705" lon="0.00311">
        <ele>54</ele>
        <time>2015-12-28T08:13:56Z</time>
      </trkpt>
      <trkpt lat="47.22694" lon="0.003">
        <ele>53</ele>
        <time>2015-12-28T08:14:03Z</time>
      </trkpt>
      <trkpt lat="47.22685" lon="0.00291">
        <ele>52</ele>
        <time>2015-12-28T08:14:09Z</time>
      </trkpt>
      <trkpt lat="47.22677" lon="0.00285">
        <ele>50</ele>
        <time>2015-12-28T08:14:14Z</time>
      </trkpt>
      <trkpt lat="47.22669" lon="0.00277">
        <ele>50</ele>
        <time>2015-12-28T08:14:20Z</time>
      </trkpt>
      <trkpt lat="47.2266" lon="0.00286">
        <ele>53</ele>
        <time>2015-12-28T08:14:30Z</time>
      </trkpt>
      <trkpt lat="47.2266" lon="0.0029">
        <ele>53</ele>
        <time>2015-12-28T08:14:32Z</time>
      </trkpt>
      <trkpt lat="47.22658" lon="0.00294">
        <ele>54</ele>
        <time>2015-12-28T08:14:38Z</time>
      </trkpt>
      <trkpt lat="47.22655" lon="0.00316">
        <ele>52</ele>
        <time>2015-12-28T08:14:47Z</time>
      </trkpt>
      <trkpt lat="47.22653" lon="0.00324">
        <ele>53</ele>
        <time>2015-12-28T08:14:50Z</time>
      </trkpt>
      <trkpt lat="47.22648" lon="0.00337">
        <ele>57</ele>
        <time>2015-12-28T08:14:56Z</time>
      </trkpt>
      <trkpt lat="47.22643" lon="0.00346">
        <ele>57</ele>
        <time>2015-12-28T08:15:02Z</time>
      </trkpt>
      <trkpt lat="47.22636" lon="0.00347">
        <ele>58</ele>
        <time>2015-12-28T08:15:08Z</time>
      </trkpt>
      <trkpt lat="47.22627" lon="0.00339">
        <ele>59</ele>
        <time>2015-12-28T08:15:14Z</time>
      </trkpt>
      <trkpt lat="47.22618" lon="0.0033">
        <ele>58</ele>
        <time>2015-12-28T08:15:20Z</time>
      </trkpt>
      <trkpt lat="47.22609" lon="0.00323">
        <ele>56</ele>
        <time>2015-12-28T08:15:26Z</time>
      </trkpt>
      <trkpt lat="47.226" lon="0.00314">
        <ele>54</ele>
        <time>2015-12-28T08:15:33Z</time>
      </trkpt>
      <trkpt lat="47.22595" lon="0.00309">
        <ele>57</ele>
        <time>2015-12-28T08:15:38Z</time>
      </trkpt>
      <trkpt lat="47.22588" lon="0.00304">
        <ele>57</ele>
        <time>2015-12-28T08:15:44Z</time>
      </trkpt>
      <trkpt lat="47.22581" lon="0.003">
        <ele>57</ele>
        <time>2015-12-28T08:15:50Z</time>
      </trkpt>
      <trkpt lat="47.22573" lon="0.00293">
        <ele>57</ele>
        <time>2015-12-28T08:15:56Z</time>
      </trkpt>
      <trkpt lat="47.22563" lon="0.00285">
        <ele>59</ele>
        <time>2015-12-28T08:16:02Z</time>
      </trkpt>
      <trkpt lat="47.22549" lon="0.00274">
        <ele>60</ele>
        <time>2015-12-28T08:16:08Z</time>
      </trkpt>
      <trkpt lat="47.22538" lon="0.00264">
        <ele>60</ele>
        <time>2015-12-28T08:16:14Z</time>
      </trkpt>
      <trkpt lat="47.2253" lon="0.00256">
        <ele>59</ele>
        <time>2015-12-28T08:16:20Z</time>
      </trkpt>
      <trkpt lat="47.22521" lon="0.00246">
        <ele>59</ele>
        <time>2015-12-28T08:16:26Z</time>
      </trkpt>
      <trkpt lat="47.22514" lon="0.00238">
        <ele>61</ele>
        <time>2015-12-28T08:16:32Z</time>
      </trkpt>
      <trkpt lat="47.22509" lon="0.00234">
        <ele>61</ele>
        <time>2015-12-28T08:16:38Z</time>
      </trkpt>
      <trkpt lat="47.22504" lon="0.0023">
        <ele>63</ele>
        <time>2015-12-28T08:16:44Z</time>
      </trkpt>
      <trkpt lat="47.22493" lon="0.00221">
        <ele>62</ele>
        <time>2015-12-28T08:16:52Z</time>
      </trkpt>
      <trkpt lat="47.22485" lon="0.00213">
        <ele>65</ele>
        <time>2015-12-28T08:16:56Z</time>
      </trkpt>
      <trkpt lat="47.22475" lon="0.00202">
        <ele>65</ele>
        <time>2015-12-28T08:17:02Z</time>
      </trkpt>
      <trkpt lat="47.22466" lon="0.00191">
        <ele>62</ele>
        <time>2015-12-28T08:17:08Z</time>
      </trkpt>
      <trkpt lat="47.22458" lon="0.00182">
        <ele>61</ele>
        <time>2015-12-28T08:17:14Z</time>
      </trkpt>
      <trkpt lat="47.22451" lon="0.00173">
        <ele>61</ele>
        <time>2015-12-28T08:17:20Z</time>
      </trkpt>
      <trkpt lat="47.22445" lon="0.00167">
        <ele>63</ele>
        <time>2015-12-28T08:17:26Z</time>
      </trkpt>
      <trkpt lat="47.22439" lon="0.00162">
        <ele>64</ele>
        <time>2015-12-28T08:17:32Z</time>
      </trkpt>
      <trkpt lat="47.22431" lon="0.00153">
        <ele>62</ele>
        <time>2015-12-28T08:17:38Z</time>
      </trkpt>
      <trkpt lat="47.22415" lon="0.00137">
        <ele>65</ele>
        <time>2015-12-28T08:17:47Z</time>
      </trkpt>
      <trkpt lat="47.22407" lon="0.00126">
        <ele>66</ele>
        <time>2015-12-28T08:17:52Z</time>
      </trkpt>
      <trkpt lat="47.22405" lon="0.00116">
        <ele>66</ele>
        <time>2015-12-28T08:17:56Z</time>
      </trkpt>
      <trkpt lat="47.2241" lon="0.00102">
        <ele>64</ele>
        <time>2015-12-28T08:18:02Z</time>
      </trkpt>
      <trkpt lat="47.22415" lon="0.00093">
        <ele>65</ele>
        <time>2015-12-28T08:18:08Z</time>
      </trkpt>
      <trkpt lat="47.2242" lon="0.00084">
        <ele>63</ele>
        <time>2015-12-28T08:18:14Z</time>
      </trkpt>
      <trkpt lat="47.22426" lon="0.00074">
        <ele>67</ele>
        <time>2015-12-28T08:18:20Z</time>
      </trkpt>
      <trkpt lat="47.22434" lon="0.0005">
        <ele>68</ele>
        <time>2015-12-28T08:18:30Z</time>
      </trkpt>
      <trkpt lat="47.22435" lon="0.00046">
        <ele>68</ele>
        <time>2015-12-28T08:18:32Z</time>
      </trkpt>
      <trkpt lat="47.22441" lon="0.00036">
        <ele>68</ele>
        <time>2015-12-28T08:18:38Z</time>
      </trkpt>
      <trkpt lat="47.22446" lon="0.00025">
        <ele>67</ele>
        <time>2015-12-28T08:18:44Z</time>
      </trkpt>
      <trkpt lat="47.22451" lon="0.00019">
        <ele>67</ele>
        <time>2015-12-28T08:18:50Z</time>
      </trkpt>
      <trkpt lat="47.22458" lon="0.00016">
        <ele>67</ele>
        <time>2015-12-28T08:18:56Z</time>
      </trkpt>
      <trkpt lat="47.22465" lon="0.00011">
        <ele>67</ele>
        <time>2015-12-28T08:19:02Z</time>
      </trkpt>
      <trkpt lat="47.22472" lon="2.0E-5">
        <ele>67</ele>
        <time>2015-12-28T08:19:08Z</time>
      </trkpt>
      <trkpt lat="47.22479" lon="-0.00012">
        <ele>68</ele>
        <time>2015-12-28T08:19:14Z</time>
      </trkpt>
      <trkpt lat="47.22489" lon="-0.00025">
        <ele>71</ele>
        <time>2015-12-28T08:19:20Z</time>
      </trkpt>
      <trkpt lat="47.22497" lon="-0.00036">
        <ele>69</ele>
        <time>2015-12-28T08:19:26Z</time>
      </trkpt>
      <trkpt lat="47.22505" lon="-0.00046">
        <ele>68</ele>
        <time>2015-12-28T08:19:32Z</time>
      </trkpt>
      <trkpt lat="47.22513" lon="-0.00054">
        <ele>67</ele>
        <time>2015-12-28T08:19:38Z</time>
      </trkpt>
      <trkpt lat="47.22519" lon="-0.00069">
        <ele>68</ele>
        <time>2015-12-28T08:19:46Z</time>
      </trkpt>
      <trkpt lat="47.22525" lon="-0.00071">
        <ele>71</ele>
        <time>2015-12-28T08:19:50Z</time>
      </trkpt>
      <trkpt lat="47.22534" lon="-0.00062">
        <ele>75</ele>
        <time>2015-12-28T08:19:56Z</time>
      </trkpt>
      <trkpt lat="47.22551" lon="-0.00046">
        <ele>72</ele>
        <time>2015-12-28T08:20:07Z</time>
      </trkpt>
      <trkpt lat="47.22552" lon="-0.00045">
        <ele>71</ele>
        <time>2015-12-28T08:20:08Z</time>
      </trkpt>
      <trkpt lat="47.2256" lon="-0.00044">
        <ele>69</ele>
        <time>2015-12-28T08:20:14Z</time>
      </trkpt>
      <trkpt lat="47.22567" lon="-0.00049">
        <ele>67</ele>
        <time>2015-12-28T08:20:20Z</time>
      </trkpt>
      <trkpt lat="47.22575" lon="-0.00056">
        <ele>68</ele>
        <time>2015-12-28T08:20:26Z</time>
      </trkpt>
      <trkpt lat="47.22588" lon="-0.00061">
        <ele>69</ele>
        <time>2015-12-28T08:20:32Z</time>
      </trkpt>
      <trkpt lat="47.22599" lon="-0.00059">
        <ele>66</ele>
        <time>2015-12-28T08:20:38Z</time>
      </trkpt>
      <trkpt lat="47.22612" lon="-0.00049">
        <ele>63</ele>
        <time>2015-12-28T08:20:48Z</time>
      </trkpt>
      <trkpt lat="47.22614" lon="-0.00048">
        <ele>63</ele>
        <time>2015-12-28T08:20:50Z</time>
      </trkpt>
      <trkpt lat="47.22625" lon="-0.00045">
        <ele>64</ele>
        <time>2015-12-28T08:20:56Z</time>
      </trkpt>
      <trkpt lat="47.22636" lon="-0.00053">
        <ele>64</ele>
        <time>2015-12-28T08:21:02Z</time>
      </trkpt>
      <trkpt lat="47.22645" lon="-0.00067">
        <ele>67</ele>
        <time>2015-12-28T08:21:08Z</time>
      </trkpt>
      <trkpt lat="47.2265" lon="-0.0008">
        <ele>67</ele>
        <time>2015-12-28T08:21:14Z</time>
      </trkpt>
      <trkpt lat="47.22655" lon="-0.00094">
        <ele>64</ele>
        <time>2015-12-28T08:21:21Z</time>
      </trkpt>
      <trkpt lat="47.22658" lon="-0.00104">
        <ele>64</ele>
        <time>2015-12-28T08:21:26Z</time>
      </trkpt>
      <trkpt lat="47.2266" lon="-0.00111">
        <ele>61</ele>
        <time>2015-12-28T08:21:32Z</time>
      </trkpt>
      <trkpt lat="47.22665" lon="-0.00123">
        <ele>60</ele>
        <time>2015-12-28T08:21:38Z</time>
      </trkpt>
      <trkpt lat="47.22675" lon="-0.00139">
        <ele>65</ele>
        <time>2015-12-28T08:21:44Z</time>
      </trkpt>
      <trkpt lat="47.22682" lon="-0.00153">
        <ele>65</ele>
        <time>2015-12-28T08:21:50Z</time>
      </trkpt>
      <trkpt lat="47.22685" lon="-0.00166">
        <ele>62</ele>
        <time>2015-12-28T08:21:56Z</time>
      </trkpt>
      <trkpt lat="47.22688" lon="-0.00177">
        <ele>61</ele>
        <time>2015-12-28T08:22:02Z</time>
      </trkpt>
      <trkpt lat="47.2269" lon="-0.00187">
        <ele>61</ele>
        <time>2015-12-28T08:22:08Z</time>
      </trkpt>
      <trkpt lat="47.22694" lon="-0.00202">
        <ele>61</ele>
        <time>2015-12-28T08:22:15Z</time>
      </trkpt>
      <trkpt lat="47.22698" lon="-0.00217">
        <ele>64</ele>
        <time>2015-12-28T08:22:20Z</time>
      </trkpt>
      <trkpt lat="47.22703" lon="-0.00233">
        <ele>68</ele>
        <time>2015-12-28T08:22:26Z</time>
      </trkpt>
      <trkpt lat="47.22706" lon="-0.00248">
        <ele>65</ele>
        <time>2015-12-28T08:22:32Z</time>
      </trkpt>
      <trkpt lat="47.2271" lon="-0.00263">
        <ele>61</ele>
        <time>2015-12-28T08:22:38Z</time>
      </trkpt>
      <trkpt lat="47.22714" lon="-0.00276">
        <ele>60</ele>
        <time>2015-12-28T08:22:44Z</time>
      </trkpt>
      <trkpt lat="47.22717" lon="-0.00286">
        <ele>59</ele>
        <time>2015-12-28T08:22:50Z</time>
      </trkpt>
      <trkpt lat="47.22719" lon="-0.00297">
        <ele>57</ele>
        <time>2015-12-28T08:22:56Z</time>
      </trkpt>
      <trkpt lat="47.22723" lon="-0.00313">
        <ele>56</ele>
        <time>2015-12-28T08:23:02Z</time>
      </trkpt>
      <trkpt lat="47.22728" lon="-0.00344">
        <ele>58</ele>
        <time>2015-12-28T08:23:13Z</time>
      </trkpt>
      <trkpt lat="47.22729" lon="-0.00347">
        <ele>58</ele>
        <time>2015-12-28T08:23:14Z</time>
      </trkpt>
      <trkpt lat="47.22734" lon="-0.00361">
        <ele>59</ele>
        <time>2015-12-28T08:23:20Z</time>
      </trkpt>
      <trkpt lat="47.22739" lon="-0.00373">
        <ele>58</ele>
        <time>2015-12-28T08:23:26Z</time>
      </trkpt>
      <trkpt lat="47.22743" lon="-0.00382">
        <ele>58</ele>
        <time>2015-12-28T08:23:32Z</time>
      </trkpt>
      <trkpt lat="47.22744" lon="-0.00392">
        <ele>59</ele>
        <time>2015-12-28T08:23:38Z</time>
      </trkpt>
      <trkpt lat="47.22746" lon="-0.00403">
        <ele>58</ele>
        <time>2015-12-28T08:23:44Z</time>
      </trkpt>
      <trkpt lat="47.2275" lon="-0.00424">
        <ele>57</ele>
        <time>2015-12-28T08:23:53Z</time>
      </trkpt>
      <trkpt lat="47.22756" lon="-0.00448">
        <ele>57</ele>
        <time>2015-12-28T08:24:01Z</time>
      </trkpt>
      <trkpt lat="47.22756" lon="-0.0045">
        <ele>56</ele>
        <time>2015-12-28T08:24:02Z</time>
      </trkpt>
      <trkpt lat="47.22759" lon="-0.00463">
        <ele>53</ele>
        <time>2015-12-28T08:24:08Z</time>
      </trkpt>
      <trkpt lat="47.22759" lon="-0.00474">
        <ele>52</ele>
        <time>2015-12-28T08:24:14Z</time>
      </trkpt>
      <trkpt lat="47.22751" lon="-0.0048">
        <ele>50</ele>
        <time>2015-12-28T08:24:20Z</time>
      </trkpt>
      <trkpt lat="47.22741" lon="-0.00483">
        <ele>56</ele>
        <time>2015-12-28T08:24:26Z</time>
      </trkpt>
      <trkpt lat="47.2273" lon="-0.00488">
        <ele>58</ele>
        <time>2015-12-28T08:24:32Z</time>
      </trkpt>
      <trkpt lat="47.22717" lon="-0.00491">
        <ele>59</ele>
        <time>2015-12-28T08:24:40Z</time>
      </trkpt>
      <trkpt lat="47.22711" lon="-0.00494">
        <ele>60</ele>
        <time>2015-12-28T08:24:44Z</time>
      </trkpt>
      <trkpt lat="47.22702" lon="-0.00499">
        <ele>58</ele>
        <time>2015-12-28T08:24:51Z</time>
      </trkpt>
      <trkpt lat="47.22697" lon="-0.00502">
        <ele>59</ele>
        <time>2015-12-28T08:24:56Z</time>
      </trkpt>
      <trkpt lat="47.2269" lon="-0.005">
        <ele>59</ele>
        <time>2015-12-28T08:25:02Z</time>
      </trkpt>
      <trkpt lat="47.22676" lon="-0.00505">
        <ele>59</ele>
        <time>2015-12-28T08:25:11Z</time>
      </trkpt>
      <trkpt lat="47.2267" lon="-0.00507">
        <ele>61</ele>
        <time>2015-12-28T08:25:14Z</time>
      </trkpt>
      <trkpt lat="47.22658" lon="-0.00513">
        <ele>62</ele>
        <time>2015-12-28T08:25:20Z</time>
      </trkpt>
      <trkpt lat="47.22646" lon="-0.0052">
        <ele>67</ele>
        <time>2015-12-28T08:25:26Z</time>
      </trkpt>
      <trkpt lat="47.22636" lon="-0.00524">
        <ele>68</ele>
        <time>2015-12-28T08:25:32Z</time>
      </trkpt>
      <trkpt lat="47.22627" lon="-0.00527">
        <ele>65</ele>
        <time>2015-12-28T08:25:38Z</time>
      </trkpt>
      <trkpt lat="47.22618" lon="-0.00532">
        <ele>64</ele>
        <time>2015-12-28T08:25:44Z</time>
      </trkpt>
      <trkpt lat="47.22606" lon="-0.00542">
        <ele>60</ele>
        <time>2015-12-28T08:25:54Z</time>
      </trkpt>
      <trkpt lat="47.226" lon="-0.00544">
        <ele>63</ele>
        <time>2015-12-28T08:25:58Z</time>
      </trkpt>
      <trkpt lat="47.2259" lon="-0.0055">
        <ele>61</ele>
        <time>2015-12-28T08:26:06Z</time>
      </trkpt>
      <trkpt lat="47.22586" lon="-0.00553">
        <ele>62</ele>
        <time>2015-12-28T08:26:08Z</time>
      </trkpt>
      <trkpt lat="47.22574" lon="-0.00562">
        <ele>63</ele>
        <time>2015-12-28T08:26:14Z</time>
      </trkpt>
      <trkpt lat="47.22563" lon="-0.00569">
        <ele>60</ele>
        <time>2015-12-28T08:26:21Z</time>
      </trkpt>
      <trkpt lat="47.22551" lon="-0.00578">
        <ele>63</ele>
        <time>2015-12-28T08:26:29Z</time>
      </trkpt>
      <trkpt lat="47.22547" lon="-0.00582">
        <ele>66</ele>
        <time>2015-12-28T08:26:32Z</time>
      </trkpt>
      <trkpt lat="47.22538" lon="-0.00591">
        <ele>67</ele>
        <time>2015-12-28T08:26:38Z</time>
      </trkpt>
      <trkpt lat="47.22528" lon="-0.00598">
        <ele>71</ele>
        <time>2015-12-28T08:26:45Z</time>
      </trkpt>
      <trkpt lat="47.2252" lon="-0.00602">
        <ele>72</ele>
        <time>2015-12-28T08:26:50Z</time>
      </trkpt>
      <trkpt lat="47.22507" lon="-0.00612">
        <ele>73</ele>
        <time>2015-12-28T08:26:59Z</time>
      </trkpt>
      <trkpt lat="47.22496" lon="-0.0062">
        <ele>71</ele>
        <time>2015-12-28T08:27:07Z</time>
      </trkpt>
      <trkpt lat="47.22494" lon="-0.0062">
        <ele>72</ele>
        <time>2015-12-28T08:27:08Z</time>
      </trkpt>
      <trkpt lat="47.22481" lon="-0.00626">
        <ele>71</ele>
        <time>2015-12-28T08:27:18Z</time>
      </trkpt>
      <trkpt lat="47.22476" lon="-0.00628">
        <ele>72</ele>
        <time>2015-12-28T08:27:22Z</time>
      </trkpt>
      <trkpt lat="47.22469" lon="-0.00631">
        <ele>74</ele>
        <time>2015-12-28T08:27:28Z</time>
      </trkpt>
      <trkpt lat="47.22461" lon="-0.00635">
        <ele>75</ele>
        <time>2015-12-28T08:27:33Z</time>
      </trkpt>
      <trkpt lat="47.22454" lon="-0.00638">
        <ele>77</ele>
        <time>2015-12-28T08:27:39Z</time>
      </trkpt>
      <trkpt lat="47.22443" lon="-0.00648">
        <ele>79</ele>
        <time>2015-12-28T08:27:49Z</time>
      </trkpt>
      <trkpt lat="47.22442" lon="-0.00648">
        <ele>78</ele>
        <time>2015-12-28T08:27:50Z</time>
      </trkpt>
      <trkpt lat="47.22431" lon="-0.00655">
        <ele>84</ele>
        <time>2015-12-28T08:27:58Z</time>
      </trkpt>
      <trkpt lat="47.22427" lon="-0.00659">
        <ele>83</ele>
        <time>2015-12-28T08:28:02Z</time>
      </trkpt>
      <trkpt lat="47.22419" lon="-0.00663">
        <ele>86</ele>
        <time>2015-12-28T08:28:08Z</time>
      </trkpt>
      <trkpt lat="47.22413" lon="-0.00669">
        <ele>90</ele>
        <time>2015-12-28T08:28:14Z</time>
      </trkpt>
      <trkpt lat="47.22404" lon="-0.00674">
        <ele>92</ele>
        <time>2015-12-28T08:28:21Z</time>
      </trkpt>
      <trkpt lat="47.22399" lon="-0.00675">
        <ele>92</ele>
        <time>2015-12-28T08:28:26Z</time>
      </trkpt>
      <trkpt lat="47.22392" lon="-0.00678">
        <ele>94</ele>
        <time>2015-12-28T08:28:32Z</time>
      </trkpt>
      <trkpt lat="47.2238" lon="-0.00683">
        <ele>92</ele>
        <time>2015-12-28T08:28:40Z</time>
      </trkpt>
      <trkpt lat="47.22375" lon="-0.00686">
        <ele>94</ele>
        <time>2015-12-28T08:28:44Z</time>
      </trkpt>
      <trkpt lat="47.22363" lon="-0.00692">
        <ele>94</ele>
        <time>2015-12-28T08:28:52Z</time>
      </trkpt>
      <trkpt lat="47.22354" lon="-0.00698">
        <ele>93</ele>
        <time>2015-12-28T08:28:58Z</time>
      </trkpt>
      <trkpt lat="47.22342" lon="-0.00705">
        <ele>92</ele>
        <time>2015-12-28T08:29:07Z</time>
      </trkpt>
      <trkpt lat="47.22341" lon="-0.00705">
        <ele>92</ele>
        <time>2015-12-28T08:29:08Z</time>
      </trkpt>
      <trkpt lat="47.22331" lon="-0.00708">
        <ele>90</ele>
        <time>2015-12-28T08:29:14Z</time>
      </trkpt>
      <trkpt lat="47.22315" lon="-0.00717">
        <ele>93</ele>
        <time>2015-12-28T08:29:25Z</time>
      </trkpt>
      <trkpt lat="47.2231" lon="-0.0072">
        <ele>92</ele>
        <time>2015-12-28T08:29:28Z</time>
      </trkpt>
      <trkpt lat="47.22303" lon="-0.00722">
        <ele>92</ele>
        <time>2015-12-28T08:29:32Z</time>
      </trkpt>
      <trkpt lat="47.22294" lon="-0.00726">
        <ele>90</ele>
        <time>2015-12-28T08:29:38Z</time>
      </trkpt>
      <trkpt lat="47.22286" lon="-0.0073">
        <ele>90</ele>
        <time>2015-12-28T08:29:44Z</time>
      </trkpt>
      <trkpt lat="47.22276" lon="-0.00736">
        <ele>92</ele>
        <time>2015-12-28T08:29:51Z</time>
      </trkpt>
      <trkpt lat="47.22268" lon="-0.0074">
        <ele>92</ele>
        <time>2015-12-28T08:29:56Z</time>
      </trkpt>
      <trkpt lat="47.22258" lon="-0.00744">
        <ele>91</ele>
        <time>2015-12-28T08:30:02Z</time>
      </trkpt>
      <trkpt lat="47.22252" lon="-0.00744">
        <ele>90</ele>
        <time>2015-12-28T08:30:08Z</time>
      </trkpt>
      <trkpt lat="47.22253" lon="-0.00742">
        <ele>89</ele>
        <time>2015-12-28T08:30:14Z</time>
      </trkpt>
      <trkpt lat="47.22252" lon="-0.00742">
        <ele>90</ele>
        <time>2015-12-28T08:30:18Z</time>
      </trkpt>
      <trkpt lat="47.22252" lon="-0.00742">
        <ele>90</ele>
        <time>2015-12-28T08:30:20Z</time>
      </trkpt>
      <trkpt lat="47.22253" lon="-0.00742">
        <ele>90</ele>
        <time>2015-12-28T08:30:23Z</time>
      </trkpt>
      <trkpt lat="47.22253" lon="-0.00742">
        <ele>90</ele>
        <time>2015-12-28T08:30:26Z</time>
      </trkpt>
      <trkpt lat="47.22253" lon="-0.00742">
        <ele>90</ele>
        <time>2015-12-28T08:30:29Z</time>
      </trkpt>
      <trkpt lat="47.22253" lon="-0.00742">
        <ele>90</ele>
        <time>2015-12-28T08:30:32Z</time>
      </trkpt>
      <trkpt lat="47.22253" lon="-0.00742">
        <ele>90</ele>
        <time>2015-12-28T08:30:35Z</time>
      </trkpt>
      <trkpt lat="47.22253" lon="-0.00742">
        <ele>90</ele>
        <time>2015-12-28T08:30:38Z</time>
      </trkpt>
      <trkpt lat="47.22253" lon="-0.00742">
        <ele>90</ele>
        <time>2015-12-28T08:30:42Z</time>
      </trkpt>
      <trkpt lat="47.22253" lon="-0.00742">
        <ele>90</ele>
        <time>2015-12-28T08:30:44Z</time>
      </trkpt>
      <trkpt lat="47.22252" lon="-0.00742">
        <ele>90</ele>
        <time>2015-12-28T08:30:47Z</time>
      </trkpt>
      <trkpt lat="47.22253" lon="-0.00742">
        <ele>91</ele>
        <time>2015-12-28T08:30:50Z</time>
      </trkpt>
      <trkpt lat="47.22253" lon="-0.00743">
        <ele>92</ele>
        <time>2015-12-28T08:30:53Z</time>
      </trkpt>
      <trkpt lat="47.22253" lon="-0.00743">
        <ele>91</ele>
        <time>2015-12-28T08:30:56Z</time>
      </trkpt>
      <trkpt lat="47.22253" lon="-0.00744">
        <ele>92</ele>
        <time>2015-12-28T08:30:59Z</time>
      </trkpt>
      <trkpt lat="47.22252" lon="-0.00744">
        <ele>91</ele>
        <time>2015-12-28T08:31:02Z</time>
      </trkpt>
      <trkpt lat="47.22251" lon="-0.00743">
        <ele>92</ele>
        <time>2015-12-28T08:31:05Z</time>
      </trkpt>
      <trkpt lat="47.22251" lon="-0.00742">
        <ele>93</ele>
        <time>2015-12-28T08:31:08Z</time>
      </trkpt>
      <trkpt lat="47.22251" lon="-0.00742">
        <ele>93</ele>
        <time>2015-12-28T08:31:11Z</time>
      </trkpt>
      <trkpt lat="47.2225" lon="-0.00742">
        <ele>93</ele>
        <time>2015-12-28T08:31:14Z</time>
      </trkpt>
      <trkpt lat="47.2225" lon="-0.00742">
        <ele>93</ele>
        <time>2015-12-28T08:31:17Z</time>
      </trkpt>
      <trkpt lat="47.2225" lon="-0.00743">
        <ele>92</ele>
        <time>2015-12-28T08:31:20Z</time>
      </trkpt>
      <trkpt lat="47.22241" lon="-0.00747">
        <ele>91</ele>
        <time>2015-12-28T08:31:26Z</time>
      </trkpt>
      <trkpt lat="47.22229" lon="-0.00753">
        <ele>92</ele>
        <time>2015-12-28T08:31:32Z</time>
      </trkpt>
      <trkpt lat="47.22219" lon="-0.00759">
        <ele>93</ele>
        <time>2015-12-28T08:31:38Z</time>
      </trkpt>
      <trkpt lat="47.22209" lon="-0.00765">
        <ele>91</ele>
        <time>2015-12-28T08:31:44Z</time>
      </trkpt>
      <trkpt lat="47.22201" lon="-0.00768">
        <ele>92</ele>
        <time>2015-12-28T08:31:50Z</time>
      </trkpt>
      <trkpt lat="47.22192" lon="-0.00771">
        <ele>90</ele>
        <time>2015-12-28T08:31:56Z</time>
      </trkpt>
      <trkpt lat="47.2218" lon="-0.00779">
        <ele>90</ele>
        <time>2015-12-28T08:32:03Z</time>
      </trkpt>
      <trkpt lat="47.22171" lon="-0.00787">
        <ele>93</ele>
        <time>2015-12-28T08:32:09Z</time>
      </trkpt>
      <trkpt lat="47.22157" lon="-0.00797">
        <ele>95</ele>
        <time>2015-12-28T08:32:19Z</time>
      </trkpt>
      <trkpt lat="47.22156" lon="-0.00798">
        <ele>93</ele>
        <time>2015-12-28T08:32:20Z</time>
      </trkpt>
      <trkpt lat="47.22146" lon="-0.00805">
        <ele>92</ele>
        <time>2015-12-28T08:32:26Z</time>
      </trkpt>
      <trkpt lat="47.22137" lon="-0.00811">
        <ele>90</ele>
        <time>2015-12-28T08:32:32Z</time>
      </trkpt>
      <trkpt lat="47.22127" lon="-0.00816">
        <ele>88</ele>
        <time>2015-12-28T08:32:38Z</time>
      </trkpt>
      <trkpt lat="47.22118" lon="-0.00816">
        <ele>93</ele>
        <time>2015-12-28T08:32:44Z</time>
      </trkpt>
      <trkpt lat="47.22106" lon="-0.00819">
        <ele>94</ele>
        <time>2015-12-28T08:32:51Z</time>
      </trkpt>
      <trkpt lat="47.22097" lon="-0.00823">
        <ele>91</ele>
        <time>2015-12-28T08:32:57Z</time>
      </trkpt>
      <trkpt lat="47.2209" lon="-0.00828">
        <ele>89</ele>
        <time>2015-12-28T08:33:02Z</time>
      </trkpt>
      <trkpt lat="47.22082" lon="-0.00832">
        <ele>86</ele>
        <time>2015-12-28T08:33:08Z</time>
      </trkpt>
      <trkpt lat="47.22072" lon="-0.00837">
        <ele>86</ele>
        <time>2015-12-28T08:33:14Z</time>
      </trkpt>
      <trkpt lat="47.22061" lon="-0.00844">
        <ele>88</ele>
        <time>2015-12-28T08:33:21Z</time>
      </trkpt>
      <trkpt lat="47.22053" lon="-0.00849">
        <ele>86</ele>
        <time>2015-12-28T08:33:26Z</time>
      </trkpt>
      <trkpt lat="47.22043" lon="-0.00852">
        <ele>86</ele>
        <time>2015-12-28T08:33:32Z</time>
      </trkpt>
      <trkpt lat="47.22029" lon="-0.00856">
        <ele>89</ele>
        <time>2015-12-28T08:33:39Z</time>
      </trkpt>
      <trkpt lat="47.22015" lon="-0.00862">
        <ele>86</ele>
        <time>2015-12-28T08:33:47Z</time>
      </trkpt>
      <trkpt lat="47.22006" lon="-0.00865">
        <ele>86</ele>
        <time>2015-12-28T08:33:54Z</time>
      </trkpt>
      <trkpt lat="47.21995" lon="-0.00869">
        <ele>85</ele>
        <time>2015-12-28T08:34:01Z</time>
      </trkpt>
      <trkpt lat="47.21993" lon="-0.0087">
        <ele>84</ele>
        <time>2015-12-28T08:34:02Z</time>
      </trkpt>
      <trkpt lat="47.21976" lon="-0.0088">
        <ele>85</ele>
        <time>2015-12-28T08:34:12Z</time>
      </trkpt>
      <trkpt lat="47.21974" lon="-0.00882">
        <ele>85</ele>
        <time>2015-12-28T08:34:14Z</time>
      </trkpt>
      <trkpt lat="47.21966" lon="-0.00887">
        <ele>83</ele>
        <time>2015-12-28T08:34:20Z</time>
      </trkpt>
      <trkpt lat="47.21958" lon="-0.00893">
        <ele>83</ele>
        <time>2015-12-28T08:34:26Z</time>
      </trkpt>
      <trkpt lat="47.21948" lon="-0.00897">
        <ele>83</ele>
        <time>2015-12-28T08:34:32Z</time>
      </trkpt>
      <trkpt lat="47.21931" lon="-0.00904">
        <ele>87</ele>
        <time>2015-12-28T08:34:41Z</time>
      </trkpt>
      <trkpt lat="47.21924" lon="-0.00904">
        <ele>86</ele>
        <time>2015-12-28T08:34:45Z</time>
      </trkpt>
      <trkpt lat="47.21912" lon="-0.00908">
        <ele>88</ele>
        <time>2015-12-28T08:34:54Z</time>
      </trkpt>
      <trkpt lat="47.2191" lon="-0.0091">
        <ele>86</ele>
        <time>2015-12-28T08:34:56Z</time>
      </trkpt>
      <trkpt lat="47.21896" lon="-0.00915">
        <ele>86</ele>
        <time>2015-12-28T08:35:04Z</time>
      </trkpt>
      <trkpt lat="47.21887" lon="-0.0092">
        <ele>86</ele>
        <time>2015-12-28T08:35:09Z</time>
      </trkpt>
      <trkpt lat="47.21879" lon="-0.00924">
        <ele>86</ele>
        <time>2015-12-28T08:35:14Z</time>
      </trkpt>
      <trkpt lat="47.21868" lon="-0.00928">
        <ele>86</ele>
        <time>2015-12-28T08:35:21Z</time>
      </trkpt>
      <trkpt lat="47.2186" lon="-0.00933">
        <ele>86</ele>
        <time>2015-12-28T08:35:26Z</time>
      </trkpt>
      <trkpt lat="47.21849" lon="-0.0094">
        <ele>87</ele>
        <time>2015-12-28T08:35:32Z</time>
      </trkpt>
      <trkpt lat="47.21838" lon="-0.00947">
        <ele>89</ele>
        <time>2015-12-28T08:35:38Z</time>
      </trkpt>
      <trkpt lat="47.21825" lon="-0.00951">
        <ele>91</ele>
        <time>2015-12-28T08:35:45Z</time>
      </trkpt>
      <trkpt lat="47.21817" lon="-0.00956">
        <ele>90</ele>
        <time>2015-12-28T08:35:50Z</time>
      </trkpt>
      <trkpt lat="47.21808" lon="-0.00959">
        <ele>88</ele>
        <time>2015-12-28T08:35:56Z</time>
      </trkpt>
      <trkpt lat="47.218" lon="-0.00965">
        <ele>87</ele>
        <time>2015-12-28T08:36:02Z</time>
      </trkpt>
      <trkpt lat="47.21793" lon="-0.00968">
        <ele>85</ele>
        <time>2015-12-28T08:36:08Z</time>
      </trkpt>
      <trkpt lat="47.21786" lon="-0.00967">
        <ele>87</ele>
        <time>2015-12-28T08:36:14Z</time>
      </trkpt>
      <trkpt lat="47.21772" lon="-0.00973">
        <ele>86</ele>
        <time>2015-12-28T08:36:23Z</time>
      </trkpt>
      <trkpt lat="47.21767" lon="-0.00973">
        <ele>89</ele>
        <time>2015-12-28T08:36:26Z</time>
      </trkpt>
      <trkpt lat="47.21758" lon="-0.00975">
        <ele>84</ele>
        <time>2015-12-28T08:36:32Z</time>
      </trkpt>
      <trkpt lat="47.21747" lon="-0.0098">
        <ele>86</ele>
        <time>2015-12-28T08:36:38Z</time>
      </trkpt>
      <trkpt lat="47.21736" lon="-0.00985">
        <ele>86</ele>
        <time>2015-12-28T08:36:44Z</time>
      </trkpt>
      <trkpt lat="47.21725" lon="-0.00992">
        <ele>86</ele>
        <time>2015-12-28T08:36:51Z</time>
      </trkpt>
      <trkpt lat="47.21717" lon="-0.00992">
        <ele>84</ele>
        <time>2015-12-28T08:36:56Z</time>
      </trkpt>
      <trkpt lat="47.21709" lon="-0.00996">
        <ele>83</ele>
        <time>2015-12-28T08:37:02Z</time>
      </trkpt>
      <trkpt lat="47.21693" lon="-0.01003">
        <ele>83</ele>
        <time>2015-12-28T08:37:10Z</time>
      </trkpt>
      <trkpt lat="47.21685" lon="-0.01004">
        <ele>86</ele>
        <time>2015-12-28T08:37:14Z</time>
      </trkpt>
      <trkpt lat="47.21674" lon="-0.01008">
        <ele>90</ele>
        <time>2015-12-28T08:37:20Z</time>
      </trkpt>
      <trkpt lat="47.2166" lon="-0.01016">
        <ele>92</ele>
        <time>2015-12-28T08:37:30Z</time>
      </trkpt>
      <trkpt lat="47.21658" lon="-0.01016">
        <ele>90</ele>
        <time>2015-12-28T08:37:32Z</time>
      </trkpt>
      <trkpt lat="47.21651" lon="-0.01016">
        <ele>87</ele>
        <time>2015-12-28T08:37:38Z</time>
      </trkpt>
      <trkpt lat="47.21638" lon="-0.0102">
        <ele>83</ele>
        <time>2015-12-28T08:37:46Z</time>
      </trkpt>
      <trkpt lat="47.21622" lon="-0.01027">
        <ele>81</ele>
        <time>2015-12-28T08:37:55Z</time>
      </trkpt>
      <trkpt lat="47.2162" lon="-0.01028">
        <ele>80</ele>
        <time>2015-12-28T08:37:56Z</time>
      </trkpt>
      <trkpt lat="47.2161" lon="-0.01033">
        <ele>80</ele>
        <time>2015-12-28T08:38:02Z</time>
      </trkpt>
      <trkpt lat="47.21601" lon="-0.01036">
        <ele>78</ele>
        <time>2015-12-28T08:38:08Z</time>
      </trkpt>
      <trkpt lat="47.21593" lon="-0.01039">
        <ele>80</ele>
        <time>2015-12-28T08:38:14Z</time>
      </trkpt>
      <trkpt lat="47.21584" lon="-0.0104">
        <ele>81</ele>
        <time>2015-12-28T08:38:20Z</time>
      </trkpt>
      <trkpt lat="47.21572" lon="-0.01045">
        <ele>81</ele>
        <time>2015-12-28T08:38:26Z</time>
      </trkpt>
      <trkpt lat="47.21556" lon="-0.01056">
        <ele>84</ele>
        <time>2015-12-28T08:38:36Z</time>
      </trkpt>
      <trkpt lat="47.21553" lon="-0.01059">
        <ele>83</ele>
        <time>2015-12-28T08:38:38Z</time>
      </trkpt>
      <trkpt lat="47.21544" lon="-0.01063">
        <ele>84</ele>
        <time>2015-12-28T08:38:44Z</time>
      </trkpt>
      <trkpt lat="47.21533" lon="-0.01067">
        <ele>88</ele>
        <time>2015-12-28T08:38:51Z</time>
      </trkpt>
      <trkpt lat="47.21518" lon="-0.01073">
        <ele>83</ele>
        <time>2015-12-28T08:39:01Z</time>
      </trkpt>
      <trkpt lat="47.21517" lon="-0.01073">
        <ele>83</ele>
        <time>2015-12-28T08:39:02Z</time>
      </trkpt>
      <trkpt lat="47.21508" lon="-0.01078">
        <ele>83</ele>
        <time>2015-12-28T08:39:08Z</time>
      </trkpt>
      <trkpt lat="47.21499" lon="-0.01081">
        <ele>80</ele>
        <time>2015-12-28T08:39:14Z</time>
      </trkpt>
      <trkpt lat="47.21478" lon="-0.01095">
        <ele>77</ele>
        <time>2015-12-28T08:39:25Z</time>
      </trkpt>
      <trkpt lat="47.21476" lon="-0.01096">
        <ele>78</ele>
        <time>2015-12-28T08:39:26Z</time>
      </trkpt>
      <trkpt lat="47.21465" lon="-0.01102">
        <ele>80</ele>
        <time>2015-12-28T08:39:33Z</time>
      </trkpt>
      <trkpt lat="47.21458" lon="-0.01106">
        <ele>80</ele>
        <time>2015-12-28T08:39:38Z</time>
      </trkpt>
      <trkpt lat="47.21449" lon="-0.01112">
        <ele>79</ele>
        <time>2015-12-28T08:39:44Z</time>
      </trkpt>
      <trkpt lat="47.21442" lon="-0.01116">
        <ele>79</ele>
        <time>2015-12-28T08:39:50Z</time>
      </trkpt>
      <trkpt lat="47.21435" lon="-0.01121">
        <ele>76</ele>
        <time>2015-12-28T08:39:56Z</time>
      </trkpt>
      <trkpt lat="47.21425" lon="-0.01126">
        <ele>80</ele>
        <time>2015-12-28T08:40:02Z</time>
      </trkpt>
      <trkpt lat="47.21408" lon="-0.01135">
        <ele>80</ele>
        <time>2015-12-28T08:40:11Z</time>
      </trkpt>
      <trkpt lat="47.21398" lon="-0.01139">
        <ele>81</ele>
        <time>2015-12-28T08:40:17Z</time>
      </trkpt>
      <trkpt lat="47.21393" lon="-0.01138">
        <ele>83</ele>
        <time>2015-12-28T08:40:20Z</time>
      </trkpt>
      <trkpt lat="47.21389" lon="-0.01121">
        <ele>86</ele>
        <time>2015-12-28T08:40:28Z</time>
      </trkpt>
      <trkpt lat="47.21386" lon="-0.01111">
        <ele>87</ele>
        <time>2015-12-28T08:40:32Z</time>
      </trkpt>
      <trkpt lat="47.21384" lon="-0.01092">
        <ele>89</ele>
        <time>2015-12-28T08:40:38Z</time>
      </trkpt>
      <trkpt lat="47.2138" lon="-0.01073">
        <ele>85</ele>
        <time>2015-12-28T08:40:46Z</time>
      </trkpt>
      <trkpt lat="47.2138" lon="-0.01064">
        <ele>86</ele>
        <time>2015-12-28T08:40:50Z</time>
      </trkpt>
      <trkpt lat="47.21375" lon="-0.01056">
        <ele>86</ele>
        <time>2015-12-28T08:40:56Z</time>
      </trkpt>
      <trkpt lat="47.21373" lon="-0.01042">
        <ele>86</ele>
        <time>2015-12-28T08:41:03Z</time>
      </trkpt>
      <trkpt lat="47.21371" lon="-0.01019">
        <ele>86</ele>
        <time>2015-12-28T08:41:11Z</time>
      </trkpt>
      <trkpt lat="47.21369" lon="-0.01004">
        <ele>84</ele>
        <time>2015-12-28T08:41:17Z</time>
      </trkpt>
      <trkpt lat="47.21367" lon="-0.00997">
        <ele>85</ele>
        <time>2015-12-28T08:41:20Z</time>
      </trkpt>
      <trkpt lat="47.21364" lon="-0.00986">
        <ele>83</ele>
        <time>2015-12-28T08:41:26Z</time>
      </trkpt>
      <trkpt lat="47.21365" lon="-0.00972">
        <ele>81</ele>
        <time>2015-12-28T08:41:32Z</time>
      </trkpt>
      <trkpt lat="47.21363" lon="-0.00955">
        <ele>81</ele>
        <time>2015-12-28T08:41:40Z</time>
      </trkpt>
      <trkpt lat="47.21361" lon="-0.00945">
        <ele>82</ele>
        <time>2015-12-28T08:41:44Z</time>
      </trkpt>
      <trkpt lat="47.21357" lon="-0.00926">
        <ele>85</ele>
        <time>2015-12-28T08:41:51Z</time>
      </trkpt>
      <trkpt lat="47.21354" lon="-0.00912">
        <ele>88</ele>
        <time>2015-12-28T08:41:56Z</time>
      </trkpt>
      <trkpt lat="47.21352" lon="-0.00896">
        <ele>89</ele>
        <time>2015-12-28T08:42:02Z</time>
      </trkpt>
      <trkpt lat="47.21358" lon="-0.00883">
        <ele>85</ele>
        <time>2015-12-28T08:42:08Z</time>
      </trkpt>
      <trkpt lat="47.2136" lon="-0.00873">
        <ele>81</ele>
        <time>2015-12-28T08:42:14Z</time>
      </trkpt>
      <trkpt lat="47.21364" lon="-0.00864">
        <ele>80</ele>
        <time>2015-12-28T08:42:20Z</time>
      </trkpt>
      <trkpt lat="47.21373" lon="-0.00852">
        <ele>79</ele>
        <time>2015-12-28T08:42:30Z</time>
      </trkpt>
      <trkpt lat="47.2138" lon="-0.00844">
        <ele>81</ele>
        <time>2015-12-28T08:42:35Z</time>
      </trkpt>
      <trkpt lat="47.2139" lon="-0.00839">
        <ele>84</ele>
        <time>2015-12-28T08:42:40Z</time>
      </trkpt>
      <trkpt lat="47.21394" lon="-0.00834">
        <ele>83</ele>
        <time>2015-12-28T08:42:45Z</time>
      </trkpt>
      <trkpt lat="47.21402" lon="-0.00826">
        <ele>83</ele>
        <time>2015-12-28T08:42:50Z</time>
      </trkpt>
      <trkpt lat="47.21418" lon="-0.00813">
        <ele>82</ele>
        <time>2015-12-28T08:43:01Z</time>
      </trkpt>
      <trkpt lat="47.2142" lon="-0.00812">
        <ele>83</ele>
        <time>2015-12-28T08:43:02Z</time>
      </trkpt>
      <trkpt lat="47.21428" lon="-0.00804">
        <ele>80</ele>
        <time>2015-12-28T08:43:08Z</time>
      </trkpt>
      <trkpt lat="47.21437" lon="-0.00792">
        <ele>82</ele>
        <time>2015-12-28T08:43:16Z</time>
      </trkpt>
      <trkpt lat="47.21444" lon="-0.00786">
        <ele>80</ele>
        <time>2015-12-28T08:43:21Z</time>
      </trkpt>
      <trkpt lat="47.21451" lon="-0.00779">
        <ele>81</ele>
        <time>2015-12-28T08:43:27Z</time>
      </trkpt>
      <trkpt lat="47.21458" lon="-0.0077">
        <ele>84</ele>
        <time>2015-12-28T08:43:32Z</time>
      </trkpt>
      <trkpt lat="47.21472" lon="-0.00757">
        <ele>82</ele>
        <time>2015-12-28T08:43:42Z</time>
      </trkpt>
      <trkpt lat="47.21474" lon="-0.00754">
        <ele>83</ele>
        <time>2015-12-28T08:43:44Z</time>
      </trkpt>
      <trkpt lat="47.21483" lon="-0.00742">
        <ele>83</ele>
        <time>2015-12-28T08:43:51Z</time>
      </trkpt>
      <trkpt lat="47.21493" lon="-0.00732">
        <ele>83</ele>
        <time>2015-12-28T08:43:59Z</time>
      </trkpt>
      <trkpt lat="47.21502" lon="-0.00724">
        <ele>86</ele>
        <time>2015-12-28T08:44:05Z</time>
      </trkpt>
      <trkpt lat="47.21506" lon="-0.0072">
        <ele>85</ele>
        <time>2015-12-28T08:44:08Z</time>
      </trkpt>
      <trkpt lat="47.21519" lon="-0.00704">
        <ele>86</ele>
        <time>2015-12-28T08:44:17Z</time>
      </trkpt>
      <trkpt lat="47.21523" lon="-0.007">
        <ele>88</ele>
        <time>2015-12-28T08:44:20Z</time>
      </trkpt>
      <trkpt lat="47.2153" lon="-0.00691">
        <ele>88</ele>
        <time>2015-12-28T08:44:26Z</time>
      </trkpt>
      <trkpt lat="47.21542" lon="-0.00676">
        <ele>86</ele>
        <time>2015-12-28T08:44:35Z</time>
      </trkpt>
      <trkpt lat="47.2155" lon="-0.00668">
        <ele>84</ele>
        <time>2015-12-28T08:44:41Z</time>
      </trkpt>
      <trkpt lat="47.21553" lon="-0.00665">
        <ele>81</ele>
        <time>2015-12-28T08:44:44Z</time>
      </trkpt>
      <trkpt lat="47.21563" lon="-0.00658">
        <ele>81</ele>
        <time>2015-12-28T08:44:52Z</time>
      </trkpt>
      <trkpt lat="47.21574" lon="-0.00651">
        <ele>81</ele>
        <time>2015-12-28T08:44:59Z</time>
      </trkpt>
      <trkpt lat="47.21579" lon="-0.00644">
        <ele>81</ele>
        <time>2015-12-28T08:45:03Z</time>
      </trkpt>
      <trkpt lat="47.21587" lon="-0.00636">
        <ele>80</ele>
        <time>2015-12-28T08:45:09Z</time>
      </trkpt>
      <trkpt lat="47.21597" lon="-0.00634">
        <ele>83</ele>
        <time>2015-12-28T08:45:14Z</time>
      </trkpt>
      <trkpt lat="47.21596" lon="-0.00619">
        <ele>77</ele>
        <time>2015-12-28T08:45:20Z</time>
      </trkpt>
      <trkpt lat="47.216" lon="-0.00603">
        <ele>80</ele>
        <time>2015-12-28T08:45:28Z</time>
      </trkpt>
      <trkpt lat="47.21611" lon="-0.00597">
        <ele>80</ele>
        <time>2015-12-28T08:45:36Z</time>
      </trkpt>
      <trkpt lat="47.21614" lon="-0.00596">
        <ele>80</ele>
        <time>2015-12-28T08:45:38Z</time>
      </trkpt>
      <trkpt lat="47.21625" lon="-0.00591">
        <ele>83</ele>
        <time>2015-12-28T08:45:44Z</time>
      </trkpt>
      <trkpt lat="47.21637" lon="-0.00587">
        <ele>85</ele>
        <time>2015-12-28T08:45:50Z</time>
      </trkpt>
      <trkpt lat="47.21648" lon="-0.00582">
        <ele>84</ele>
        <time>2015-12-28T08:45:56Z</time>
      </trkpt>
      <trkpt lat="47.21658" lon="-0.00577">
        <ele>82</ele>
        <time>2015-12-28T08:46:03Z</time>
      </trkpt>
      <trkpt lat="47.21665" lon="-0.00575">
        <ele>82</ele>
        <time>2015-12-28T08:46:08Z</time>
      </trkpt>
      <trkpt lat="47.21674" lon="-0.00572">
        <ele>82</ele>
        <time>2015-12-28T08:46:14Z</time>
      </trkpt>
      <trkpt lat="47.21685" lon="-0.00568">
        <ele>82</ele>
        <time>2015-12-28T08:46:20Z</time>
      </trkpt>
      <trkpt lat="47.21695" lon="-0.00561">
        <ele>83</ele>
        <time>2015-12-28T08:46:26Z</time>
      </trkpt>
      <trkpt lat="47.21704" lon="-0.00555">
        <ele>84</ele>
        <time>2015-12-28T08:46:32Z</time>
      </trkpt>
      <trkpt lat="47.21714" lon="-0.0055">
        <ele>83</ele>
        <time>2015-12-28T08:46:38Z</time>
      </trkpt>
      <trkpt lat="47.21723" lon="-0.00544">
        <ele>84</ele>
        <time>2015-12-28T08:46:44Z</time>
      </trkpt>
      <trkpt lat="47.21735" lon="-0.00538">
        <ele>85</ele>
        <time>2015-12-28T08:46:51Z</time>
      </trkpt>
      <trkpt lat="47.21743" lon="-0.00534">
        <ele>84</ele>
        <time>2015-12-28T08:46:56Z</time>
      </trkpt>
      <trkpt lat="47.21758" lon="-0.00522">
        <ele>83</ele>
        <time>2015-12-28T08:47:06Z</time>
      </trkpt>
      <trkpt lat="47.2176" lon="-0.00519">
        <ele>83</ele>
        <time>2015-12-28T08:47:08Z</time>
      </trkpt>
      <trkpt lat="47.21771" lon="-0.00513">
        <ele>81</ele>
        <time>2015-12-28T08:47:15Z</time>
      </trkpt>
      <trkpt lat="47.2178" lon="-0.00508">
        <ele>84</ele>
        <time>2015-12-28T08:47:21Z</time>
      </trkpt>
      <trkpt lat="47.21787" lon="-0.00499">
        <ele>85</ele>
        <time>2015-12-28T08:47:26Z</time>
      </trkpt>
      <trkpt lat="47.21791" lon="-0.00487">
        <ele>83</ele>
        <time>2015-12-28T08:47:32Z</time>
      </trkpt>
      <trkpt lat="47.21793" lon="-0.00474">
        <ele>82</ele>
        <time>2015-12-28T08:47:38Z</time>
      </trkpt>
      <trkpt lat="47.21796" lon="-0.0046">
        <ele>82</ele>
        <time>2015-12-28T08:47:44Z</time>
      </trkpt>
      <trkpt lat="47.21799" lon="-0.00448">
        <ele>82</ele>
        <time>2015-12-28T08:47:50Z</time>
      </trkpt>
      <trkpt lat="47.21802" lon="-0.00434">
        <ele>82</ele>
        <time>2015-12-28T08:47:56Z</time>
      </trkpt>
      <trkpt lat="47.21806" lon="-0.00421">
        <ele>81</ele>
        <time>2015-12-28T08:48:02Z</time>
      </trkpt>
      <trkpt lat="47.21808" lon="-0.00406">
        <ele>81</ele>
        <time>2015-12-28T08:48:08Z</time>
      </trkpt>
      <trkpt lat="47.21811" lon="-0.00393">
        <ele>81</ele>
        <time>2015-12-28T08:48:14Z</time>
      </trkpt>
      <trkpt lat="47.21813" lon="-0.00379">
        <ele>81</ele>
        <time>2015-12-28T08:48:20Z</time>
      </trkpt>
      <trkpt lat="47.21814" lon="-0.00365">
        <ele>81</ele>
        <time>2015-12-28T08:48:26Z</time>
      </trkpt>
      <trkpt lat="47.2181" lon="-0.00352">
        <ele>80</ele>
        <time>2015-12-28T08:48:32Z</time>
      </trkpt>
      <trkpt lat="47.21804" lon="-0.00341">
        <ele>78</ele>
        <time>2015-12-28T08:48:38Z</time>
      </trkpt>
      <trkpt lat="47.21797" lon="-0.00331">
        <ele>76</ele>
        <time>2015-12-28T08:48:44Z</time>
      </trkpt>
      <trkpt lat="47.21789" lon="-0.00323">
        <ele>74</ele>
        <time>2015-12-28T08:48:50Z</time>
      </trkpt>
      <trkpt lat="47.21781" lon="-0.00315">
        <ele>74</ele>
        <time>2015-12-28T08:48:56Z</time>
      </trkpt>
      <trkpt lat="47.21775" lon="-0.00306">
        <ele>72</ele>
        <time>2015-12-28T08:49:02Z</time>
      </trkpt>
      <trkpt lat="47.2177" lon="-0.00295">
        <ele>71</ele>
        <time>2015-12-28T08:49:08Z</time>
      </trkpt>
      <trkpt lat="47.21765" lon="-0.00283">
        <ele>71</ele>
        <time>2015-12-28T08:49:14Z</time>
      </trkpt>
      <trkpt lat="47.2176" lon="-0.0027">
        <ele>70</ele>
        <time>2015-12-28T08:49:20Z</time>
      </trkpt>
      <trkpt lat="47.21756" lon="-0.00258">
        <ele>69</ele>
        <time>2015-12-28T08:49:26Z</time>
      </trkpt>
      <trkpt lat="47.21752" lon="-0.00246">
        <ele>70</ele>
        <time>2015-12-28T08:49:32Z</time>
      </trkpt>
      <trkpt lat="47.21748" lon="-0.00233">
        <ele>70</ele>
        <time>2015-12-28T08:49:38Z</time>
      </trkpt>
      <trkpt lat="47.21745" lon="-0.0022">
        <ele>70</ele>
        <time>2015-12-28T08:49:44Z</time>
      </trkpt>
      <trkpt lat="47.21742" lon="-0.00207">
        <ele>71</ele>
        <time>2015-12-28T08:49:50Z</time>
      </trkpt>
      <trkpt lat="47.21739" lon="-0.00194">
        <ele>69</ele>
        <time>2015-12-28T08:49:56Z</time>
      </trkpt>
      <trkpt lat="47.21734" lon="-0.00182">
        <ele>69</ele>
        <time>2015-12-28T08:50:02Z</time>
      </trkpt>
      <trkpt lat="47.2173" lon="-0.00168">
        <ele>69</ele>
        <time>2015-12-28T08:50:08Z</time>
      </trkpt>
      <trkpt lat="47.21727" lon="-0.00155">
        <ele>69</ele>
        <time>2015-12-28T08:50:14Z</time>
      </trkpt>
      <trkpt lat="47.21727" lon="-0.00142">
        <ele>67</ele>
        <time>2015-12-28T08:50:20Z</time>
      </trkpt>
      <trkpt lat="47.21737" lon="-0.00134">
        <ele>67</ele>
        <time>2015-12-28T08:50:27Z</time>
      </trkpt>
      <trkpt lat="47.21744" lon="-0.00128">
        <ele>66</ele>
        <time>2015-12-28T08:50:32Z</time>
      </trkpt>
      <trkpt lat="47.21753" lon="-0.00121">
        <ele>67</ele>
        <time>2015-12-28T08:50:38Z</time>
      </trkpt>
      <trkpt lat="47.21761" lon="-0.00114">
        <ele>66</ele>
        <time>2015-12-28T08:50:44Z</time>
      </trkpt>
      <trkpt lat="47.21769" lon="-0.00108">
        <ele>65</ele>
        <time>2015-12-28T08:50:50Z</time>
      </trkpt>
      <trkpt lat="47.21778" lon="-0.00102">
        <ele>65</ele>
        <time>2015-12-28T08:50:56Z</time>
      </trkpt>
      <trkpt lat="47.21782" lon="-0.00091">
        <ele>66</ele>
        <time>2015-12-28T08:51:02Z</time>
      </trkpt>
      <trkpt lat="47.21775" lon="-0.00079">
        <ele>65</ele>
        <time>2015-12-28T08:51:08Z</time>
      </trkpt>
      <trkpt lat="47.21769" lon="-0.00067">
        <ele>64</ele>
        <time>2015-12-28T08:51:14Z</time>
      </trkpt>
      <trkpt lat="47.21764" lon="-0.00055">
        <ele>64</ele>
        <time>2015-12-28T08:51:20Z</time>
      </trkpt>
      <trkpt lat="47.21761" lon="-0.00042">
        <ele>63</ele>
        <time>2015-12-28T08:51:26Z</time>
      </trkpt>
      <trkpt lat="47.21759" lon="-0.00028">
        <ele>63</ele>
        <time>2015-12-28T08:51:32Z</time>
      </trkpt>
      <trkpt lat="47.21757" lon="-0.00014">
        <ele>63</ele>
        <time>2015-12-28T08:51:38Z</time>
      </trkpt>
      <trkpt lat="47.21757" lon="-0">
        <ele>63</ele>
        <time>2015-12-28T08:51:44Z</time>
      </trkpt>
      <trkpt lat="47.21758" lon="0.00014">
        <ele>64</ele>
        <time>2015-12-28T08:51:50Z</time>
      </trkpt>
      <trkpt lat="47.2176" lon="0.00029">
        <ele>64</ele>
        <time>2015-12-28T08:51:56Z</time>
      </trkpt>
      <trkpt lat="47.21757" lon="0.00043">
        <ele>63</ele>
        <time>2015-12-28T08:52:02Z</time>
      </trkpt>
      <trkpt lat="47.21755" lon="0.00057">
        <ele>63</ele>
        <time>2015-12-28T08:52:08Z</time>
      </trkpt>
      <trkpt lat="47.21751" lon="0.00072">
        <ele>63</ele>
        <time>2015-12-28T08:52:14Z</time>
      </trkpt>
      <trkpt lat="47.21745" lon="0.00083">
        <ele>64</ele>
        <time>2015-12-28T08:52:20Z</time>
      </trkpt>
      <trkpt lat="47.21737" lon="0.00077">
        <ele>64</ele>
        <time>2015-12-28T08:52:26Z</time>
      </trkpt>
      <trkpt lat="47.21729" lon="0.00066">
        <ele>64</ele>
        <time>2015-12-28T08:52:32Z</time>
      </trkpt>
      <trkpt lat="47.21721" lon="0.00057">
        <ele>64</ele>
        <time>2015-12-28T08:52:38Z</time>
      </trkpt>
      <trkpt lat="47.21714" lon="0.00048">
        <ele>64</ele>
        <time>2015-12-28T08:52:44Z</time>
      </trkpt>
      <trkpt lat="47.21706" lon="0.00039">
        <ele>65</ele>
        <time>2015-12-28T08:52:50Z</time>
      </trkpt>
      <trkpt lat="47.21699" lon="0.0003">
        <ele>65</ele>
        <time>2015-12-28T08:52:56Z</time>
      </trkpt>
      <trkpt lat="47.21691" lon="0.00022">
        <ele>66</ele>
        <time>2015-12-28T08:53:02Z</time>
      </trkpt>
      <trkpt lat="47.21683" lon="0.00013">
        <ele>66</ele>
        <time>2015-12-28T08:53:08Z</time>
      </trkpt>
      <trkpt lat="47.21676" lon="4.0E-5">
        <ele>68</ele>
        <time>2015-12-28T08:53:14Z</time>
      </trkpt>
      <trkpt lat="47.21669" lon="-5.0E-5">
        <ele>68</ele>
        <time>2015-12-28T08:53:20Z</time>
      </trkpt>
      <trkpt lat="47.21662" lon="-0.00013">
        <ele>68</ele>
        <time>2015-12-28T08:53:26Z</time>
      </trkpt>
      <trkpt lat="47.21654" lon="-0.00021">
        <ele>67</ele>
        <time>2015-12-28T08:53:32Z</time>
      </trkpt>
      <trkpt lat="47.21646" lon="-0.0003">
        <ele>67</ele>
        <time>2015-12-28T08:53:38Z</time>
      </trkpt>
      <trkpt lat="47.21638" lon="-0.00037">
        <ele>67</ele>
        <time>2015-12-28T08:53:44Z</time>
      </trkpt>
      <trkpt lat="47.21628" lon="-0.00037">
        <ele>66</ele>
        <time>2015-12-28T08:53:50Z</time>
      </trkpt>
      <trkpt lat="47.21619" lon="-0.00037">
        <ele>67</ele>
        <time>2015-12-28T08:53:56Z</time>
      </trkpt>
      <trkpt lat="47.21609" lon="-0.00037">
        <ele>67</ele>
        <time>2015-12-28T08:54:02Z</time>
      </trkpt>
      <trkpt lat="47.216" lon="-0.00037">
        <ele>68</ele>
        <time>2015-12-28T08:54:08Z</time>
      </trkpt>
      <trkpt lat="47.2159" lon="-0.00035">
        <ele>68</ele>
        <time>2015-12-28T08:54:14Z</time>
      </trkpt>
      <trkpt lat="47.21582" lon="-0.00031">
        <ele>69</ele>
        <time>2015-12-28T08:54:20Z</time>
      </trkpt>
      <trkpt lat="47.21574" lon="-0.00023">
        <ele>70</ele>
        <time>2015-12-28T08:54:26Z</time>
      </trkpt>
      <trkpt lat="47.21567" lon="-0.00014">
        <ele>70</ele>
        <time>2015-12-28T08:54:32Z</time>
      </trkpt>
      <trkpt lat="47.2156" lon="-5.0E-5">
        <ele>71</ele>
        <time>2015-12-28T08:54:38Z</time>
      </trkpt>
      <trkpt lat="47.21552" lon="3.0E-5">
        <ele>72</ele>
        <time>2015-12-28T08:54:44Z</time>
      </trkpt>
      <trkpt lat="47.21546" lon="0.00011">
        <ele>72</ele>
        <time>2015-12-28T08:54:50Z</time>
      </trkpt>
      <trkpt lat="47.21548" lon="0.00024">
        <ele>72</ele>
        <time>2015-12-28T08:54:56Z</time>
      </trkpt>
      <trkpt lat="47.21551" lon="0.00036">
        <ele>72</ele>
        <time>2015-12-28T08:55:02Z</time>
      </trkpt>
      <trkpt lat="47.21555" lon="0.00046">
        <ele>73</ele>
        <time>2015-12-28T08:55:08Z</time>
      </trkpt>
      <trkpt lat="47.21559" lon="0.00058">
        <ele>74</ele>
        <time>2015-12-28T08:55:14Z</time>
      </trkpt>
      <trkpt lat="47.21562" lon="0.0007">
        <ele>76</ele>
        <time>2015-12-28T08:55:20Z</time>
      </trkpt>
      <trkpt lat="47.21567" lon="0.00082">
        <ele>77</ele>
        <time>2015-12-28T08:55:26Z</time>
      </trkpt>
      <trkpt lat="47.21571" lon="0.00095">
        <ele>78</ele>
        <time>2015-12-28T08:55:32Z</time>
      </trkpt>
      <trkpt lat="47.21575" lon="0.00108">
        <ele>78</ele>
        <time>2015-12-28T08:55:38Z</time>
      </trkpt>
      <trkpt lat="47.2158" lon="0.0012">
        <ele>78</ele>
        <time>2015-12-28T08:55:44Z</time>
      </trkpt>
      <trkpt lat="47.21584" lon="0.00133">
        <ele>79</ele>
        <time>2015-12-28T08:55:50Z</time>
      </trkpt>
      <trkpt lat="47.21588" lon="0.00146">
        <ele>79</ele>
        <time>2015-12-28T08:55:56Z</time>
      </trkpt>
      <trkpt lat="47.21592" lon="0.00159">
        <ele>79</ele>
        <time>2015-12-28T08:56:02Z</time>
      </trkpt>
      <trkpt lat="47.21596" lon="0.00171">
        <ele>80</ele>
        <time>2015-12-28T08:56:08Z</time>
      </trkpt>
      <trkpt lat="47.21599" lon="0.00184">
        <ele>81</ele>
        <time>2015-12-28T08:56:14Z</time>
      </trkpt>
      <trkpt lat="47.21591" lon="0.00191">
        <ele>80</ele>
        <time>2015-12-28T08:56:20Z</time>
      </trkpt>
      <trkpt lat="47.21587" lon="0.00192">
        <ele>80</ele>
        <time>2015-12-28T08:56:26Z</time>
      </trkpt>
      <trkpt lat="47.21583" lon="0.00194">
        <ele>80</ele>
        <time>2015-12-28T08:56:32Z</time>
      </trkpt>
      <trkpt lat="47.21576" lon="0.00201">
        <ele>80</ele>
        <time>2015-12-28T08:56:38Z</time>
      </trkpt>
      <trkpt lat="47.21573" lon="0.00212">
        <ele>82</ele>
        <time>2015-12-28T08:56:44Z</time>
      </trkpt>
      <trkpt lat="47.21573" lon="0.00224">
        <ele>82</ele>
        <time>2015-12-28T08:56:50Z</time>
      </trkpt>
      <trkpt lat="47.21573" lon="0.00237">
        <ele>81</ele>
        <time>2015-12-28T08:56:56Z</time>
      </trkpt>
      <trkpt lat="47.21573" lon="0.00249">
        <ele>82</ele>
        <time>2015-12-28T08:57:02Z</time>
      </trkpt>
      <trkpt lat="47.21578" lon="0.00259">
        <ele>81</ele>
        <time>2015-12-28T08:57:08Z</time>
      </trkpt>
      <trkpt lat="47.21585" lon="0.00265">
        <ele>78</ele>
        <time>2015-12-28T08:57:14Z</time>
      </trkpt>
      <trkpt lat="47.21591" lon="0.00271">
        <ele>75</ele>
        <time>2015-12-28T08:57:20Z</time>
      </trkpt>
      <trkpt lat="47.21597" lon="0.00282">
        <ele>76</ele>
        <time>2015-12-28T08:57:27Z</time>
      </trkpt>
      <trkpt lat="47.21602" lon="0.00294">
        <ele>77</ele>
        <time>2015-12-28T08:57:32Z</time>
      </trkpt>
      <trkpt lat="47.2161" lon="0.00309">
        <ele>79</ele>
        <time>2015-12-28T08:57:38Z</time>
      </trkpt>
      <trkpt lat="47.21616" lon="0.00322">
        <ele>79</ele>
        <time>2015-12-28T08:57:44Z</time>
      </trkpt>
      <trkpt lat="47.21622" lon="0.00333">
        <ele>79</ele>
        <time>2015-12-28T08:57:50Z</time>
      </trkpt>
      <trkpt lat="47.21628" lon="0.00345">
        <ele>80</ele>
        <time>2015-12-28T08:57:56Z</time>
      </trkpt>
      <trkpt lat="47.21635" lon="0.00355">
        <ele>80</ele>
        <time>2015-12-28T08:58:02Z</time>
      </trkpt>
      <trkpt lat="47.21646" lon="0.00364">
        <ele>79</ele>
        <time>2015-12-28T08:58:09Z</time>
      </trkpt>
      <trkpt lat="47.21655" lon="0.00369">
        <ele>79</ele>
        <time>2015-12-28T08:58:15Z</time>
      </trkpt>
      <trkpt lat="47.21662" lon="0.00372">
        <ele>78</ele>
        <time>2015-12-28T08:58:20Z</time>
      </trkpt>
      <trkpt lat="47.21671" lon="0.00377">
        <ele>78</ele>
        <time>2015-12-28T08:58:26Z</time>
      </trkpt>
      <trkpt lat="47.21679" lon="0.00383">
        <ele>77</ele>
        <time>2015-12-28T08:58:32Z</time>
      </trkpt>
      <trkpt lat="47.21688" lon="0.0039">
        <ele>75</ele>
        <time>2015-12-28T08:58:38Z</time>
      </trkpt>
      <trkpt lat="47.21695" lon="0.00397">
        <ele>75</ele>
        <time>2015-12-28T08:58:44Z</time>
      </trkpt>
      <trkpt lat="47.21704" lon="0.00404">
        <ele>73</ele>
        <time>2015-12-28T08:58:50Z</time>
      </trkpt>
      <trkpt lat="47.21714" lon="0.00413">
        <ele>71</ele>
        <time>2015-12-28T08:58:57Z</time>
      </trkpt>
      <trkpt lat="47.21721" lon="0.00419">
        <ele>70</ele>
        <time>2015-12-28T08:59:02Z</time>
      </trkpt>
      <trkpt lat="47.2173" lon="0.00425">
        <ele>68</ele>
        <time>2015-12-28T08:59:08Z</time>
      </trkpt>
      <trkpt lat="47.21738" lon="0.00434">
        <ele>67</ele>
        <time>2015-12-28T08:59:14Z</time>
      </trkpt>
      <trkpt lat="47.21744" lon="0.00447">
        <ele>68</ele>
        <time>2015-12-28T08:59:20Z</time>
      </trkpt>
      <trkpt lat="47.21752" lon="0.00458">
        <ele>68</ele>
        <time>2015-12-28T08:59:26Z</time>
      </trkpt>
      <trkpt lat="47.2176" lon="0.00467">
        <ele>66</ele>
        <time>2015-12-28T08:59:32Z</time>
      </trkpt>
      <trkpt lat="47.21763" lon="0.00477">
        <ele>65</ele>
        <time>2015-12-28T08:59:38Z</time>
      </trkpt>
      <trkpt lat="47.21757" lon="0.00487">
        <ele>66</ele>
        <time>2015-12-28T08:59:44Z</time>
      </trkpt>
      <trkpt lat="47.2175" lon="0.00497">
        <ele>66</ele>
        <time>2015-12-28T08:59:50Z</time>
      </trkpt>
      <trkpt lat="47.21744" lon="0.00507">
        <ele>66</ele>
        <time>2015-12-28T08:59:56Z</time>
      </trkpt>
      <trkpt lat="47.21738" lon="0.00518">
        <ele>66</ele>
        <time>2015-12-28T09:00:02Z</time>
      </trkpt>
      <trkpt lat="47.21731" lon="0.00528">
        <ele>68</ele>
        <time>2015-12-28T09:00:08Z</time>
      </trkpt>
      <trkpt lat="47.21725" lon="0.00539">
        <ele>67</ele>
        <time>2015-12-28T09:00:14Z</time>
      </trkpt>
      <trkpt lat="47.21719" lon="0.00551">
        <ele>67</ele>
        <time>2015-12-28T09:00:20Z</time>
      </trkpt>
      <trkpt lat="47.21712" lon="0.00562">
        <ele>67</ele>
        <time>2015-12-28T09:00:26Z</time>
      </trkpt>
      <trkpt lat="47.21704" lon="0.00572">
        <ele>66</ele>
        <time>2015-12-28T09:00:32Z</time>
      </trkpt>
      <trkpt lat="47.21698" lon="0.00582">
        <ele>67</ele>
        <time>2015-12-28T09:00:38Z</time>
      </trkpt>
      <trkpt lat="47.21691" lon="0.00593">
        <ele>67</ele>
        <time>2015-12-28T09:00:44Z</time>
      </trkpt>
      <trkpt lat="47.21685" lon="0.00604">
        <ele>69</ele>
        <time>2015-12-28T09:00:50Z</time>
      </trkpt>
      <trkpt lat="47.21678" lon="0.00614">
        <ele>69</ele>
        <time>2015-12-28T09:00:56Z</time>
      </trkpt>
      <trkpt lat="47.21672" lon="0.00625">
        <ele>70</ele>
        <time>2015-12-28T09:01:02Z</time>
      </trkpt>
      <trkpt lat="47.21665" lon="0.00637">
        <ele>71</ele>
        <time>2015-12-28T09:01:08Z</time>
      </trkpt>
      <trkpt lat="47.21658" lon="0.00648">
        <ele>70</ele>
        <time>2015-12-28T09:01:14Z</time>
      </trkpt>
      <trkpt lat="47.21653" lon="0.0066">
        <ele>69</ele>
        <time>2015-12-28T09:01:20Z</time>
      </trkpt>
      <trkpt lat="47.21646" lon="0.00669">
        <ele>68</ele>
        <time>2015-12-28T09:01:26Z</time>
      </trkpt>
      <trkpt lat="47.21639" lon="0.00665">
        <ele>69</ele>
        <time>2015-12-28T09:01:32Z</time>
      </trkpt>
      <trkpt lat="47.21631" lon="0.00656">
        <ele>70</ele>
        <time>2015-12-28T09:01:38Z</time>
      </trkpt>
      <trkpt lat="47.21623" lon="0.00647">
        <ele>70</ele>
        <time>2015-12-28T09:01:44Z</time>
      </trkpt>
      <trkpt lat="47.21616" lon="0.00638">
        <ele>70</ele>
        <time>2015-12-28T09:01:50Z</time>
      </trkpt>
      <trkpt lat="47.21607" lon="0.00631">
        <ele>71</ele>
        <time>2015-12-28T09:01:56Z</time>
      </trkpt>
      <trkpt lat="47.216" lon="0.00622">
        <ele>72</ele>
        <time>2015-12-28T09:02:02Z</time>
      </trkpt>
      <trkpt lat="47.21592" lon="0.00613">
        <ele>72</ele>
        <time>2015-12-28T09:02:08Z</time>
      </trkpt>
      <trkpt lat="47.21586" lon="0.00604">
        <ele>73</ele>
        <time>2015-12-28T09:02:14Z</time>
      </trkpt>
      <trkpt lat="47.2158" lon="0.00593">
        <ele>74</ele>
        <time>2015-12-28T09:02:20Z</time>
      </trkpt>
      <trkpt lat="47.21575" lon="0.00581">
        <ele>74</ele>
        <time>2015-12-28T09:02:26Z</time>
      </trkpt>
      <trkpt lat="47.21569" lon="0.00569">
        <ele>76</ele>
        <time>2015-12-28T09:02:32Z</time>
      </trkpt>
      <trkpt lat="47.21565" lon="0.00557">
        <ele>77</ele>
        <time>2015-12-28T09:02:38Z</time>
      </trkpt>
      <trkpt lat="47.2156" lon="0.00545">
        <ele>77</ele>
        <time>2015-12-28T09:02:44Z</time>
      </trkpt>
      <trkpt lat="47.21556" lon="0.0053">
        <ele>79</ele>
        <time>2015-12-28T09:02:51Z</time>
      </trkpt>
      <trkpt lat="47.21554" lon="0.00519">
        <ele>81</ele>
        <time>2015-12-28T09:02:56Z</time>
      </trkpt>
      <trkpt lat="47.2155" lon="0.00507">
        <ele>81</ele>
        <time>2015-12-28T09:03:02Z</time>
      </trkpt>
      <trkpt lat="47.21545" lon="0.00497">
        <ele>83</ele>
        <time>2015-12-28T09:03:08Z</time>
      </trkpt>
      <trkpt lat="47.21539" lon="0.00488">
        <ele>83</ele>
        <time>2015-12-28T09:03:14Z</time>
      </trkpt>
      <trkpt lat="47.21532" lon="0.00476">
        <ele>87</ele>
        <time>2015-12-28T09:03:20Z</time>
      </trkpt>
      <trkpt lat="47.21526" lon="0.00464">
        <ele>89</ele>
        <time>2015-12-28T09:03:26Z</time>
      </trkpt>
      <trkpt lat="47.2152" lon="0.00451">
        <ele>91</ele>
        <time>2015-12-28T09:03:33Z</time>
      </trkpt>
      <trkpt lat="47.21511" lon="0.00439">
        <ele>90</ele>
        <time>2015-12-28T09:03:42Z</time>
      </trkpt>
      <trkpt lat="47.21505" lon="0.00435">
        <ele>88</ele>
        <time>2015-12-28T09:03:46Z</time>
      </trkpt>
      <trkpt lat="47.21503" lon="0.00436">
        <ele>89</ele>
        <time>2015-12-28T09:03:50Z</time>
      </trkpt>
      <trkpt lat="47.21503" lon="0.00437">
        <ele>87</ele>
        <time>2015-12-28T09:03:56Z</time>
      </trkpt>
      <trkpt lat="47.21502" lon="0.00435">
        <ele>85</ele>
        <time>2015-12-28T09:03:59Z</time>
      </trkpt>
      <trkpt lat="47.21486" lon="0.0042">
        <ele>87</ele>
        <time>2015-12-28T09:04:10Z</time>
      </trkpt>
      <trkpt lat="47.21484" lon="0.00418">
        <ele>86</ele>
        <time>2015-12-28T09:04:11Z</time>
      </trkpt>
      <trkpt lat="47.21478" lon="0.00414">
        <ele>80</ele>
        <time>2015-12-28T09:04:17Z</time>
      </trkpt>
      <trkpt lat="47.2147" lon="0.00405">
        <ele>85</ele>
        <time>2015-12-28T09:04:23Z</time>
      </trkpt>
      <trkpt lat="47.21463" lon="0.00397">
        <ele>85</ele>
        <time>2015-12-28T09:04:29Z</time>
      </trkpt>
      <trkpt lat="47.21457" lon="0.00391">
        <ele>83</ele>
        <time>2015-12-28T09:04:35Z</time>
      </trkpt>
      <trkpt lat="47.21442" lon="0.00374">
        <ele>82</ele>
        <time>2015-12-28T09:04:45Z</time>
      </trkpt>
      <trkpt lat="47.21439" lon="0.00371">
        <ele>83</ele>
        <time>2015-12-28T09:04:47Z</time>
      </trkpt>
      <trkpt lat="47.21429" lon="0.00364">
        <ele>83</ele>
        <time>2015-12-28T09:04:53Z</time>
      </trkpt>
      <trkpt lat="47.21422" lon="0.00358">
        <ele>83</ele>
        <time>2015-12-28T09:04:59Z</time>
      </trkpt>
      <trkpt lat="47.21414" lon="0.00354">
        <ele>84</ele>
        <time>2015-12-28T09:05:05Z</time>
      </trkpt>
      <trkpt lat="47.21403" lon="0.00346">
        <ele>88</ele>
        <time>2015-12-28T09:05:11Z</time>
      </trkpt>
      <trkpt lat="47.21393" lon="0.00341">
        <ele>86</ele>
        <time>2015-12-28T09:05:17Z</time>
      </trkpt>
      <trkpt lat="47.21383" lon="0.0034">
        <ele>87</ele>
        <time>2015-12-28T09:05:23Z</time>
      </trkpt>
      <trkpt lat="47.21375" lon="0.00344">
        <ele>85</ele>
        <time>2015-12-28T09:05:29Z</time>
      </trkpt>
      <trkpt lat="47.21364" lon="0.00342">
        <ele>89</ele>
        <time>2015-12-28T09:05:35Z</time>
      </trkpt>
      <trkpt lat="47.21352" lon="0.00338">
        <ele>89</ele>
        <time>2015-12-28T09:05:41Z</time>
      </trkpt>
      <trkpt lat="47.21344" lon="0.00337">
        <ele>89</ele>
        <time>2015-12-28T09:05:47Z</time>
      </trkpt>
      <trkpt lat="47.21335" lon="0.00335">
        <ele>90</ele>
        <time>2015-12-28T09:05:53Z</time>
      </trkpt>
      <trkpt lat="47.21325" lon="0.00333">
        <ele>91</ele>
        <time>2015-12-28T09:05:59Z</time>
      </trkpt>
      <trkpt lat="47.21315" lon="0.0033">
        <ele>89</ele>
        <time>2015-12-28T09:06:05Z</time>
      </trkpt>
      <trkpt lat="47.21306" lon="0.00324">
        <ele>90</ele>
        <time>2015-12-28T09:06:11Z</time>
      </trkpt>
      <trkpt lat="47.21299" lon="0.00322">
        <ele>88</ele>
        <time>2015-12-28T09:06:17Z</time>
      </trkpt>
      <trkpt lat="47.2129" lon="0.00321">
        <ele>88</ele>
        <time>2015-12-28T09:06:23Z</time>
      </trkpt>
      <trkpt lat="47.21279" lon="0.00319">
        <ele>89</ele>
        <time>2015-12-28T09:06:29Z</time>
      </trkpt>
      <trkpt lat="47.21269" lon="0.00317">
        <ele>88</ele>
        <time>2015-12-28T09:06:35Z</time>
      </trkpt>
      <trkpt lat="47.21261" lon="0.00313">
        <ele>89</ele>
        <time>2015-12-28T09:06:41Z</time>
      </trkpt>
      <trkpt lat="47.21253" lon="0.00314">
        <ele>86</ele>
        <time>2015-12-28T09:06:47Z</time>
      </trkpt>
      <trkpt lat="47.2124" lon="0.00313">
        <ele>86</ele>
        <time>2015-12-28T09:06:54Z</time>
      </trkpt>
      <trkpt lat="47.21231" lon="0.00312">
        <ele>85</ele>
        <time>2015-12-28T09:06:59Z</time>
      </trkpt>
      <trkpt lat="47.2122" lon="0.00309">
        <ele>87</ele>
        <time>2015-12-28T09:07:05Z</time>
      </trkpt>
      <trkpt lat="47.2121" lon="0.00306">
        <ele>89</ele>
        <time>2015-12-28T09:07:11Z</time>
      </trkpt>
      <trkpt lat="47.21202" lon="0.00308">
        <ele>87</ele>
        <time>2015-12-28T09:07:17Z</time>
      </trkpt>
      <trkpt lat="47.21192" lon="0.00305">
        <ele>86</ele>
        <time>2015-12-28T09:07:23Z</time>
      </trkpt>
      <trkpt lat="47.21178" lon="0.00303">
        <ele>90</ele>
        <time>2015-12-28T09:07:31Z</time>
      </trkpt>
      <trkpt lat="47.21173" lon="0.0031">
        <ele>89</ele>
        <time>2015-12-28T09:07:35Z</time>
      </trkpt>
      <trkpt lat="47.21169" lon="0.00322">
        <ele>90</ele>
        <time>2015-12-28T09:07:41Z</time>
      </trkpt>
      <trkpt lat="47.21165" lon="0.00332">
        <ele>91</ele>
        <time>2015-12-28T09:07:47Z</time>
      </trkpt>
      <trkpt lat="47.21162" lon="0.00339">
        <ele>90</ele>
        <time>2015-12-28T09:07:53Z</time>
      </trkpt>
      <trkpt lat="47.21161" lon="0.0035">
        <ele>89</ele>
        <time>2015-12-28T09:07:59Z</time>
      </trkpt>
      <trkpt lat="47.21159" lon="0.00363">
        <ele>88</ele>
        <time>2015-12-28T09:08:05Z</time>
      </trkpt>
      <trkpt lat="47.21156" lon="0.00379">
        <ele>88</ele>
        <time>2015-12-28T09:08:11Z</time>
      </trkpt>
      <trkpt lat="47.21152" lon="0.004">
        <ele>89</ele>
        <time>2015-12-28T09:08:17Z</time>
      </trkpt>
      <trkpt lat="47.21149" lon="0.00423">
        <ele>88</ele>
        <time>2015-12-28T09:08:24Z</time>
      </trkpt>
      <trkpt lat="47.21141" lon="0.00442">
        <ele>86</ele>
        <time>2015-12-28T09:08:32Z</time>
      </trkpt>
      <trkpt lat="47.21139" lon="0.00448">
        <ele>87</ele>
        <time>2015-12-28T09:08:35Z</time>
      </trkpt>
      <trkpt lat="47.21135" lon="0.00456">
        <ele>85</ele>
        <time>2015-12-28T09:08:41Z</time>
      </trkpt>
      <trkpt lat="47.2113" lon="0.0047">
        <ele>89</ele>
        <time>2015-12-28T09:08:50Z</time>
      </trkpt>
      <trkpt lat="47.21128" lon="0.00478">
        <ele>89</ele>
        <time>2015-12-28T09:08:53Z</time>
      </trkpt>
      <trkpt lat="47.21123" lon="0.00492">
        <ele>89</ele>
        <time>2015-12-28T09:08:59Z</time>
      </trkpt>
      <trkpt lat="47.21121" lon="0.00503">
        <ele>89</ele>
        <time>2015-12-28T09:09:05Z</time>
      </trkpt>
      <trkpt lat="47.21121" lon="0.00516">
        <ele>87</ele>
        <time>2015-12-28T09:09:11Z</time>
      </trkpt>
      <trkpt lat="47.21117" lon="0.00538">
        <ele>88</ele>
        <time>2015-12-28T09:09:18Z</time>
      </trkpt>
      <trkpt lat="47.21114" lon="0.00553">
        <ele>88</ele>
        <time>2015-12-28T09:09:23Z</time>
      </trkpt>
      <trkpt lat="47.2111" lon="0.00565">
        <ele>83</ele>
        <time>2015-12-28T09:09:29Z</time>
      </trkpt>
      <trkpt lat="47.21106" lon="0.00571">
        <ele>80</ele>
        <time>2015-12-28T09:09:35Z</time>
      </trkpt>
      <trkpt lat="47.21097" lon="0.00576">
        <ele>82</ele>
        <time>2015-12-28T09:09:44Z</time>
      </trkpt>
      <trkpt lat="47.21095" lon="0.00578">
        <ele>82</ele>
        <time>2015-12-28T09:09:47Z</time>
      </trkpt>
      <trkpt lat="47.21089" lon="0.0058">
        <ele>86</ele>
        <time>2015-12-28T09:09:55Z</time>
      </trkpt>
      <trkpt lat="47.21087" lon="0.00582">
        <ele>87</ele>
        <time>2015-12-28T09:09:59Z</time>
      </trkpt>
      <trkpt lat="47.21083" lon="0.00586">
        <ele>89</ele>
        <time>2015-12-28T09:10:05Z</time>
      </trkpt>
      <trkpt lat="47.21078" lon="0.00588">
        <ele>91</ele>
        <time>2015-12-28T09:10:11Z</time>
      </trkpt>
      <trkpt lat="47.21075" lon="0.00594">
        <ele>91</ele>
        <time>2015-12-28T09:10:19Z</time>
      </trkpt>
      <trkpt lat="47.21076" lon="0.00595">
        <ele>89</ele>
        <time>2015-12-28T09:10:24Z</time>
      </trkpt>
      <trkpt lat="47.21076" lon="0.00595">
        <ele>89</ele>
        <time>2015-12-28T09:10:26Z</time>
      </trkpt>
      <trkpt lat="47.21076" lon="0.00594">
        <ele>88</ele>
        <time>2015-12-28T09:10:29Z</time>
      </trkpt>
      <trkpt lat="47.21076" lon="0.00595">
        <ele>88</ele>
        <time>2015-12-28T09:10:32Z</time>
      </trkpt>
      <trkpt lat="47.21076" lon="0.00594">
        <ele>88</ele>
        <time>2015-12-28T09:10:36Z</time>
      </trkpt>
      <trkpt lat="47.21076" lon="0.00594">
        <ele>88</ele>
        <time>2015-12-28T09:10:39Z</time>
      </trkpt>
      <trkpt lat="47.21076" lon="0.00595">
        <ele>88</ele>
        <time>2015-12-28T09:10:41Z</time>
      </trkpt>
      <trkpt lat="47.21076" lon="0.00595">
        <ele>88</ele>
        <time>2015-12-28T09:10:45Z</time>
      </trkpt>
      <trkpt lat="47.21076" lon="0.00595">
        <ele>88</ele>
        <time>2015-12-28T09:10:47Z</time>
      </trkpt>
      <trkpt lat="47.21076" lon="0.00595">
        <ele>88</ele>
        <time>2015-12-28T09:10:50Z</time>
      </trkpt>
      <trkpt lat="47.21076" lon="0.00595">
        <ele>88</ele>
        <time>2015-12-28T09:10:54Z</time>
      </trkpt>
      <trkpt lat="47.21076" lon="0.00594">
        <ele>88</ele>
        <time>2015-12-28T09:10:56Z</time>
      </trkpt>
      <trkpt lat="47.21076" lon="0.00595">
        <ele>88</ele>
        <time>2015-12-28T09:10:59Z</time>
      </trkpt>
      <trkpt lat="47.21076" lon="0.00594">
        <ele>88</ele>
        <time>2015-12-28T09:11:02Z</time>
      </trkpt>
      <trkpt lat="47.21076" lon="0.00594">
        <ele>88</ele>
        <time>2015-12-28T09:11:05Z</time>
      </trkpt>
      <trkpt lat="47.21076" lon="0.00594">
        <ele>88</ele>
        <time>2015-12-28T09:11:08Z</time>
      </trkpt>
      <trkpt lat="47.21076" lon="0.00594">
        <ele>88</ele>
        <time>2015-12-28T09:11:12Z</time>
      </trkpt>
      <trkpt lat="47.21076" lon="0.00594">
        <ele>88</ele>
        <time>2015-12-28T09:11:14Z</time>
      </trkpt>
      <trkpt lat="47.21076" lon="0.00594">
        <ele>88</ele>
        <time>2015-12-28T09:11:18Z</time>
      </trkpt>
      <trkpt lat="47.21076" lon="0.00594">
        <ele>88</ele>
        <time>2015-12-28T09:11:20Z</time>
      </trkpt>
      <trkpt lat="47.21076" lon="0.00595">
        <ele>88</ele>
        <time>2015-12-28T09:11:23Z</time>
      </trkpt>
      <trkpt lat="47.21075" lon="0.00598">
        <ele>88</ele>
        <time>2015-12-28T09:11:29Z</time>
      </trkpt>
      <trkpt lat="47.21075" lon="0.00599">
        <ele>89</ele>
        <time>2015-12-28T09:11:32Z</time>
      </trkpt>
      <trkpt lat="47.21073" lon="0.00601">
        <ele>90</ele>
        <time>2015-12-28T09:11:38Z</time>
      </trkpt>
      <trkpt lat="47.21073" lon="0.00601">
        <ele>90</ele>
        <time>2015-12-28T09:11:41Z</time>
      </trkpt>
      <trkpt lat="47.21072" lon="0.00601">
        <ele>90</ele>
        <time>2015-12-28T09:11:44Z</time>
      </trkpt>
      <trkpt lat="47.21072" lon="0.00601">
        <ele>89</ele>
        <time>2015-12-28T09:11:47Z</time>
      </trkpt>
      <trkpt lat="47.21072" lon="0.00601">
        <ele>89</ele>
        <time>2015-12-28T09:11:50Z</time>
      </trkpt>
      <trkpt lat="47.21072" lon="0.00601">
        <ele>89</ele>
        <time>2015-12-28T09:11:54Z</time>
      </trkpt>
      <trkpt lat="47.21072" lon="0.00601">
        <ele>89</ele>
        <time>2015-12-28T09:11:56Z</time>
      </trkpt>
      <trkpt lat="47.21072" lon="0.00601">
        <ele>89</ele>
        <time>2015-12-28T09:12:00Z</time>
      </trkpt>
      <trkpt lat="47.21072" lon="0.00601">
        <ele>89</ele>
        <time>2015-12-28T09:12:02Z</time>
      </trkpt>
      <trkpt lat="47.21072" lon="0.00601">
        <ele>89</ele>
        <time>2015-12-28T09:12:05Z</time>
      </trkpt>
      <trkpt lat="47.21072" lon="0.00601">
        <ele>89</ele>
        <time>2015-12-28T09:12:08Z</time>
      </trkpt>
      <trkpt lat="47.21072" lon="0.00601">
        <ele>89</ele>
        <time>2015-12-28T09:12:12Z</time>
      </trkpt>
      <trkpt lat="47.21072" lon="0.00601">
        <ele>89</ele>
        <time>2015-12-28T09:12:16Z</time>
      </trkpt>
      <trkpt lat="47.21072" lon="0.00601">
        <ele>89</ele>
        <time>2015-12-28T09:12:17Z</time>
      </trkpt>
      <trkpt lat="47.21072" lon="0.00601">
        <ele>89</ele>
        <time>2015-12-28T09:12:20Z</time>
      </trkpt>
      <trkpt lat="47.21072" lon="0.00601">
        <ele>89</ele>
        <time>2015-12-28T09:12:24Z</time>
      </trkpt>
      <trkpt lat="47.21072" lon="0.00601">
        <ele>89</ele>
        <time>2015-12-28T09:12:27Z</time>
      </trkpt>
      <trkpt lat="47.21072" lon="0.00601">
        <ele>89</ele>
        <time>2015-12-28T09:12:29Z</time>
      </trkpt>
      <trkpt lat="47.21072" lon="0.00601">
        <ele>89</ele>
        <time>2015-12-28T09:12:32Z</time>
      </trkpt>
      <trkpt lat="47.21072" lon="0.00601">
        <ele>89</ele>
        <time>2015-12-28T09:12:35Z</time>
      </trkpt>
      <trkpt lat="47.21072" lon="0.00601">
        <ele>89</ele>
        <time>2015-12-28T09:12:38Z</time>
      </trkpt>
      <trkpt lat="47.21072" lon="0.00601">
        <ele>89</ele>
        <time>2015-12-28T09:12:41Z</time>
      </trkpt>
      <trkpt lat="47.21072" lon="0.00601">
        <ele>89</ele>
        <time>2015-12-28T09:12:44Z</time>
      </trkpt>
      <trkpt lat="47.21072" lon="0.00601">
        <ele>89</ele>
        <time>2015-12-28T09:12:47Z</time>
      </trkpt>
      <trkpt lat="47.21072" lon="0.00601">
        <ele>89</ele>
        <time>2015-12-28T09:12:50Z</time>
      </trkpt>
      <trkpt lat="47.21072" lon="0.00601">
        <ele>89</ele>
        <time>2015-12-28T09:12:53Z</time>
      </trkpt>
      <trkpt lat="47.21072" lon="0.00601">
        <ele>89</ele>
        <time>2015-12-28T09:12:56Z</time>
      </trkpt>
      <trkpt lat="47.21072" lon="0.00601">
        <ele>89</ele>
        <time>2015-12-28T09:12:59Z</time>
      </trkpt>
      <trkpt lat="47.21072" lon="0.00601">
        <ele>89</ele>
        <time>2015-12-28T09:13:02Z</time>
      </trkpt>
      <trkpt lat="47.21072" lon="0.00601">
        <ele>89</ele>
        <time>2015-12-28T09:13:05Z</time>
      </trkpt>
      <trkpt lat="47.21072" lon="0.00601">
        <ele>89</ele>
        <time>2015-12-28T09:13:08Z</time>
      </trkpt>
      <trkpt lat="47.21072" lon="0.00601">
        <ele>89</ele>
        <time>2015-12-28T09:13:11Z</time>
      </trkpt>
      <trkpt lat="47.21072" lon="0.00601">
        <ele>89</ele>
        <time>2015-12-28T09:13:14Z</time>
      </trkpt>
      <trkpt lat="47.21072" lon="0.00601">
        <ele>89</ele>
        <time>2015-12-28T09:13:17Z</time>
      </trkpt>
      <trkpt lat="47.21072" lon="0.00601">
        <ele>89</ele>
        <time>2015-12-28T09:13:20Z</time>
      </trkpt>
      <trkpt lat="47.21071" lon="0.00602">
        <ele>88</ele>
        <time>2015-12-28T09:13:23Z</time>
      </trkpt>
      <trkpt lat="47.21071" lon="0.00602">
        <ele>87</ele>
        <time>2015-12-28T09:13:26Z</time>
      </trkpt>
      <trkpt lat="47.21071" lon="0.00602">
        <ele>87</ele>
        <time>2015-12-28T09:13:29Z</time>
      </trkpt>
      <trkpt lat="47.2107" lon="0.00602">
        <ele>87</ele>
        <time>2015-12-28T09:13:32Z</time>
      </trkpt>
      <trkpt lat="47.2107" lon="0.00602">
        <ele>87</ele>
        <time>2015-12-28T09:13:35Z</time>
      </trkpt>
      <trkpt lat="47.2107" lon="0.00602">
        <ele>87</ele>
        <time>2015-12-28T09:13:38Z</time>
      </trkpt>
      <trkpt lat="47.2107" lon="0.00602">
        <ele>87</ele>
        <time>2015-12-28T09:13:41Z</time>
      </trkpt>
      <trkpt lat="47.2107" lon="0.00602">
        <ele>87</ele>
        <time>2015-12-28T09:13:44Z</time>
      </trkpt>
      <trkpt lat="47.2107" lon="0.00602">
        <ele>87</ele>
        <time>2015-12-28T09:13:47Z</time>
      </trkpt>
      <trkpt lat="47.21069" lon="0.00604">
        <ele>88</ele>
        <time>2015-12-28T09:13:50Z</time>
      </trkpt>
      <trkpt lat="47.21066" lon="0.00613">
        <ele>89</ele>
        <time>2015-12-28T09:13:56Z</time>
      </trkpt>
      <trkpt lat="47.21065" lon="0.00635">
        <ele>90</ele>
        <time>2015-12-28T09:14:06Z</time>
      </trkpt>
      <trkpt lat="47.21061" lon="0.00646">
        <ele>94</ele>
        <time>2015-12-28T09:14:12Z</time>
      </trkpt>
      <trkpt lat="47.21056" lon="0.00647">
        <ele>94</ele>
        <time>2015-12-28T09:14:15Z</time>
      </trkpt>
      <trkpt lat="47.21049" lon="0.00645">
        <ele>94</ele>
        <time>2015-12-28T09:14:20Z</time>
      </trkpt>
      <trkpt lat="47.21042" lon="0.00639">
        <ele>92</ele>
        <time>2015-12-28T09:14:27Z</time>
      </trkpt>
      <trkpt lat="47.21035" lon="0.00634">
        <ele>92</ele>
        <time>2015-12-28T09:14:32Z</time>
      </trkpt>
      <trkpt lat="47.21029" lon="0.00629">
        <ele>89</ele>
        <time>2015-12-28T09:14:38Z</time>
      </trkpt>
      <trkpt lat="47.21021" lon="0.00623">
        <ele>89</ele>
        <time>2015-12-28T09:14:44Z</time>
      </trkpt>
      <trkpt lat="47.21011" lon="0.00616">
        <ele>88</ele>
        <time>2015-12-28T09:14:51Z</time>
      </trkpt>
      <trkpt lat="47.21004" lon="0.0061">
        <ele>88</ele>
        <time>2015-12-28T09:14:56Z</time>
      </trkpt>
      <trkpt lat="47.20995" lon="0.00603">
        <ele>88</ele>
        <time>2015-12-28T09:15:02Z</time>
      </trkpt>
      <trkpt lat="47.20983" lon="0.00595">
        <ele>91</ele>
        <time>2015-12-28T09:15:10Z</time>
      </trkpt>
      <trkpt lat="47.20979" lon="0.00589">
        <ele>91</ele>
        <time>2015-12-28T09:15:14Z</time>
      </trkpt>
      <trkpt lat="47.20974" lon="0.00584">
        <ele>91</ele>
        <time>2015-12-28T09:15:20Z</time>
      </trkpt>
      <trkpt lat="47.20963" lon="0.00574">
        <ele>94</ele>
        <time>2015-12-28T09:15:29Z</time>
      </trkpt>
      <trkpt lat="47.20955" lon="0.00568">
        <ele>94</ele>
        <time>2015-12-28T09:15:34Z</time>
      </trkpt>
      <trkpt lat="47.20942" lon="0.00557">
        <ele>95</ele>
        <time>2015-12-28T09:15:42Z</time>
      </trkpt>
      <trkpt lat="47.20939" lon="0.00554">
        <ele>94</ele>
        <time>2015-12-28T09:15:44Z</time>
      </trkpt>
      <trkpt lat="47.20929" lon="0.00548">
        <ele>94</ele>
        <time>2015-12-28T09:15:50Z</time>
      </trkpt>
      <trkpt lat="47.20919" lon="0.00542">
        <ele>92</ele>
        <time>2015-12-28T09:15:56Z</time>
      </trkpt>
      <trkpt lat="47.2091" lon="0.00533">
        <ele>92</ele>
        <time>2015-12-28T09:16:02Z</time>
      </trkpt>
      <trkpt lat="47.20898" lon="0.00524">
        <ele>92</ele>
        <time>2015-12-28T09:16:11Z</time>
      </trkpt>
      <trkpt lat="47.20893" lon="0.00518">
        <ele>93</ele>
        <time>2015-12-28T09:16:15Z</time>
      </trkpt>
      <trkpt lat="47.20889" lon="0.00511">
        <ele>94</ele>
        <time>2015-12-28T09:16:20Z</time>
      </trkpt>
      <trkpt lat="47.20882" lon="0.00503">
        <ele>94</ele>
        <time>2015-12-28T09:16:26Z</time>
      </trkpt>
      <trkpt lat="47.20874" lon="0.00497">
        <ele>94</ele>
        <time>2015-12-28T09:16:32Z</time>
      </trkpt>
      <trkpt lat="47.20866" lon="0.00489">
        <ele>95</ele>
        <time>2015-12-28T09:16:38Z</time>
      </trkpt>
      <trkpt lat="47.20856" lon="0.00481">
        <ele>93</ele>
        <time>2015-12-28T09:16:45Z</time>
      </trkpt>
      <trkpt lat="47.2085" lon="0.00475">
        <ele>95</ele>
        <time>2015-12-28T09:16:50Z</time>
      </trkpt>
      <trkpt lat="47.2084" lon="0.00465">
        <ele>96</ele>
        <time>2015-12-28T09:16:57Z</time>
      </trkpt>
      <trkpt lat="47.20833" lon="0.00458">
        <ele>95</ele>
        <time>2015-12-28T09:17:02Z</time>
      </trkpt>
      <trkpt lat="47.20824" lon="0.00455">
        <ele>93</ele>
        <time>2015-12-28T09:17:08Z</time>
      </trkpt>
      <trkpt lat="47.20815" lon="0.00448">
        <ele>93</ele>
        <time>2015-12-28T09:17:14Z</time>
      </trkpt>
      <trkpt lat="47.20806" lon="0.00439">
        <ele>97</ele>
        <time>2015-12-28T09:17:20Z</time>
      </trkpt>
      <trkpt lat="47.20796" lon="0.00428">
        <ele>101</ele>
        <time>2015-12-28T09:17:27Z</time>
      </trkpt>
      <trkpt lat="47.20789" lon="0.0042">
        <ele>99</ele>
        <time>2015-12-28T09:17:33Z</time>
      </trkpt>
      <trkpt lat="47.20782" lon="0.00416">
        <ele>100</ele>
        <time>2015-12-28T09:17:38Z</time>
      </trkpt>
      <trkpt lat="47.20774" lon="0.0041">
        <ele>99</ele>
        <time>2015-12-28T09:17:44Z</time>
      </trkpt>
      <trkpt lat="47.20766" lon="0.00404">
        <ele>98</ele>
        <time>2015-12-28T09:17:50Z</time>
      </trkpt>
      <trkpt lat="47.20757" lon="0.00396">
        <ele>98</ele>
        <time>2015-12-28T09:17:56Z</time>
      </trkpt>
      <trkpt lat="47.20746" lon="0.00386">
        <ele>95</ele>
        <time>2015-12-28T09:18:04Z</time>
      </trkpt>
      <trkpt lat="47.20741" lon="0.0038">
        <ele>96</ele>
        <time>2015-12-28T09:18:08Z</time>
      </trkpt>
      <trkpt lat="47.20729" lon="0.0037">
        <ele>96</ele>
        <time>2015-12-28T09:18:15Z</time>
      </trkpt>
      <trkpt lat="47.20721" lon="0.00363">
        <ele>96</ele>
        <time>2015-12-28T09:18:20Z</time>
      </trkpt>
      <trkpt lat="47.20712" lon="0.00354">
        <ele>99</ele>
        <time>2015-12-28T09:18:26Z</time>
      </trkpt>
      <trkpt lat="47.20703" lon="0.00346">
        <ele>100</ele>
        <time>2015-12-28T09:18:32Z</time>
      </trkpt>
      <trkpt lat="47.20695" lon="0.00338">
        <ele>99</ele>
        <time>2015-12-28T09:18:38Z</time>
      </trkpt>
      <trkpt lat="47.20686" lon="0.00331">
        <ele>100</ele>
        <time>2015-12-28T09:18:44Z</time>
      </trkpt>
      <trkpt lat="47.20677" lon="0.00324">
        <ele>100</ele>
        <time>2015-12-28T09:18:50Z</time>
      </trkpt>
      <trkpt lat="47.20666" lon="0.00316">
        <ele>98</ele>
        <time>2015-12-28T09:18:57Z</time>
      </trkpt>
      <trkpt lat="47.20659" lon="0.00309">
        <ele>99</ele>
        <time>2015-12-28T09:19:02Z</time>
      </trkpt>
      <trkpt lat="47.2065" lon="0.00306">
        <ele>96</ele>
        <time>2015-12-28T09:19:08Z</time>
      </trkpt>
      <trkpt lat="47.20641" lon="0.00315">
        <ele>95</ele>
        <time>2015-12-28T09:19:14Z</time>
      </trkpt>
      <trkpt lat="47.20635" lon="0.00325">
        <ele>94</ele>
        <time>2015-12-28T09:19:20Z</time>
      </trkpt>
      <trkpt lat="47.20628" lon="0.00335">
        <ele>94</ele>
        <time>2015-12-28T09:19:26Z</time>
      </trkpt>
      <trkpt lat="47.20622" lon="0.00347">
        <ele>94</ele>
        <time>2015-12-28T09:19:32Z</time>
      </trkpt>
      <trkpt lat="47.20615" lon="0.00361">
        <ele>94</ele>
        <time>2015-12-28T09:19:39Z</time>
      </trkpt>
      <trkpt lat="47.2061" lon="0.00369">
        <ele>94</ele>
        <time>2015-12-28T09:19:44Z</time>
      </trkpt>
      <trkpt lat="47.20601" lon="0.00383">
        <ele>95</ele>
        <time>2015-12-28T09:19:52Z</time>
      </trkpt>
      <trkpt lat="47.20597" lon="0.0039">
        <ele>96</ele>
        <time>2015-12-28T09:19:56Z</time>
      </trkpt>
      <trkpt lat="47.20587" lon="0.00399">
        <ele>97</ele>
        <time>2015-12-28T09:20:03Z</time>
      </trkpt>
      <trkpt lat="47.20577" lon="0.00409">
        <ele>100</ele>
        <time>2015-12-28T09:20:10Z</time>
      </trkpt>
      <trkpt lat="47.2057" lon="0.00418">
        <ele>101</ele>
        <time>2015-12-28T09:20:15Z</time>
      </trkpt>
      <trkpt lat="47.20562" lon="0.00434">
        <ele>97</ele>
        <time>2015-12-28T09:20:23Z</time>
      </trkpt>
      <trkpt lat="47.20559" lon="0.00444">
        <ele>95</ele>
        <time>2015-12-28T09:20:27Z</time>
      </trkpt>
      <trkpt lat="47.20551" lon="0.00458">
        <ele>96</ele>
        <time>2015-12-28T09:20:34Z</time>
      </trkpt>
      <trkpt lat="47.20547" lon="0.00466">
        <ele>95</ele>
        <time>2015-12-28T09:20:38Z</time>
      </trkpt>
      <trkpt lat="47.20542" lon="0.00479">
        <ele>95</ele>
        <time>2015-12-28T09:20:46Z</time>
      </trkpt>
      <trkpt lat="47.20536" lon="0.00487">
        <ele>96</ele>
        <time>2015-12-28T09:20:50Z</time>
      </trkpt>
      <trkpt lat="47.20531" lon="0.00504">
        <ele>97</ele>
        <time>2015-12-28T09:20:57Z</time>
      </trkpt>
      <trkpt lat="47.20524" lon="0.00526">
        <ele>97</ele>
        <time>2015-12-28T09:21:06Z</time>
      </trkpt>
      <trkpt lat="47.20522" lon="0.00531">
        <ele>98</ele>
        <time>2015-12-28T09:21:08Z</time>
      </trkpt>
      <trkpt lat="47.20514" lon="0.00549">
        <ele>100</ele>
        <time>2015-12-28T09:21:16Z</time>
      </trkpt>
      <trkpt lat="47.2051" lon="0.0056">
        <ele>101</ele>
        <time>2015-12-28T09:21:21Z</time>
      </trkpt>
      <trkpt lat="47.20502" lon="0.00568">
        <ele>104</ele>
        <time>2015-12-28T09:21:26Z</time>
      </trkpt>
      <trkpt lat="47.20493" lon="0.00581">
        <ele>104</ele>
        <time>2015-12-28T09:21:33Z</time>
      </trkpt>
      <trkpt lat="47.20485" lon="0.00594">
        <ele>106</ele>
        <time>2015-12-28T09:21:41Z</time>
      </trkpt>
      <trkpt lat="47.20481" lon="0.00606">
        <ele>104</ele>
        <time>2015-12-28T09:21:46Z</time>
      </trkpt>
      <trkpt lat="47.20477" lon="0.00614">
        <ele>102</ele>
        <time>2015-12-28T09:21:50Z</time>
      </trkpt>
      <trkpt lat="47.20473" lon="0.00628">
        <ele>102</ele>
        <time>2015-12-28T09:21:56Z</time>
      </trkpt>
      <trkpt lat="47.20468" lon="0.00641">
        <ele>101</ele>
        <time>2015-12-28T09:22:02Z</time>
      </trkpt>
      <trkpt lat="47.20461" lon="0.00655">
        <ele>104</ele>
        <time>2015-12-28T09:22:09Z</time>
      </trkpt>
      <trkpt lat="47.20455" lon="0.00669">
        <ele>102</ele>
        <time>2015-12-28T09:22:16Z</time>
      </trkpt>
      <trkpt lat="47.2045" lon="0.00676">
        <ele>101</ele>
        <time>2015-12-28T09:22:20Z</time>
      </trkpt>
      <trkpt lat="47.20445" lon="0.00689">
        <ele>100</ele>
        <time>2015-12-28T09:22:26Z</time>
      </trkpt>
      <trkpt lat="47.2044" lon="0.00701">
        <ele>98</ele>
        <time>2015-12-28T09:22:32Z</time>
      </trkpt>
      <trkpt lat="47.20434" lon="0.00713">
        <ele>98</ele>
        <time>2015-12-28T09:22:38Z</time>
      </trkpt>
      <trkpt lat="47.20428" lon="0.00724">
        <ele>97</ele>
        <time>2015-12-28T09:22:44Z</time>
      </trkpt>
      <trkpt lat="47.20421" lon="0.00738">
        <ele>98</ele>
        <time>2015-12-28T09:22:51Z</time>
      </trkpt>
      <trkpt lat="47.20414" lon="0.00749">
        <ele>98</ele>
        <time>2015-12-28T09:22:57Z</time>
      </trkpt>
      <trkpt lat="47.20406" lon="0.00756">
        <ele>99</ele>
        <time>2015-12-28T09:23:02Z</time>
      </trkpt>
      <trkpt lat="47.20395" lon="0.00763">
        <ele>100</ele>
        <time>2015-12-28T09:23:09Z</time>
      </trkpt>
      <trkpt lat="47.20384" lon="0.00772">
        <ele>102</ele>
        <time>2015-12-28T09:23:17Z</time>
      </trkpt>
      <trkpt lat="47.20379" lon="0.00775">
        <ele>103</ele>
        <time>2015-12-28T09:23:20Z</time>
      </trkpt>
      <trkpt lat="47.20372" lon="0.00785">
        <ele>104</ele>
        <time>2015-12-28T09:23:26Z</time>
      </trkpt>
      <trkpt lat="47.20366" lon="0.00789">
        <ele>102</ele>
        <time>2015-12-28T09:23:32Z</time>
      </trkpt>
      <trkpt lat="47.20354" lon="0.00802">
        <ele>100</ele>
        <time>2015-12-28T09:23:41Z</time>
      </trkpt>
      <trkpt lat="47.2035" lon="0.00806">
        <ele>100</ele>
        <time>2015-12-28T09:23:44Z</time>
      </trkpt>
      <trkpt lat="47.2034" lon="0.00816">
        <ele>102</ele>
        <time>2015-12-28T09:23:50Z</time>
      </trkpt>
      <trkpt lat="47.20332" lon="0.00828">
        <ele>101</ele>
        <time>2015-12-28T09:23:56Z</time>
      </trkpt>
      <trkpt lat="47.20324" lon="0.00845">
        <ele>101</ele>
        <time>2015-12-28T09:24:03Z</time>
      </trkpt>
      <trkpt lat="47.20317" lon="0.00856">
        <ele>98</ele>
        <time>2015-12-28T09:24:11Z</time>
      </trkpt>
      <trkpt lat="47.20305" lon="0.00869">
        <ele>100</ele>
        <time>2015-12-28T09:24:19Z</time>
      </trkpt>
      <trkpt lat="47.20302" lon="0.00872">
        <ele>100</ele>
        <time>2015-12-28T09:24:21Z</time>
      </trkpt>
      <trkpt lat="47.20296" lon="0.00884">
        <ele>100</ele>
        <time>2015-12-28T09:24:27Z</time>
      </trkpt>
      <trkpt lat="47.20287" lon="0.00891">
        <ele>101</ele>
        <time>2015-12-28T09:24:33Z</time>
      </trkpt>
      <trkpt lat="47.20279" lon="0.00899">
        <ele>102</ele>
        <time>2015-12-28T09:24:39Z</time>
      </trkpt>
      <trkpt lat="47.20271" lon="0.0091">
        <ele>103</ele>
        <time>2015-12-28T09:24:45Z</time>
      </trkpt>
      <trkpt lat="47.20257" lon="0.00921">
        <ele>104</ele>
        <time>2015-12-28T09:24:55Z</time>
      </trkpt>
      <trkpt lat="47.20254" lon="0.00926">
        <ele>103</ele>
        <time>2015-12-28T09:24:58Z</time>
      </trkpt>
      <trkpt lat="47.20247" lon="0.00934">
        <ele>103</ele>
        <time>2015-12-28T09:25:04Z</time>
      </trkpt>
      <trkpt lat="47.20239" lon="0.0094">
        <ele>104</ele>
        <time>2015-12-28T09:25:09Z</time>
      </trkpt>
      <trkpt lat="47.20231" lon="0.00946">
        <ele>102</ele>
        <time>2015-12-28T09:25:14Z</time>
      </trkpt>
      <trkpt lat="47.20218" lon="0.00963">
        <ele>101</ele>
        <time>2015-12-28T09:25:23Z</time>
      </trkpt>
      <trkpt lat="47.20214" lon="0.00967">
        <ele>101</ele>
        <time>2015-12-28T09:25:26Z</time>
      </trkpt>
      <trkpt lat="47.20201" lon="0.00984">
        <ele>99</ele>
        <time>2015-12-28T09:25:35Z</time>
      </trkpt>
      <trkpt lat="47.20197" lon="0.00989">
        <ele>98</ele>
        <time>2015-12-28T09:25:38Z</time>
      </trkpt>
      <trkpt lat="47.20189" lon="0.00998">
        <ele>99</ele>
        <time>2015-12-28T09:25:44Z</time>
      </trkpt>
      <trkpt lat="47.20181" lon="0.01007">
        <ele>100</ele>
        <time>2015-12-28T09:25:50Z</time>
      </trkpt>
      <trkpt lat="47.20173" lon="0.01019">
        <ele>99</ele>
        <time>2015-12-28T09:25:57Z</time>
      </trkpt>
      <trkpt lat="47.20164" lon="0.01028">
        <ele>99</ele>
        <time>2015-12-28T09:26:04Z</time>
      </trkpt>
      <trkpt lat="47.20149" lon="0.01036">
        <ele>101</ele>
        <time>2015-12-28T09:26:13Z</time>
      </trkpt>
      <trkpt lat="47.20148" lon="0.01038">
        <ele>100</ele>
        <time>2015-12-28T09:26:14Z</time>
      </trkpt>
      <trkpt lat="47.20136" lon="0.01047">
        <ele>95</ele>
        <time>2015-12-28T09:26:23Z</time>
      </trkpt>
      <trkpt lat="47.20129" lon="0.01053">
        <ele>95</ele>
        <time>2015-12-28T09:26:28Z</time>
      </trkpt>
      <trkpt lat="47.20125" lon="0.01062">
        <ele>94</ele>
        <time>2015-12-28T09:26:34Z</time>
      </trkpt>
      <trkpt lat="47.20126" lon="0.01063">
        <ele>94</ele>
        <time>2015-12-28T09:26:38Z</time>
      </trkpt>
      <trkpt lat="47.20125" lon="0.01063">
        <ele>95</ele>
        <time>2015-12-28T09:26:41Z</time>
      </trkpt>
      <trkpt lat="47.20125" lon="0.01063">
        <ele>95</ele>
        <time>2015-12-28T09:26:44Z</time>
      </trkpt>
      <trkpt lat="47.20125" lon="0.01063">
        <ele>95</ele>
        <time>2015-12-28T09:26:47Z</time>
      </trkpt>
      <trkpt lat="47.20125" lon="0.01063">
        <ele>94</ele>
        <time>2015-12-28T09:26:50Z</time>
      </trkpt>
      <trkpt lat="47.20126" lon="0.01063">
        <ele>93</ele>
        <time>2015-12-28T09:26:53Z</time>
      </trkpt>
      <trkpt lat="47.20127" lon="0.01063">
        <ele>93</ele>
        <time>2015-12-28T09:26:56Z</time>
      </trkpt>
      <trkpt lat="47.20127" lon="0.01063">
        <ele>93</ele>
        <time>2015-12-28T09:26:59Z</time>
      </trkpt>
      <trkpt lat="47.20127" lon="0.01063">
        <ele>93</ele>
        <time>2015-12-28T09:27:02Z</time>
      </trkpt>
      <trkpt lat="47.20127" lon="0.01063">
        <ele>93</ele>
        <time>2015-12-28T09:27:05Z</time>
      </trkpt>
      <trkpt lat="47.20127" lon="0.01063">
        <ele>93</ele>
        <time>2015-12-28T09:27:08Z</time>
      </trkpt>
      <trkpt lat="47.20127" lon="0.01063">
        <ele>94</ele>
        <time>2015-12-28T09:27:12Z</time>
      </trkpt>
      <trkpt lat="47.20126" lon="0.01064">
        <ele>94</ele>
        <time>2015-12-28T09:27:15Z</time>
      </trkpt>
      <trkpt lat="47.20126" lon="0.01064">
        <ele>94</ele>
        <time>2015-12-28T09:27:20Z</time>
      </trkpt>
      <trkpt lat="47.20126" lon="0.01064">
        <ele>93</ele>
        <time>2015-12-28T09:27:23Z</time>
      </trkpt>
      <trkpt lat="47.20126" lon="0.01064">
        <ele>93</ele>
        <time>2015-12-28T09:27:26Z</time>
      </trkpt>
      <trkpt lat="47.20126" lon="0.01064">
        <ele>93</ele>
        <time>2015-12-28T09:27:30Z</time>
      </trkpt>
      <trkpt lat="47.20126" lon="0.01064">
        <ele>93</ele>
        <time>2015-12-28T09:27:32Z</time>
      </trkpt>
      <trkpt lat="47.20126" lon="0.01064">
        <ele>93</ele>
        <time>2015-12-28T09:27:35Z</time>
      </trkpt>
      <trkpt lat="47.20126" lon="0.01064">
        <ele>93</ele>
        <time>2015-12-28T09:27:38Z</time>
      </trkpt>
      <trkpt lat="47.20126" lon="0.01064">
        <ele>93</ele>
        <time>2015-12-28T09:27:41Z</time>
      </trkpt>
      <trkpt lat="47.20126" lon="0.01064">
        <ele>93</ele>
        <time>2015-12-28T09:27:44Z</time>
      </trkpt>
      <trkpt lat="47.20126" lon="0.01064">
        <ele>93</ele>
        <time>2015-12-28T09:27:47Z</time>
      </trkpt>
      <trkpt lat="47.20126" lon="0.01064">
        <ele>93</ele>
        <time>2015-12-28T09:27:50Z</time>
      </trkpt>
      <trkpt lat="47.20126" lon="0.01064">
        <ele>93</ele>
        <time>2015-12-28T09:27:54Z</time>
      </trkpt>
      <trkpt lat="47.20126" lon="0.01064">
        <ele>93</ele>
        <time>2015-12-28T09:27:56Z</time>
      </trkpt>
      <trkpt lat="47.20126" lon="0.01063">
        <ele>93</ele>
        <time>2015-12-28T09:27:59Z</time>
      </trkpt>
      <trkpt lat="47.20125" lon="0.01064">
        <ele>92</ele>
        <time>2015-12-28T09:28:02Z</time>
      </trkpt>
      <trkpt lat="47.2013" lon="0.01079">
        <ele>91</ele>
        <time>2015-12-28T09:28:10Z</time>
      </trkpt>
      <trkpt lat="47.20132" lon="0.01089">
        <ele>91</ele>
        <time>2015-12-28T09:28:14Z</time>
      </trkpt>
      <trkpt lat="47.20135" lon="0.01099">
        <ele>91</ele>
        <time>2015-12-28T09:28:20Z</time>
      </trkpt>
      <trkpt lat="47.2014" lon="0.01112">
        <ele>90</ele>
        <time>2015-12-28T09:28:28Z</time>
      </trkpt>
      <trkpt lat="47.20146" lon="0.01126">
        <ele>90</ele>
        <time>2015-12-28T09:28:35Z</time>
      </trkpt>
      <trkpt lat="47.2015" lon="0.0114">
        <ele>91</ele>
        <time>2015-12-28T09:28:41Z</time>
      </trkpt>
      <trkpt lat="47.2015" lon="0.01144">
        <ele>92</ele>
        <time>2015-12-28T09:28:44Z</time>
      </trkpt>
      <trkpt lat="47.20146" lon="0.01152">
        <ele>90</ele>
        <time>2015-12-28T09:28:50Z</time>
      </trkpt>
      <trkpt lat="47.20142" lon="0.01167">
        <ele>91</ele>
        <time>2015-12-28T09:28:56Z</time>
      </trkpt>
      <trkpt lat="47.20136" lon="0.01179">
        <ele>90</ele>
        <time>2015-12-28T09:29:02Z</time>
      </trkpt>
      <trkpt lat="47.2013" lon="0.01191">
        <ele>90</ele>
        <time>2015-12-28T09:29:08Z</time>
      </trkpt>
      <trkpt lat="47.20124" lon="0.01199">
        <ele>92</ele>
        <time>2015-12-28T09:29:14Z</time>
      </trkpt>
      <trkpt lat="47.20117" lon="0.01206">
        <ele>93</ele>
        <time>2015-12-28T09:29:20Z</time>
      </trkpt>
      <trkpt lat="47.2011" lon="0.01218">
        <ele>96</ele>
        <time>2015-12-28T09:29:28Z</time>
      </trkpt>
      <trkpt lat="47.20106" lon="0.01226">
        <ele>96</ele>
        <time>2015-12-28T09:29:32Z</time>
      </trkpt>
      <trkpt lat="47.20101" lon="0.01237">
        <ele>95</ele>
        <time>2015-12-28T09:29:38Z</time>
      </trkpt>
      <trkpt lat="47.20092" lon="0.01255">
        <ele>93</ele>
        <time>2015-12-28T09:29:47Z</time>
      </trkpt>
      <trkpt lat="47.2009" lon="0.01262">
        <ele>91</ele>
        <time>2015-12-28T09:29:50Z</time>
      </trkpt>
      <trkpt lat="47.20084" lon="0.01276">
        <ele>89</ele>
        <time>2015-12-28T09:29:56Z</time>
      </trkpt>
      <trkpt lat="47.20078" lon="0.01289">
        <ele>87</ele>
        <time>2015-12-28T09:30:02Z</time>
      </trkpt>
      <trkpt lat="47.2007" lon="0.01317">
        <ele>85</ele>
        <time>2015-12-28T09:30:12Z</time>
      </trkpt>
      <trkpt lat="47.20069" lon="0.01323">
        <ele>86</ele>
        <time>2015-12-28T09:30:14Z</time>
      </trkpt>
      <trkpt lat="47.20061" lon="0.01347">
        <ele>85</ele>
        <time>2015-12-28T09:30:24Z</time>
      </trkpt>
      <trkpt lat="47.20059" lon="0.01352">
        <ele>83</ele>
        <time>2015-12-28T09:30:26Z</time>
      </trkpt>
      <trkpt lat="47.20052" lon="0.01368">
        <ele>84</ele>
        <time>2015-12-28T09:30:33Z</time>
      </trkpt>
      <trkpt lat="47.20043" lon="0.01387">
        <ele>86</ele>
        <time>2015-12-28T09:30:41Z</time>
      </trkpt>
      <trkpt lat="47.20036" lon="0.01398">
        <ele>85</ele>
        <time>2015-12-28T09:30:47Z</time>
      </trkpt>
      <trkpt lat="47.20033" lon="0.01403">
        <ele>87</ele>
        <time>2015-12-28T09:30:50Z</time>
      </trkpt>
      <trkpt lat="47.20029" lon="0.0141">
        <ele>91</ele>
        <time>2015-12-28T09:30:56Z</time>
      </trkpt>
      <trkpt lat="47.20024" lon="0.0142">
        <ele>92</ele>
        <time>2015-12-28T09:31:02Z</time>
      </trkpt>
      <trkpt lat="47.20017" lon="0.01435">
        <ele>95</ele>
        <time>2015-12-28T09:31:11Z</time>
      </trkpt>
      <trkpt lat="47.20016" lon="0.01441">
        <ele>92</ele>
        <time>2015-12-28T09:31:14Z</time>
      </trkpt>
      <trkpt lat="47.20008" lon="0.01457">
        <ele>94</ele>
        <time>2015-12-28T09:31:23Z</time>
      </trkpt>
      <trkpt lat="47.20005" lon="0.01463">
        <ele>93</ele>
        <time>2015-12-28T09:31:26Z</time>
      </trkpt>
      <trkpt lat="47.19999" lon="0.01474">
        <ele>96</ele>
        <time>2015-12-28T09:31:32Z</time>
      </trkpt>
      <trkpt lat="47.19992" lon="0.01491">
        <ele>97</ele>
        <time>2015-12-28T09:31:41Z</time>
      </trkpt>
      <trkpt lat="47.1999" lon="0.01498">
        <ele>99</ele>
        <time>2015-12-28T09:31:45Z</time>
      </trkpt>
      <trkpt lat="47.19979" lon="0.01512">
        <ele>101</ele>
        <time>2015-12-28T09:31:55Z</time>
      </trkpt>
      <trkpt lat="47.19978" lon="0.01514">
        <ele>102</ele>
        <time>2015-12-28T09:31:56Z</time>
      </trkpt>
      <trkpt lat="47.19971" lon="0.01524">
        <ele>105</ele>
        <time>2015-12-28T09:32:02Z</time>
      </trkpt>
      <trkpt lat="47.1996" lon="0.01538">
        <ele>113</ele>
        <time>2015-12-28T09:32:11Z</time>
      </trkpt>
      <trkpt lat="47.19956" lon="0.01546">
        <ele>112</ele>
        <time>2015-12-28T09:32:16Z</time>
      </trkpt>
      <trkpt lat="47.19948" lon="0.01561">
        <ele>108</ele>
        <time>2015-12-28T09:32:25Z</time>
      </trkpt>
      <trkpt lat="47.19947" lon="0.01563">
        <ele>107</ele>
        <time>2015-12-28T09:32:26Z</time>
      </trkpt>
      <trkpt lat="47.19944" lon="0.01575">
        <ele>106</ele>
        <time>2015-12-28T09:32:32Z</time>
      </trkpt>
      <trkpt lat="47.19935" lon="0.01592">
        <ele>104</ele>
        <time>2015-12-28T09:32:42Z</time>
      </trkpt>
      <trkpt lat="47.19934" lon="0.01593">
        <ele>105</ele>
        <time>2015-12-28T09:32:44Z</time>
      </trkpt>
      <trkpt lat="47.19932" lon="0.01603">
        <ele>104</ele>
        <time>2015-12-28T09:32:50Z</time>
      </trkpt>
      <trkpt lat="47.19927" lon="0.01616">
        <ele>102</ele>
        <time>2015-12-28T09:32:57Z</time>
      </trkpt>
      <trkpt lat="47.19929" lon="0.01626">
        <ele>99</ele>
        <time>2015-12-28T09:33:02Z</time>
      </trkpt>
      <trkpt lat="47.19941" lon="0.01648">
        <ele>89</ele>
        <time>2015-12-28T09:33:13Z</time>
      </trkpt>
      <trkpt lat="47.19947" lon="0.01659">
        <ele>88</ele>
        <time>2015-12-28T09:33:18Z</time>
      </trkpt>
      <trkpt lat="47.19956" lon="0.01672">
        <ele>87</ele>
        <time>2015-12-28T09:33:24Z</time>
      </trkpt>
      <trkpt lat="47.19959" lon="0.01678">
        <ele>88</ele>
        <time>2015-12-28T09:33:26Z</time>
      </trkpt>
      <trkpt lat="47.19967" lon="0.01694">
        <ele>87</ele>
        <time>2015-12-28T09:33:33Z</time>
      </trkpt>
      <trkpt lat="47.19973" lon="0.01714">
        <ele>92</ele>
        <time>2015-12-28T09:33:42Z</time>
      </trkpt>
      <trkpt lat="47.19975" lon="0.01718">
        <ele>92</ele>
        <time>2015-12-28T09:33:44Z</time>
      </trkpt>
      <trkpt lat="47.19985" lon="0.01741">
        <ele>94</ele>
        <time>2015-12-28T09:33:53Z</time>
      </trkpt>
      <trkpt lat="47.1999" lon="0.01748">
        <ele>93</ele>
        <time>2015-12-28T09:33:58Z</time>
      </trkpt>
      <trkpt lat="47.19997" lon="0.0176">
        <ele>95</ele>
        <time>2015-12-28T09:34:03Z</time>
      </trkpt>
      <trkpt lat="47.20006" lon="0.01774">
        <ele>95</ele>
        <time>2015-12-28T09:34:10Z</time>
      </trkpt>
      <trkpt lat="47.20011" lon="0.01783">
        <ele>92</ele>
        <time>2015-12-28T09:34:14Z</time>
      </trkpt>
      <trkpt lat="47.20025" lon="0.01803">
        <ele>88</ele>
        <time>2015-12-28T09:34:25Z</time>
      </trkpt>
      <trkpt lat="47.20026" lon="0.01805">
        <ele>88</ele>
        <time>2015-12-28T09:34:26Z</time>
      </trkpt>
      <trkpt lat="47.20035" lon="0.01816">
        <ele>89</ele>
        <time>2015-12-28T09:34:32Z</time>
      </trkpt>
      <trkpt lat="47.20045" lon="0.01829">
        <ele>87</ele>
        <time>2015-12-28T09:34:39Z</time>
      </trkpt>
      <trkpt lat="47.20057" lon="0.01846">
        <ele>86</ele>
        <time>2015-12-28T09:34:48Z</time>
      </trkpt>
      <trkpt lat="47.20065" lon="0.01857">
        <ele>88</ele>
        <time>2015-12-28T09:34:54Z</time>
      </trkpt>
      <trkpt lat="47.20068" lon="0.01861">
        <ele>89</ele>
        <time>2015-12-28T09:34:56Z</time>
      </trkpt>
      <trkpt lat="47.20083" lon="0.01875">
        <ele>88</ele>
        <time>2015-12-28T09:35:05Z</time>
      </trkpt>
      <trkpt lat="47.20088" lon="0.01881">
        <ele>90</ele>
        <time>2015-12-28T09:35:08Z</time>
      </trkpt>
      <trkpt lat="47.20097" lon="0.01892">
        <ele>90</ele>
        <time>2015-12-28T09:35:14Z</time>
      </trkpt>
      <trkpt lat="47.20105" lon="0.01899">
        <ele>88</ele>
        <time>2015-12-28T09:35:20Z</time>
      </trkpt>
      <trkpt lat="47.20114" lon="0.01908">
        <ele>88</ele>
        <time>2015-12-28T09:35:26Z</time>
      </trkpt>
      <trkpt lat="47.20123" lon="0.01918">
        <ele>88</ele>
        <time>2015-12-28T09:35:33Z</time>
      </trkpt>
      <trkpt lat="47.20137" lon="0.01924">
        <ele>88</ele>
        <time>2015-12-28T09:35:41Z</time>
      </trkpt>
      <trkpt lat="47.20142" lon="0.01924">
        <ele>88</ele>
        <time>2015-12-28T09:35:44Z</time>
      </trkpt>
      <trkpt lat="47.20152" lon="0.01926">
        <ele>90</ele>
        <time>2015-12-28T09:35:50Z</time>
      </trkpt>
      <trkpt lat="47.20162" lon="0.01928">
        <ele>90</ele>
        <time>2015-12-28T09:35:56Z</time>
      </trkpt>
      <trkpt lat="47.20175" lon="0.01933">
        <ele>92</ele>
        <time>2015-12-28T09:36:04Z</time>
      </trkpt>
      <trkpt lat="47.20181" lon="0.01936">
        <ele>91</ele>
        <time>2015-12-28T09:36:08Z</time>
      </trkpt>
      <trkpt lat="47.20191" lon="0.01938">
        <ele>89</ele>
        <time>2015-12-28T09:36:14Z</time>
      </trkpt>
      <trkpt lat="47.20204" lon="0.01942">
        <ele>89</ele>
        <time>2015-12-28T09:36:22Z</time>
      </trkpt>
      <trkpt lat="47.20215" lon="0.01942">
        <ele>89</ele>
        <time>2015-12-28T09:36:29Z</time>
      </trkpt>
      <trkpt lat="47.2022" lon="0.01942">
        <ele>90</ele>
        <time>2015-12-28T09:36:32Z</time>
      </trkpt>
      <trkpt lat="47.20229" lon="0.01943">
        <ele>87</ele>
        <time>2015-12-28T09:36:39Z</time>
      </trkpt>
      <trkpt lat="47.20231" lon="0.01943">
        <ele>86</ele>
        <time>2015-12-28T09:36:44Z</time>
      </trkpt>
      <trkpt lat="47.20237" lon="0.01945">
        <ele>84</ele>
        <time>2015-12-28T09:36:49Z</time>
      </trkpt>
      <trkpt lat="47.2024" lon="0.01947">
        <ele>85</ele>
        <time>2015-12-28T09:36:53Z</time>
      </trkpt>
      <trkpt lat="47.2025" lon="0.01954">
        <ele>85</ele>
        <time>2015-12-28T09:37:00Z</time>
      </trkpt>
      <trkpt lat="47.20257" lon="0.01959">
        <ele>86</ele>
        <time>2015-12-28T09:37:05Z</time>
      </trkpt>
      <trkpt lat="47.20265" lon="0.01965">
        <ele>87</ele>
        <time>2015-12-28T09:37:11Z</time>
      </trkpt>
      <trkpt lat="47.20274" lon="0.0197">
        <ele>89</ele>
        <time>2015-12-28T09:37:17Z</time>
      </trkpt>
      <trkpt lat="47.20281" lon="0.0198">
        <ele>89</ele>
        <time>2015-12-28T09:37:23Z</time>
      </trkpt>
      <trkpt lat="47.20291" lon="0.01988">
        <ele>88</ele>
        <time>2015-12-28T09:37:29Z</time>
      </trkpt>
      <trkpt lat="47.20302" lon="0.01997">
        <ele>87</ele>
        <time>2015-12-28T09:37:36Z</time>
      </trkpt>
      <trkpt lat="47.2031" lon="0.02003">
        <ele>88</ele>
        <time>2015-12-28T09:37:42Z</time>
      </trkpt>
      <trkpt lat="47.20318" lon="0.02012">
        <ele>88</ele>
        <time>2015-12-28T09:37:48Z</time>
      </trkpt>
      <trkpt lat="47.20324" lon="0.02018">
        <ele>88</ele>
        <time>2015-12-28T09:37:53Z</time>
      </trkpt>
      <trkpt lat="47.2033" lon="0.02026">
        <ele>87</ele>
        <time>2015-12-28T09:37:59Z</time>
      </trkpt>
      <trkpt lat="47.20343" lon="0.0204">
        <ele>86</ele>
        <time>2015-12-28T09:38:09Z</time>
      </trkpt>
      <trkpt lat="47.20349" lon="0.0205">
        <ele>90</ele>
        <time>2015-12-28T09:38:14Z</time>
      </trkpt>
      <trkpt lat="47.20357" lon="0.02062">
        <ele>88</ele>
        <time>2015-12-28T09:38:21Z</time>
      </trkpt>
      <trkpt lat="47.20361" lon="0.02064">
        <ele>88</ele>
        <time>2015-12-28T09:38:24Z</time>
      </trkpt>
      <trkpt lat="47.2037" lon="0.02076">
        <ele>90</ele>
        <time>2015-12-28T09:38:32Z</time>
      </trkpt>
      <trkpt lat="47.20374" lon="0.02081">
        <ele>90</ele>
        <time>2015-12-28T09:38:35Z</time>
      </trkpt>
      <trkpt lat="47.20383" lon="0.02094">
        <ele>88</ele>
        <time>2015-12-28T09:38:42Z</time>
      </trkpt>
      <trkpt lat="47.20391" lon="0.02108">
        <ele>89</ele>
        <time>2015-12-28T09:38:50Z</time>
      </trkpt>
      <trkpt lat="47.20396" lon="0.02115">
        <ele>90</ele>
        <time>2015-12-28T09:38:54Z</time>
      </trkpt>
      <trkpt lat="47.20401" lon="0.02127">
        <ele>91</ele>
        <time>2015-12-28T09:39:00Z</time>
      </trkpt>
      <trkpt lat="47.20413" lon="0.0215">
        <ele>91</ele>
        <time>2015-12-28T09:39:10Z</time>
      </trkpt>
      <trkpt lat="47.20414" lon="0.02151">
        <ele>92</ele>
        <time>2015-12-28T09:39:11Z</time>
      </trkpt>
      <trkpt lat="47.2042" lon="0.02164">
        <ele>90</ele>
        <time>2015-12-28T09:39:17Z</time>
      </trkpt>
      <trkpt lat="47.20432" lon="0.0218">
        <ele>91</ele>
        <time>2015-12-28T09:39:26Z</time>
      </trkpt>
      <trkpt lat="47.20441" lon="0.02193">
        <ele>87</ele>
        <time>2015-12-28T09:39:34Z</time>
      </trkpt>
      <trkpt lat="47.20442" lon="0.02195">
        <ele>86</ele>
        <time>2015-12-28T09:39:35Z</time>
      </trkpt>
      <trkpt lat="47.20454" lon="0.02215">
        <ele>89</ele>
        <time>2015-12-28T09:39:45Z</time>
      </trkpt>
      <trkpt lat="47.20457" lon="0.02222">
        <ele>88</ele>
        <time>2015-12-28T09:39:48Z</time>
      </trkpt>
      <trkpt lat="47.20463" lon="0.02234">
        <ele>88</ele>
        <time>2015-12-28T09:39:53Z</time>
      </trkpt>
      <trkpt lat="47.20479" lon="0.02253">
        <ele>91</ele>
        <time>2015-12-28T09:40:03Z</time>
      </trkpt>
      <trkpt lat="47.20482" lon="0.02255">
        <ele>91</ele>
        <time>2015-12-28T09:40:05Z</time>
      </trkpt>
      <trkpt lat="47.20498" lon="0.0226">
        <ele>91</ele>
        <time>2015-12-28T09:40:15Z</time>
      </trkpt>
      <trkpt lat="47.20501" lon="0.02259">
        <ele>90</ele>
        <time>2015-12-28T09:40:17Z</time>
      </trkpt>
      <trkpt lat="47.2051" lon="0.02259">
        <ele>92</ele>
        <time>2015-12-28T09:40:23Z</time>
      </trkpt>
      <trkpt lat="47.2052" lon="0.02261">
        <ele>94</ele>
        <time>2015-12-28T09:40:29Z</time>
      </trkpt>
      <trkpt lat="47.20538" lon="0.0227">
        <ele>93</ele>
        <time>2015-12-28T09:40:40Z</time>
      </trkpt>
      <trkpt lat="47.20548" lon="0.02273">
        <ele>94</ele>
        <time>2015-12-28T09:40:46Z</time>
      </trkpt>
      <trkpt lat="47.2055" lon="0.02274">
        <ele>95</ele>
        <time>2015-12-28T09:40:47Z</time>
      </trkpt>
      <trkpt lat="47.20569" lon="0.0228">
        <ele>95</ele>
        <time>2015-12-28T09:40:58Z</time>
      </trkpt>
      <trkpt lat="47.20578" lon="0.02282">
        <ele>95</ele>
        <time>2015-12-28T09:41:03Z</time>
      </trkpt>
      <trkpt lat="47.20581" lon="0.02283">
        <ele>96</ele>
        <time>2015-12-28T09:41:05Z</time>
      </trkpt>
      <trkpt lat="47.20591" lon="0.02286">
        <ele>97</ele>
        <time>2015-12-28T09:41:11Z</time>
      </trkpt>
      <trkpt lat="47.206" lon="0.02289">
        <ele>98</ele>
        <time>2015-12-28T09:41:17Z</time>
      </trkpt>
      <trkpt lat="47.2061" lon="0.02289">
        <ele>98</ele>
        <time>2015-12-28T09:41:24Z</time>
      </trkpt>
      <trkpt lat="47.2062" lon="0.02288">
        <ele>96</ele>
        <time>2015-12-28T09:41:32Z</time>
      </trkpt>
      <trkpt lat="47.20625" lon="0.02287">
        <ele>95</ele>
        <time>2015-12-28T09:41:35Z</time>
      </trkpt>
      <trkpt lat="47.20634" lon="0.02287">
        <ele>96</ele>
        <time>2015-12-28T09:41:42Z</time>
      </trkpt>
      <trkpt lat="47.20641" lon="0.02286">
        <ele>95</ele>
        <time>2015-12-28T09:41:47Z</time>
      </trkpt>
      <trkpt lat="47.20651" lon="0.02288">
        <ele>95</ele>
        <time>2015-12-28T09:41:54Z</time>
      </trkpt>
      <trkpt lat="47.20661" lon="0.02292">
        <ele>94</ele>
        <time>2015-12-28T09:42:01Z</time>
      </trkpt>
      <trkpt lat="47.20667" lon="0.02294">
        <ele>95</ele>
        <time>2015-12-28T09:42:05Z</time>
      </trkpt>
      <trkpt lat="47.20675" lon="0.02296">
        <ele>96</ele>
        <time>2015-12-28T09:42:11Z</time>
      </trkpt>
      <trkpt lat="47.20685" lon="0.023">
        <ele>96</ele>
        <time>2015-12-28T09:42:17Z</time>
      </trkpt>
      <trkpt lat="47.20694" lon="0.02304">
        <ele>96</ele>
        <time>2015-12-28T09:42:23Z</time>
      </trkpt>
      <trkpt lat="47.20705" lon="0.02307">
        <ele>98</ele>
        <time>2015-12-28T09:42:31Z</time>
      </trkpt>
      <trkpt lat="47.20713" lon="0.02308">
        <ele>93</ele>
        <time>2015-12-28T09:42:36Z</time>
      </trkpt>
      <trkpt lat="47.20722" lon="0.0231">
        <ele>95</ele>
        <time>2015-12-28T09:42:42Z</time>
      </trkpt>
      <trkpt lat="47.20729" lon="0.0231">
        <ele>95</ele>
        <time>2015-12-28T09:42:47Z</time>
      </trkpt>
      <trkpt lat="47.2074" lon="0.02308">
        <ele>95</ele>
        <time>2015-12-28T09:42:54Z</time>
      </trkpt>
      <trkpt lat="47.2075" lon="0.02309">
        <ele>96</ele>
        <time>2015-12-28T09:43:00Z</time>
      </trkpt>
      <trkpt lat="47.20757" lon="0.02309">
        <ele>97</ele>
        <time>2015-12-28T09:43:05Z</time>
      </trkpt>
      <trkpt lat="47.20777" lon="0.02311">
        <ele>95</ele>
        <time>2015-12-28T09:43:16Z</time>
      </trkpt>
      <trkpt lat="47.20786" lon="0.02314">
        <ele>96</ele>
        <time>2015-12-28T09:43:21Z</time>
      </trkpt>
      <trkpt lat="47.20792" lon="0.02318">
        <ele>96</ele>
        <time>2015-12-28T09:43:25Z</time>
      </trkpt>
      <trkpt lat="47.20798" lon="0.02323">
        <ele>97</ele>
        <time>2015-12-28T09:43:29Z</time>
      </trkpt>
      <trkpt lat="47.20807" lon="0.0233">
        <ele>93</ele>
        <time>2015-12-28T09:43:35Z</time>
      </trkpt>
      <trkpt lat="47.20816" lon="0.02336">
        <ele>93</ele>
        <time>2015-12-28T09:43:41Z</time>
      </trkpt>
      <trkpt lat="47.20826" lon="0.02344">
        <ele>92</ele>
        <time>2015-12-28T09:43:47Z</time>
      </trkpt>
      <trkpt lat="47.20839" lon="0.02352">
        <ele>91</ele>
        <time>2015-12-28T09:43:55Z</time>
      </trkpt>
      <trkpt lat="47.20847" lon="0.02359">
        <ele>89</ele>
        <time>2015-12-28T09:43:59Z</time>
      </trkpt>
      <trkpt lat="47.20863" lon="0.02369">
        <ele>91</ele>
        <time>2015-12-28T09:44:08Z</time>
      </trkpt>
      <trkpt lat="47.20873" lon="0.02378">
        <ele>86</ele>
        <time>2015-12-28T09:44:14Z</time>
      </trkpt>
      <trkpt lat="47.20878" lon="0.02381">
        <ele>84</ele>
        <time>2015-12-28T09:44:17Z</time>
      </trkpt>
      <trkpt lat="47.20894" lon="0.02391">
        <ele>83</ele>
        <time>2015-12-28T09:44:27Z</time>
      </trkpt>
      <trkpt lat="47.20905" lon="0.02413">
        <ele>89</ele>
        <time>2015-12-28T09:44:34Z</time>
      </trkpt>
      <trkpt lat="47.20906" lon="0.02417">
        <ele>90</ele>
        <time>2015-12-28T09:44:35Z</time>
      </trkpt>
      <trkpt lat="47.20917" lon="0.02439">
        <ele>90</ele>
        <time>2015-12-28T09:44:44Z</time>
      </trkpt>
      <trkpt lat="47.20923" lon="0.02446">
        <ele>89</ele>
        <time>2015-12-28T09:44:48Z</time>
      </trkpt>
      <trkpt lat="47.20935" lon="0.0246">
        <ele>87</ele>
        <time>2015-12-28T09:44:56Z</time>
      </trkpt>
      <trkpt lat="47.20939" lon="0.02466">
        <ele>86</ele>
        <time>2015-12-28T09:44:59Z</time>
      </trkpt>
      <trkpt lat="47.20945" lon="0.02477">
        <ele>85</ele>
        <time>2015-12-28T09:45:05Z</time>
      </trkpt>
      <trkpt lat="47.20958" lon="0.02494">
        <ele>80</ele>
        <time>2015-12-28T09:45:15Z</time>
      </trkpt>
      <trkpt lat="47.20964" lon="0.02507">
        <ele>82</ele>
        <time>2015-12-28T09:45:21Z</time>
      </trkpt>
      <trkpt lat="47.20966" lon="0.02511">
        <ele>81</ele>
        <time>2015-12-28T09:45:23Z</time>
      </trkpt>
      <trkpt lat="47.20972" lon="0.0252">
        <ele>81</ele>
        <time>2015-12-28T09:45:30Z</time>
      </trkpt>
      <trkpt lat="47.20973" lon="0.02519">
        <ele>79</ele>
        <time>2015-12-28T09:45:36Z</time>
      </trkpt>
      <trkpt lat="47.20972" lon="0.0252">
        <ele>80</ele>
        <time>2015-12-28T09:45:40Z</time>
      </trkpt>
      <trkpt lat="47.20972" lon="0.0252">
        <ele>80</ele>
        <time>2015-12-28T09:45:41Z</time>
      </trkpt>
      <trkpt lat="47.20972" lon="0.0252">
        <ele>80</ele>
        <time>2015-12-28T09:45:44Z</time>
      </trkpt>
      <trkpt lat="47.20973" lon="0.02519">
        <ele>80</ele>
        <time>2015-12-28T09:45:48Z</time>
      </trkpt>
      <trkpt lat="47.20973" lon="0.02513">
        <ele>80</ele>
        <time>2015-12-28T09:45:51Z</time>
      </trkpt>
      <trkpt lat="47.20979" lon="0.02503">
        <ele>80</ele>
        <time>2015-12-28T09:45:58Z</time>
      </trkpt>
      <trkpt lat="47.20986" lon="0.02494">
        <ele>83</ele>
        <time>2015-12-28T09:46:06Z</time>
      </trkpt>
      <trkpt lat="47.20987" lon="0.02493">
        <ele>83</ele>
        <time>2015-12-28T09:46:08Z</time>
      </trkpt>
      <trkpt lat="47.20992" lon="0.02484">
        <ele>83</ele>
        <time>2015-12-28T09:46:14Z</time>
      </trkpt>
      <trkpt lat="47.2099" lon="0.02467">
        <ele>82</ele>
        <time>2015-12-28T09:46:22Z</time>
      </trkpt>
      <trkpt lat="47.20987" lon="0.02459">
        <ele>81</ele>
        <time>2015-12-28T09:46:30Z</time>
      </trkpt>
      <trkpt lat="47.20986" lon="0.02457">
        <ele>80</ele>
        <time>2015-12-28T09:46:32Z</time>
      </trkpt>
      <trkpt lat="47.20985" lon="0.02449">
        <ele>80</ele>
        <time>2015-12-28T09:46:38Z</time>
      </trkpt>
      <trkpt lat="47.20992" lon="0.02436">
        <ele>83</ele>
        <time>2015-12-28T09:46:46Z</time>
      </trkpt>
      <trkpt lat="47.20999" lon="0.02421">
        <ele>83</ele>
        <time>2015-12-28T09:46:55Z</time>
      </trkpt>
      <trkpt lat="47.20999" lon="0.0242">
        <ele>83</ele>
        <time>2015-12-28T09:46:56Z</time>
      </trkpt>
      <trkpt lat="47.21005" lon="0.02407">
        <ele>80</ele>
        <time>2015-12-28T09:47:02Z</time>
      </trkpt>
      <trkpt lat="47.21018" lon="0.02408">
        <ele>74</ele>
        <time>2015-12-28T09:47:13Z</time>
      </trkpt>
      <trkpt lat="47.21023" lon="0.02412">
        <ele>74</ele>
        <time>2015-12-28T09:47:18Z</time>
      </trkpt>
      <trkpt lat="47.21025" lon="0.02413">
        <ele>74</ele>
        <time>2015-12-28T09:47:20Z</time>
      </trkpt>
      <trkpt lat="47.21033" lon="0.02403">
        <ele>73</ele>
        <time>2015-12-28T09:47:28Z</time>
      </trkpt>
      <trkpt lat="47.21031" lon="0.02396">
        <ele>74</ele>
        <time>2015-12-28T09:47:34Z</time>
      </trkpt>
      <trkpt lat="47.21027" lon="0.0239">
        <ele>74</ele>
        <time>2015-12-28T09:47:38Z</time>
      </trkpt>
      <trkpt lat="47.21022" lon="0.02381">
        <ele>75</ele>
        <time>2015-12-28T09:47:44Z</time>
      </trkpt>
      <trkpt lat="47.21021" lon="0.02369">
        <ele>76</ele>
        <time>2015-12-28T09:47:51Z</time>
      </trkpt>
      <trkpt lat="47.21029" lon="0.02357">
        <ele>73</ele>
        <time>2015-12-28T09:48:00Z</time>
      </trkpt>
      <trkpt lat="47.21032" lon="0.02353">
        <ele>75</ele>
        <time>2015-12-28T09:48:02Z</time>
      </trkpt>
      <trkpt lat="47.21039" lon="0.02342">
        <ele>72</ele>
        <time>2015-12-28T09:48:08Z</time>
      </trkpt>
      <trkpt lat="47.21044" lon="0.02331">
        <ele>70</ele>
        <time>2015-12-28T09:48:14Z</time>
      </trkpt>
      <trkpt lat="47.21042" lon="0.02317">
        <ele>68</ele>
        <time>2015-12-28T09:48:20Z</time>
      </trkpt>
      <trkpt lat="47.2104" lon="0.02303">
        <ele>67</ele>
        <time>2015-12-28T09:48:26Z</time>
      </trkpt>
      <trkpt lat="47.21039" lon="0.02289">
        <ele>67</ele>
        <time>2015-12-28T09:48:32Z</time>
      </trkpt>
      <trkpt lat="47.21037" lon="0.02275">
        <ele>65</ele>
        <time>2015-12-28T09:48:38Z</time>
      </trkpt>
      <trkpt lat="47.21033" lon="0.02258">
        <ele>65</ele>
        <time>2015-12-28T09:48:46Z</time>
      </trkpt>
      <trkpt lat="47.21031" lon="0.0225">
        <ele>64</ele>
        <time>2015-12-28T09:48:50Z</time>
      </trkpt>
      <trkpt lat="47.21028" lon="0.02236">
        <ele>63</ele>
        <time>2015-12-28T09:48:57Z</time>
      </trkpt>
      <trkpt lat="47.21025" lon="0.02225">
        <ele>65</ele>
        <time>2015-12-28T09:49:02Z</time>
      </trkpt>
      <trkpt lat="47.21021" lon="0.0221">
        <ele>62</ele>
        <time>2015-12-28T09:49:09Z</time>
      </trkpt>
      <trkpt lat="47.21025" lon="0.022">
        <ele>62</ele>
        <time>2015-12-28T09:49:15Z</time>
      </trkpt>
      <trkpt lat="47.21035" lon="0.02192">
        <ele>59</ele>
        <time>2015-12-28T09:49:24Z</time>
      </trkpt>
      <trkpt lat="47.21037" lon="0.02189">
        <ele>59</ele>
        <time>2015-12-28T09:49:26Z</time>
      </trkpt>
      <trkpt lat="47.21044" lon="0.02179">
        <ele>58</ele>
        <time>2015-12-28T09:49:32Z</time>
      </trkpt>
      <trkpt lat="47.21051" lon="0.02171">
        <ele>58</ele>
        <time>2015-12-28T09:49:38Z</time>
      </trkpt>
      <trkpt lat="47.21059" lon="0.02162">
        <ele>58</ele>
        <time>2015-12-28T09:49:44Z</time>
      </trkpt>
      <trkpt lat="47.21068" lon="0.02155">
        <ele>59</ele>
        <time>2015-12-28T09:49:50Z</time>
      </trkpt>
      <trkpt lat="47.21075" lon="0.02145">
        <ele>59</ele>
        <time>2015-12-28T09:49:56Z</time>
      </trkpt>
      <trkpt lat="47.21082" lon="0.02135">
        <ele>58</ele>
        <time>2015-12-28T09:50:02Z</time>
      </trkpt>
      <trkpt lat="47.2109" lon="0.02126">
        <ele>58</ele>
        <time>2015-12-28T09:50:08Z</time>
      </trkpt>
      <trkpt lat="47.21097" lon="0.02117">
        <ele>57</ele>
        <time>2015-12-28T09:50:14Z</time>
      </trkpt>
      <trkpt lat="47.21104" lon="0.02107">
        <ele>57</ele>
        <time>2015-12-28T09:50:20Z</time>
      </trkpt>
      <trkpt lat="47.21112" lon="0.02098">
        <ele>55</ele>
        <time>2015-12-28T09:50:26Z</time>
      </trkpt>
      <trkpt lat="47.21118" lon="0.02087">
        <ele>55</ele>
        <time>2015-12-28T09:50:32Z</time>
      </trkpt>
      <trkpt lat="47.21124" lon="0.02079">
        <ele>57</ele>
        <time>2015-12-28T09:50:38Z</time>
      </trkpt>
      <trkpt lat="47.2112" lon="0.02068">
        <ele>56</ele>
        <time>2015-12-28T09:50:44Z</time>
      </trkpt>
      <trkpt lat="47.21116" lon="0.02051">
        <ele>58</ele>
        <time>2015-12-28T09:50:51Z</time>
      </trkpt>
      <trkpt lat="47.21112" lon="0.0204">
        <ele>56</ele>
        <time>2015-12-28T09:50:56Z</time>
      </trkpt>
      <trkpt lat="47.21108" lon="0.02026">
        <ele>56</ele>
        <time>2015-12-28T09:51:02Z</time>
      </trkpt>
      <trkpt lat="47.21104" lon="0.02012">
        <ele>57</ele>
        <time>2015-12-28T09:51:08Z</time>
      </trkpt>
      <trkpt lat="47.21103" lon="0.01997">
        <ele>58</ele>
        <time>2015-12-28T09:51:14Z</time>
      </trkpt>
      <trkpt lat="47.21101" lon="0.01983">
        <ele>59</ele>
        <time>2015-12-28T09:51:20Z</time>
      </trkpt>
      <trkpt lat="47.21099" lon="0.01969">
        <ele>56</ele>
        <time>2015-12-28T09:51:26Z</time>
      </trkpt>
      <trkpt lat="47.21096" lon="0.01956">
        <ele>59</ele>
        <time>2015-12-28T09:51:32Z</time>
      </trkpt>
      <trkpt lat="47.21098" lon="0.01943">
        <ele>57</ele>
        <time>2015-12-28T09:51:38Z</time>
      </trkpt>
      <trkpt lat="47.21108" lon="0.01939">
        <ele>58</ele>
        <time>2015-12-28T09:51:47Z</time>
      </trkpt>
      <trkpt lat="47.21112" lon="0.01937">
        <ele>58</ele>
        <time>2015-12-28T09:51:50Z</time>
      </trkpt>
      <trkpt lat="47.2112" lon="0.01935">
        <ele>56</ele>
        <time>2015-12-28T09:51:56Z</time>
      </trkpt>
      <trkpt lat="47.21129" lon="0.0193">
        <ele>57</ele>
        <time>2015-12-28T09:52:02Z</time>
      </trkpt>
      <trkpt lat="47.2113" lon="0.01917">
        <ele>56</ele>
        <time>2015-12-28T09:52:08Z</time>
      </trkpt>
      <trkpt lat="47.21123" lon="0.01904">
        <ele>56</ele>
        <time>2015-12-28T09:52:14Z</time>
      </trkpt>
      <trkpt lat="47.2112" lon="0.0189">
        <ele>56</ele>
        <time>2015-12-28T09:52:20Z</time>
      </trkpt>
      <trkpt lat="47.21126" lon="0.01879">
        <ele>57</ele>
        <time>2015-12-28T09:52:26Z</time>
      </trkpt>
      <trkpt lat="47.21137" lon="0.01865">
        <ele>58</ele>
        <time>2015-12-28T09:52:35Z</time>
      </trkpt>
      <trkpt lat="47.2114" lon="0.01861">
        <ele>59</ele>
        <time>2015-12-28T09:52:38Z</time>
      </trkpt>
      <trkpt lat="47.2115" lon="0.01851">
        <ele>61</ele>
        <time>2015-12-28T09:52:45Z</time>
      </trkpt>
      <trkpt lat="47.21157" lon="0.01843">
        <ele>62</ele>
        <time>2015-12-28T09:52:50Z</time>
      </trkpt>
      <trkpt lat="47.21167" lon="0.01828">
        <ele>61</ele>
        <time>2015-12-28T09:52:58Z</time>
      </trkpt>
      <trkpt lat="47.21172" lon="0.0182">
        <ele>64</ele>
        <time>2015-12-28T09:53:02Z</time>
      </trkpt>
      <trkpt lat="47.21179" lon="0.01809">
        <ele>65</ele>
        <time>2015-12-28T09:53:08Z</time>
      </trkpt>
      <trkpt lat="47.21186" lon="0.01797">
        <ele>66</ele>
        <time>2015-12-28T09:53:14Z</time>
      </trkpt>
      <trkpt lat="47.2119" lon="0.01783">
        <ele>67</ele>
        <time>2015-12-28T09:53:20Z</time>
      </trkpt>
      <trkpt lat="47.2119" lon="0.01759">
        <ele>66</ele>
        <time>2015-12-28T09:53:29Z</time>
      </trkpt>
      <trkpt lat="47.21189" lon="0.01746">
        <ele>67</ele>
        <time>2015-12-28T09:53:34Z</time>
      </trkpt>
      <trkpt lat="47.2119" lon="0.01734">
        <ele>68</ele>
        <time>2015-12-28T09:53:39Z</time>
      </trkpt>
      <trkpt lat="47.21192" lon="0.01718">
        <ele>67</ele>
        <time>2015-12-28T09:53:46Z</time>
      </trkpt>
      <trkpt lat="47.21195" lon="0.01708">
        <ele>67</ele>
        <time>2015-12-28T09:53:51Z</time>
      </trkpt>
      <trkpt lat="47.21198" lon="0.01698">
        <ele>66</ele>
        <time>2015-12-28T09:53:56Z</time>
      </trkpt>
      <trkpt lat="47.212" lon="0.01685">
        <ele>66</ele>
        <time>2015-12-28T09:54:02Z</time>
      </trkpt>
      <trkpt lat="47.21203" lon="0.0167">
        <ele>68</ele>
        <time>2015-12-28T09:54:10Z</time>
      </trkpt>
      <trkpt lat="47.21205" lon="0.01661">
        <ele>69</ele>
        <time>2015-12-28T09:54:14Z</time>
      </trkpt>
      <trkpt lat="47.21208" lon="0.01645">
        <ele>71</ele>
        <time>2015-12-28T09:54:21Z</time>
      </trkpt>
      <trkpt lat="47.21211" lon="0.01628">
        <ele>71</ele>
        <time>2015-12-28T09:54:28Z</time>
      </trkpt>
      <trkpt lat="47.21214" lon="0.01604">
        <ele>73</ele>
        <time>2015-12-28T09:54:37Z</time>
      </trkpt>
      <trkpt lat="47.21213" lon="0.01602">
        <ele>74</ele>
        <time>2015-12-28T09:54:38Z</time>
      </trkpt>
      <trkpt lat="47.2121" lon="0.01588">
        <ele>76</ele>
        <time>2015-12-28T09:54:44Z</time>
      </trkpt>
      <trkpt lat="47.21203" lon="0.0158">
        <ele>74</ele>
        <time>2015-12-28T09:54:50Z</time>
      </trkpt>
      <trkpt lat="47.21202" lon="0.01569">
        <ele>75</ele>
        <time>2015-12-28T09:54:59Z</time>
      </trkpt>
      <trkpt lat="47.21206" lon="0.0156">
        <ele>77</ele>
        <time>2015-12-28T09:55:03Z</time>
      </trkpt>
      <trkpt lat="47.21214" lon="0.01547">
        <ele>77</ele>
        <time>2015-12-28T09:55:10Z</time>
      </trkpt>
      <trkpt lat="47.21216" lon="0.01538">
        <ele>76</ele>
        <time>2015-12-28T09:55:14Z</time>
      </trkpt>
      <trkpt lat="47.21223" lon="0.01528">
        <ele>76</ele>
        <time>2015-12-28T09:55:20Z</time>
      </trkpt>
      <trkpt lat="47.2123" lon="0.01518">
        <ele>75</ele>
        <time>2015-12-28T09:55:26Z</time>
      </trkpt>
      <trkpt lat="47.21236" lon="0.01508">
        <ele>75</ele>
        <time>2015-12-28T09:55:32Z</time>
      </trkpt>
      <trkpt lat="47.21245" lon="0.01497">
        <ele>77</ele>
        <time>2015-12-28T09:55:42Z</time>
      </trkpt>
      <trkpt lat="47.2125" lon="0.01489">
        <ele>78</ele>
        <time>2015-12-28T09:55:47Z</time>
      </trkpt>
      <trkpt lat="47.21255" lon="0.01483">
        <ele>78</ele>
        <time>2015-12-28T09:55:52Z</time>
      </trkpt>
      <trkpt lat="47.21259" lon="0.0147">
        <ele>78</ele>
        <time>2015-12-28T09:55:59Z</time>
      </trkpt>
      <trkpt lat="47.21261" lon="0.01464">
        <ele>77</ele>
        <time>2015-12-28T09:56:02Z</time>
      </trkpt>
      <trkpt lat="47.21271" lon="0.01449">
        <ele>79</ele>
        <time>2015-12-28T09:56:11Z</time>
      </trkpt>
      <trkpt lat="47.21277" lon="0.01443">
        <ele>80</ele>
        <time>2015-12-28T09:56:15Z</time>
      </trkpt>
      <trkpt lat="47.21291" lon="0.01432">
        <ele>84</ele>
        <time>2015-12-28T09:56:24Z</time>
      </trkpt>
      <trkpt lat="47.21294" lon="0.01431">
        <ele>84</ele>
        <time>2015-12-28T09:56:26Z</time>
      </trkpt>
      <trkpt lat="47.21306" lon="0.01427">
        <ele>85</ele>
        <time>2015-12-28T09:56:34Z</time>
      </trkpt>
      <trkpt lat="47.21316" lon="0.01422">
        <ele>85</ele>
        <time>2015-12-28T09:56:40Z</time>
      </trkpt>
      <trkpt lat="47.21324" lon="0.01417">
        <ele>82</ele>
        <time>2015-12-28T09:56:44Z</time>
      </trkpt>
      <trkpt lat="47.21333" lon="0.01409">
        <ele>80</ele>
        <time>2015-12-28T09:56:50Z</time>
      </trkpt>
      <trkpt lat="47.21345" lon="0.014">
        <ele>78</ele>
        <time>2015-12-28T09:56:58Z</time>
      </trkpt>
      <trkpt lat="47.21351" lon="0.01391">
        <ele>78</ele>
        <time>2015-12-28T09:57:03Z</time>
      </trkpt>
      <trkpt lat="47.21357" lon="0.01382">
        <ele>79</ele>
        <time>2015-12-28T09:57:08Z</time>
      </trkpt>
      <trkpt lat="47.21365" lon="0.01371">
        <ele>79</ele>
        <time>2015-12-28T09:57:15Z</time>
      </trkpt>
      <trkpt lat="47.21376" lon="0.01375">
        <ele>76</ele>
        <time>2015-12-28T09:57:24Z</time>
      </trkpt>
      <trkpt lat="47.21378" lon="0.01379">
        <ele>75</ele>
        <time>2015-12-28T09:57:26Z</time>
      </trkpt>
      <trkpt lat="47.2139" lon="0.01398">
        <ele>73</ele>
        <time>2015-12-28T09:57:37Z</time>
      </trkpt>
      <trkpt lat="47.21392" lon="0.01401">
        <ele>72</ele>
        <time>2015-12-28T09:57:39Z</time>
      </trkpt>
      <trkpt lat="47.21403" lon="0.01413">
        <ele>73</ele>
        <time>2015-12-28T09:57:47Z</time>
      </trkpt>
      <trkpt lat="47.21408" lon="0.01416">
        <ele>74</ele>
        <time>2015-12-28T09:57:50Z</time>
      </trkpt>
      <trkpt lat="47.2142" lon="0.01425">
        <ele>74</ele>
        <time>2015-12-28T09:57:58Z</time>
      </trkpt>
      <trkpt lat="47.21427" lon="0.01432">
        <ele>75</ele>
        <time>2015-12-28T09:58:03Z</time>
      </trkpt>
      <trkpt lat="47.21434" lon="0.01439">
        <ele>75</ele>
        <time>2015-12-28T09:58:08Z</time>
      </trkpt>
      <trkpt lat="47.21442" lon="0.01449">
        <ele>77</ele>
        <time>2015-12-28T09:58:14Z</time>
      </trkpt>
      <trkpt lat="47.21453" lon="0.01455">
        <ele>74</ele>
        <time>2015-12-28T09:58:21Z</time>
      </trkpt>
      <trkpt lat="47.2146" lon="0.01456">
        <ele>75</ele>
        <time>2015-12-28T09:58:26Z</time>
      </trkpt>
      <trkpt lat="47.21476" lon="0.01449">
        <ele>69</ele>
        <time>2015-12-28T09:58:33Z</time>
      </trkpt>
      <trkpt lat="47.21489" lon="0.01448">
        <ele>68</ele>
        <time>2015-12-28T09:58:43Z</time>
      </trkpt>
      <trkpt lat="47.21496" lon="0.01449">
        <ele>69</ele>
        <time>2015-12-28T09:58:49Z</time>
      </trkpt>
      <trkpt lat="47.21499" lon="0.01448">
        <ele>69</ele>
        <time>2015-12-28T09:58:51Z</time>
      </trkpt>
      <trkpt lat="47.21506" lon="0.01445">
        <ele>69</ele>
        <time>2015-12-28T09:58:56Z</time>
      </trkpt>
      <trkpt lat="47.21512" lon="0.01431">
        <ele>71</ele>
        <time>2015-12-28T09:59:05Z</time>
      </trkpt>
      <trkpt lat="47.21514" lon="0.01426">
        <ele>70</ele>
        <time>2015-12-28T09:59:08Z</time>
      </trkpt>
      <trkpt lat="47.2152" lon="0.01414">
        <ele>71</ele>
        <time>2015-12-28T09:59:15Z</time>
      </trkpt>
      <trkpt lat="47.21524" lon="0.01406">
        <ele>68</ele>
        <time>2015-12-28T09:59:20Z</time>
      </trkpt>
      <trkpt lat="47.21529" lon="0.0139">
        <ele>71</ele>
        <time>2015-12-28T09:59:29Z</time>
      </trkpt>
      <trkpt lat="47.21533" lon="0.01382">
        <ele>70</ele>
        <time>2015-12-28T09:59:34Z</time>
      </trkpt>
      <trkpt lat="47.21538" lon="0.01376">
        <ele>69</ele>
        <time>2015-12-28T09:59:38Z</time>
      </trkpt>
      <trkpt lat="47.21546" lon="0.01367">
        <ele>68</ele>
        <time>2015-12-28T09:59:44Z</time>
      </trkpt>
      <trkpt lat="47.21554" lon="0.01352">
        <ele>65</ele>
        <time>2015-12-28T09:59:52Z</time>
      </trkpt>
      <trkpt lat="47.21562" lon="0.01341">
        <ele>64</ele>
        <time>2015-12-28T09:59:58Z</time>
      </trkpt>
      <trkpt lat="47.21571" lon="0.01332">
        <ele>64</ele>
        <time>2015-12-28T10:00:05Z</time>
      </trkpt>
      <trkpt lat="47.21576" lon="0.01329">
        <ele>63</ele>
        <time>2015-12-28T10:00:08Z</time>
      </trkpt>
      <trkpt lat="47.21584" lon="0.01323">
        <ele>61</ele>
        <time>2015-12-28T10:00:14Z</time>
      </trkpt>
      <trkpt lat="47.21594" lon="0.01318">
        <ele>61</ele>
        <time>2015-12-28T10:00:20Z</time>
      </trkpt>
      <trkpt lat="47.21604" lon="0.01314">
        <ele>60</ele>
        <time>2015-12-28T10:00:26Z</time>
      </trkpt>
      <trkpt lat="47.21622" lon="0.01304">
        <ele>59</ele>
        <time>2015-12-28T10:00:37Z</time>
      </trkpt>
      <trkpt lat="47.21625" lon="0.01301">
        <ele>59</ele>
        <time>2015-12-28T10:00:39Z</time>
      </trkpt>
      <trkpt lat="47.21635" lon="0.01295">
        <ele>60</ele>
        <time>2015-12-28T10:00:45Z</time>
      </trkpt>
      <trkpt lat="47.21643" lon="0.01288">
        <ele>59</ele>
        <time>2015-12-28T10:00:50Z</time>
      </trkpt>
      <trkpt lat="47.21653" lon="0.01281">
        <ele>59</ele>
        <time>2015-12-28T10:00:56Z</time>
      </trkpt>
      <trkpt lat="47.21663" lon="0.01274">
        <ele>60</ele>
        <time>2015-12-28T10:01:02Z</time>
      </trkpt>
      <trkpt lat="47.21672" lon="0.01265">
        <ele>57</ele>
        <time>2015-12-28T10:01:09Z</time>
      </trkpt>
      <trkpt lat="47.21679" lon="0.01259">
        <ele>56</ele>
        <time>2015-12-28T10:01:14Z</time>
      </trkpt>
      <trkpt lat="47.21688" lon="0.01252">
        <ele>58</ele>
        <time>2015-12-28T10:01:20Z</time>
      </trkpt>
      <trkpt lat="47.21699" lon="0.01246">
        <ele>57</ele>
        <time>2015-12-28T10:01:28Z</time>
      </trkpt>
      <trkpt lat="47.21702" lon="0.01255">
        <ele>57</ele>
        <time>2015-12-28T10:01:33Z</time>
      </trkpt>
      <trkpt lat="47.21705" lon="0.01265">
        <ele>57</ele>
        <time>2015-12-28T10:01:38Z</time>
      </trkpt>
      <trkpt lat="47.2171" lon="0.01279">
        <ele>56</ele>
        <time>2015-12-28T10:01:45Z</time>
      </trkpt>
      <trkpt lat="47.21714" lon="0.01289">
        <ele>56</ele>
        <time>2015-12-28T10:01:51Z</time>
      </trkpt>
      <trkpt lat="47.21718" lon="0.01297">
        <ele>59</ele>
        <time>2015-12-28T10:01:56Z</time>
      </trkpt>
      <trkpt lat="47.21724" lon="0.01311">
        <ele>62</ele>
        <time>2015-12-28T10:02:04Z</time>
      </trkpt>
      <trkpt lat="47.21729" lon="0.01323">
        <ele>61</ele>
        <time>2015-12-28T10:02:11Z</time>
      </trkpt>
      <trkpt lat="47.21733" lon="0.01334">
        <ele>61</ele>
        <time>2015-12-28T10:02:17Z</time>
      </trkpt>
      <trkpt lat="47.21739" lon="0.01345">
        <ele>57</ele>
        <time>2015-12-28T10:02:24Z</time>
      </trkpt>
      <trkpt lat="47.21744" lon="0.01354">
        <ele>54</ele>
        <time>2015-12-28T10:02:29Z</time>
      </trkpt>
      <trkpt lat="47.21748" lon="0.01361">
        <ele>56</ele>
        <time>2015-12-28T10:02:33Z</time>
      </trkpt>
      <trkpt lat="47.21754" lon="0.01375">
        <ele>57</ele>
        <time>2015-12-28T10:02:39Z</time>
      </trkpt>
      <trkpt lat="47.21759" lon="0.01395">
        <ele>62</ele>
        <time>2015-12-28T10:02:47Z</time>
      </trkpt>
      <trkpt lat="47.21764" lon="0.01412">
        <ele>64</ele>
        <time>2015-12-28T10:02:54Z</time>
      </trkpt>
      <trkpt lat="47.21765" lon="0.01417">
        <ele>64</ele>
        <time>2015-12-28T10:02:56Z</time>
      </trkpt>
      <trkpt lat="47.2177" lon="0.01431">
        <ele>67</ele>
        <time>2015-12-28T10:03:02Z</time>
      </trkpt>
      <trkpt lat="47.21779" lon="0.01446">
        <ele>69</ele>
        <time>2015-12-28T10:03:11Z</time>
      </trkpt>
      <trkpt lat="47.21782" lon="0.01447">
        <ele>70</ele>
        <time>2015-12-28T10:03:15Z</time>
      </trkpt>
      <trkpt lat="47.21783" lon="0.01443">
        <ele>69</ele>
        <time>2015-12-28T10:03:20Z</time>
      </trkpt>
      <trkpt lat="47.2179" lon="0.0144">
        <ele>70</ele>
        <time>2015-12-28T10:03:27Z</time>
      </trkpt>
      <trkpt lat="47.21799" lon="0.0144">
        <ele>69</ele>
        <time>2015-12-28T10:03:34Z</time>
      </trkpt>
      <trkpt lat="47.21804" lon="0.0144">
        <ele>70</ele>
        <time>2015-12-28T10:03:38Z</time>
      </trkpt>
      <trkpt lat="47.21811" lon="0.0144">
        <ele>69</ele>
        <time>2015-12-28T10:03:45Z</time>
      </trkpt>
      <trkpt lat="47.21816" lon="0.0144">
        <ele>69</ele>
        <time>2015-12-28T10:03:50Z</time>
      </trkpt>
      <trkpt lat="47.21829" lon="0.0144">
        <ele>69</ele>
        <time>2015-12-28T10:04:01Z</time>
      </trkpt>
      <trkpt lat="47.21833" lon="0.0144">
        <ele>70</ele>
        <time>2015-12-28T10:04:04Z</time>
      </trkpt>
      <trkpt lat="47.21838" lon="0.01441">
        <ele>70</ele>
        <time>2015-12-28T10:04:08Z</time>
      </trkpt>
      <trkpt lat="47.21847" lon="0.01441">
        <ele>70</ele>
        <time>2015-12-28T10:04:15Z</time>
      </trkpt>
      <trkpt lat="47.21856" lon="0.01444">
        <ele>68</ele>
        <time>2015-12-28T10:04:22Z</time>
      </trkpt>
      <trkpt lat="47.21862" lon="0.01445">
        <ele>68</ele>
        <time>2015-12-28T10:04:26Z</time>
      </trkpt>
      <trkpt lat="47.2187" lon="0.01448">
        <ele>68</ele>
        <time>2015-12-28T10:04:32Z</time>
      </trkpt>
      <trkpt lat="47.21882" lon="0.01456">
        <ele>67</ele>
        <time>2015-12-28T10:04:41Z</time>
      </trkpt>
      <trkpt lat="47.21887" lon="0.01457">
        <ele>67</ele>
        <time>2015-12-28T10:04:44Z</time>
      </trkpt>
      <trkpt lat="47.21896" lon="0.01461">
        <ele>67</ele>
        <time>2015-12-28T10:04:50Z</time>
      </trkpt>
      <trkpt lat="47.21908" lon="0.01466">
        <ele>70</ele>
        <time>2015-12-28T10:04:58Z</time>
      </trkpt>
      <trkpt lat="47.21915" lon="0.01468">
        <ele>69</ele>
        <time>2015-12-28T10:05:03Z</time>
      </trkpt>
      <trkpt lat="47.21923" lon="0.01469">
        <ele>69</ele>
        <time>2015-12-28T10:05:08Z</time>
      </trkpt>
      <trkpt lat="47.21933" lon="0.01471">
        <ele>69</ele>
        <time>2015-12-28T10:05:15Z</time>
      </trkpt>
      <trkpt lat="47.21945" lon="0.01478">
        <ele>70</ele>
        <time>2015-12-28T10:05:23Z</time>
      </trkpt>
      <trkpt lat="47.21951" lon="0.0148">
        <ele>70</ele>
        <time>2015-12-28T10:05:27Z</time>
      </trkpt>
      <trkpt lat="47.21959" lon="0.01484">
        <ele>70</ele>
        <time>2015-12-28T10:05:32Z</time>
      </trkpt>
      <trkpt lat="47.21967" lon="0.01487">
        <ele>70</ele>
        <time>2015-12-28T10:05:38Z</time>
      </trkpt>
      <trkpt lat="47.21977" lon="0.01487">
        <ele>69</ele>
        <time>2015-12-28T10:05:44Z</time>
      </trkpt>
      <trkpt lat="47.21989" lon="0.01489">
        <ele>70</ele>
        <time>2015-12-28T10:05:51Z</time>
      </trkpt>
      <trkpt lat="47.21997" lon="0.0149">
        <ele>70</ele>
        <time>2015-12-28T10:05:56Z</time>
      </trkpt>
      <trkpt lat="47.2201" lon="0.01489">
        <ele>68</ele>
        <time>2015-12-28T10:06:04Z</time>
      </trkpt>
      <trkpt lat="47.22018" lon="0.01488">
        <ele>71</ele>
        <time>2015-12-28T10:06:08Z</time>
      </trkpt>
      <trkpt lat="47.22028" lon="0.01488">
        <ele>72</ele>
        <time>2015-12-28T10:06:14Z</time>
      </trkpt>
      <trkpt lat="47.22037" lon="0.01492">
        <ele>71</ele>
        <time>2015-12-28T10:06:20Z</time>
      </trkpt>
      <trkpt lat="47.22047" lon="0.01498">
        <ele>70</ele>
        <time>2015-12-28T10:06:27Z</time>
      </trkpt>
      <trkpt lat="47.22055" lon="0.01502">
        <ele>70</ele>
        <time>2015-12-28T10:06:32Z</time>
      </trkpt>
      <trkpt lat="47.22068" lon="0.01509">
        <ele>71</ele>
        <time>2015-12-28T10:06:40Z</time>
      </trkpt>
      <trkpt lat="47.22075" lon="0.01515">
        <ele>71</ele>
        <time>2015-12-28T10:06:45Z</time>
      </trkpt>
      <trkpt lat="47.22085" lon="0.01526">
        <ele>72</ele>
        <time>2015-12-28T10:06:52Z</time>
      </trkpt>
      <trkpt lat="47.22094" lon="0.01532">
        <ele>73</ele>
        <time>2015-12-28T10:06:58Z</time>
      </trkpt>
      <trkpt lat="47.22099" lon="0.01537">
        <ele>73</ele>
        <time>2015-12-28T10:07:02Z</time>
      </trkpt>
      <trkpt lat="47.22108" lon="0.01545">
        <ele>74</ele>
        <time>2015-12-28T10:07:08Z</time>
      </trkpt>
      <trkpt lat="47.22115" lon="0.01555">
        <ele>74</ele>
        <time>2015-12-28T10:07:14Z</time>
      </trkpt>
      <trkpt lat="47.22125" lon="0.01561">
        <ele>72</ele>
        <time>2015-12-28T10:07:21Z</time>
      </trkpt>
      <trkpt lat="47.22135" lon="0.01571">
        <ele>69</ele>
        <time>2015-12-28T10:07:29Z</time>
      </trkpt>
      <trkpt lat="47.22139" lon="0.01575">
        <ele>70</ele>
        <time>2015-12-28T10:07:32Z</time>
      </trkpt>
      <trkpt lat="47.22148" lon="0.01579">
        <ele>68</ele>
        <time>2015-12-28T10:07:38Z</time>
      </trkpt>
      <trkpt lat="47.22159" lon="0.01586">
        <ele>70</ele>
        <time>2015-12-28T10:07:45Z</time>
      </trkpt>
      <trkpt lat="47.22167" lon="0.01594">
        <ele>70</ele>
        <time>2015-12-28T10:07:51Z</time>
      </trkpt>
      <trkpt lat="47.22176" lon="0.01601">
        <ele>70</ele>
        <time>2015-12-28T10:07:57Z</time>
      </trkpt>
      <trkpt lat="47.22184" lon="0.01609">
        <ele>71</ele>
        <time>2015-12-28T10:08:03Z</time>
      </trkpt>
      <trkpt lat="47.2219" lon="0.01617">
        <ele>72</ele>
        <time>2015-12-28T10:08:08Z</time>
      </trkpt>
      <trkpt lat="47.22205" lon="0.01623">
        <ele>71</ele>
        <time>2015-12-28T10:08:17Z</time>
      </trkpt>
      <trkpt lat="47.22219" lon="0.01625">
        <ele>70</ele>
        <time>2015-12-28T10:08:25Z</time>
      </trkpt>
      <trkpt lat="47.22226" lon="0.01626">
        <ele>68</ele>
        <time>2015-12-28T10:08:29Z</time>
      </trkpt>
      <trkpt lat="47.22231" lon="0.01627">
        <ele>67</ele>
        <time>2015-12-28T10:08:32Z</time>
      </trkpt>
      <trkpt lat="47.22239" lon="0.0163">
        <ele>66</ele>
        <time>2015-12-28T10:08:38Z</time>
      </trkpt>
      <trkpt lat="47.22251" lon="0.01639">
        <ele>66</ele>
        <time>2015-12-28T10:08:46Z</time>
      </trkpt>
      <trkpt lat="47.22259" lon="0.01644">
        <ele>67</ele>
        <time>2015-12-28T10:08:51Z</time>
      </trkpt>
      <trkpt lat="47.22268" lon="0.01647">
        <ele>67</ele>
        <time>2015-12-28T10:08:56Z</time>
      </trkpt>
      <trkpt lat="47.22278" lon="0.01655">
        <ele>66</ele>
        <time>2015-12-28T10:09:03Z</time>
      </trkpt>
      <trkpt lat="47.22286" lon="0.0166">
        <ele>66</ele>
        <time>2015-12-28T10:09:08Z</time>
      </trkpt>
      <trkpt lat="47.22302" lon="0.01672">
        <ele>66</ele>
        <time>2015-12-28T10:09:19Z</time>
      </trkpt>
      <trkpt lat="47.22309" lon="0.0168">
        <ele>66</ele>
        <time>2015-12-28T10:09:24Z</time>
      </trkpt>
      <trkpt lat="47.22313" lon="0.01684">
        <ele>66</ele>
        <time>2015-12-28T10:09:27Z</time>
      </trkpt>
      <trkpt lat="47.2232" lon="0.01689">
        <ele>65</ele>
        <time>2015-12-28T10:09:32Z</time>
      </trkpt>
      <trkpt lat="47.22337" lon="0.01698">
        <ele>62</ele>
        <time>2015-12-28T10:09:43Z</time>
      </trkpt>
      <trkpt lat="47.22338" lon="0.01699">
        <ele>62</ele>
        <time>2015-12-28T10:09:44Z</time>
      </trkpt>
      <trkpt lat="47.22348" lon="0.01701">
        <ele>61</ele>
        <time>2015-12-28T10:09:50Z</time>
      </trkpt>
      <trkpt lat="47.22358" lon="0.01713">
        <ele>62</ele>
        <time>2015-12-28T10:09:58Z</time>
      </trkpt>
      <trkpt lat="47.22367" lon="0.01722">
        <ele>62</ele>
        <time>2015-12-28T10:10:05Z</time>
      </trkpt>
      <trkpt lat="47.22374" lon="0.01726">
        <ele>62</ele>
        <time>2015-12-28T10:10:09Z</time>
      </trkpt>
      <trkpt lat="47.22383" lon="0.0173">
        <ele>61</ele>
        <time>2015-12-28T10:10:15Z</time>
      </trkpt>
      <trkpt lat="47.22392" lon="0.01732">
        <ele>61</ele>
        <time>2015-12-28T10:10:20Z</time>
      </trkpt>
      <trkpt lat="47.22401" lon="0.01738">
        <ele>61</ele>
        <time>2015-12-28T10:10:26Z</time>
      </trkpt>
      <trkpt lat="47.22408" lon="0.01746">
        <ele>60</ele>
        <time>2015-12-28T10:10:32Z</time>
      </trkpt>
      <trkpt lat="47.22418" lon="0.01755">
        <ele>60</ele>
        <time>2015-12-28T10:10:39Z</time>
      </trkpt>
      <trkpt lat="47.22427" lon="0.0176">
        <ele>59</ele>
        <time>2015-12-28T10:10:45Z</time>
      </trkpt>
      <trkpt lat="47.22436" lon="0.01764">
        <ele>58</ele>
        <time>2015-12-28T10:10:51Z</time>
      </trkpt>
      <trkpt lat="47.22451" lon="0.01765">
        <ele>59</ele>
        <time>2015-12-28T10:10:59Z</time>
      </trkpt>
      <trkpt lat="47.22457" lon="0.0177">
        <ele>58</ele>
        <time>2015-12-28T10:11:03Z</time>
      </trkpt>
      <trkpt lat="47.22471" lon="0.01778">
        <ele>57</ele>
        <time>2015-12-28T10:11:12Z</time>
      </trkpt>
      <trkpt lat="47.2248" lon="0.01786">
        <ele>56</ele>
        <time>2015-12-28T10:11:18Z</time>
      </trkpt>
      <trkpt lat="47.22484" lon="0.01788">
        <ele>55</ele>
        <time>2015-12-28T10:11:21Z</time>
      </trkpt>
      <trkpt lat="47.22492" lon="0.01794">
        <ele>55</ele>
        <time>2015-12-28T10:11:26Z</time>
      </trkpt>
      <trkpt lat="47.22504" lon="0.018">
        <ele>54</ele>
        <time>2015-12-28T10:11:34Z</time>
      </trkpt>
      <trkpt lat="47.22513" lon="0.01806">
        <ele>54</ele>
        <time>2015-12-28T10:11:40Z</time>
      </trkpt>
      <trkpt lat="47.22521" lon="0.01816">
        <ele>54</ele>
        <time>2015-12-28T10:11:46Z</time>
      </trkpt>
      <trkpt lat="47.22529" lon="0.0182">
        <ele>55</ele>
        <time>2015-12-28T10:11:51Z</time>
      </trkpt>
      <trkpt lat="47.22542" lon="0.01827">
        <ele>56</ele>
        <time>2015-12-28T10:11:59Z</time>
      </trkpt>
      <trkpt lat="47.2255" lon="0.01831">
        <ele>56</ele>
        <time>2015-12-28T10:12:04Z</time>
      </trkpt>
      <trkpt lat="47.22556" lon="0.01836">
        <ele>59</ele>
        <time>2015-12-28T10:12:08Z</time>
      </trkpt>
      <trkpt lat="47.22564" lon="0.01844">
        <ele>60</ele>
        <time>2015-12-28T10:12:14Z</time>
      </trkpt>
      <trkpt lat="47.22578" lon="0.01849">
        <ele>61</ele>
        <time>2015-12-28T10:12:23Z</time>
      </trkpt>
      <trkpt lat="47.22583" lon="0.01851">
        <ele>61</ele>
        <time>2015-12-28T10:12:26Z</time>
      </trkpt>
      <trkpt lat="47.22598" lon="0.0186">
        <ele>62</ele>
        <time>2015-12-28T10:12:36Z</time>
      </trkpt>
      <trkpt lat="47.22603" lon="0.01861">
        <ele>62</ele>
        <time>2015-12-28T10:12:39Z</time>
      </trkpt>
      <trkpt lat="47.22611" lon="0.01863">
        <ele>62</ele>
        <time>2015-12-28T10:12:44Z</time>
      </trkpt>
      <trkpt lat="47.22618" lon="0.0187">
        <ele>60</ele>
        <time>2015-12-28T10:12:50Z</time>
      </trkpt>
      <trkpt lat="47.22626" lon="0.01875">
        <ele>59</ele>
        <time>2015-12-28T10:12:56Z</time>
      </trkpt>
      <trkpt lat="47.22633" lon="0.01882">
        <ele>58</ele>
        <time>2015-12-28T10:13:02Z</time>
      </trkpt>
      <trkpt lat="47.22633" lon="0.01883">
        <ele>58</ele>
        <time>2015-12-28T10:13:08Z</time>
      </trkpt>
      <trkpt lat="47.22634" lon="0.01884">
        <ele>58</ele>
        <time>2015-12-28T10:13:12Z</time>
      </trkpt>
      <trkpt lat="47.22636" lon="0.01882">
        <ele>55</ele>
        <time>2015-12-28T10:13:16Z</time>
      </trkpt>
      <trkpt lat="47.22637" lon="0.01879">
        <ele>55</ele>
        <time>2015-12-28T10:13:20Z</time>
      </trkpt>
      <trkpt lat="47.22637" lon="0.01878">
        <ele>55</ele>
        <time>2015-12-28T10:13:26Z</time>
      </trkpt>
      <trkpt lat="47.22637" lon="0.01878">
        <ele>56</ele>
        <time>2015-12-28T10:13:29Z</time>
      </trkpt>
      <trkpt lat="47.22637" lon="0.01878">
        <ele>56</ele>
        <time>2015-12-28T10:13:32Z</time>
      </trkpt>
      <trkpt lat="47.22637" lon="0.01878">
        <ele>56</ele>
        <time>2015-12-28T10:13:35Z</time>
      </trkpt>
      <trkpt lat="47.22637" lon="0.01878">
        <ele>56</ele>
        <time>2015-12-28T10:13:38Z</time>
      </trkpt>
      <trkpt lat="47.22637" lon="0.01878">
        <ele>55</ele>
        <time>2015-12-28T10:13:41Z</time>
      </trkpt>
      <trkpt lat="47.22637" lon="0.01877">
        <ele>55</ele>
        <time>2015-12-28T10:13:45Z</time>
      </trkpt>
      <trkpt lat="47.22637" lon="0.01877">
        <ele>55</ele>
        <time>2015-12-28T10:13:47Z</time>
      </trkpt>
      <trkpt lat="47.22637" lon="0.01878">
        <ele>56</ele>
        <time>2015-12-28T10:13:50Z</time>
      </trkpt>
      <trkpt lat="47.22637" lon="0.01879">
        <ele>56</ele>
        <time>2015-12-28T10:13:56Z</time>
      </trkpt>
      <trkpt lat="47.22638" lon="0.01881">
        <ele>56</ele>
        <time>2015-12-28T10:14:00Z</time>
      </trkpt>
      <trkpt lat="47.22643" lon="0.01882">
        <ele>56</ele>
        <time>2015-12-28T10:14:05Z</time>
      </trkpt>
      <trkpt lat="47.22655" lon="0.01888">
        <ele>55</ele>
        <time>2015-12-28T10:14:15Z</time>
      </trkpt>
      <trkpt lat="47.22658" lon="0.01888">
        <ele>56</ele>
        <time>2015-12-28T10:14:17Z</time>
      </trkpt>
      <trkpt lat="47.22666" lon="0.01885">
        <ele>55</ele>
        <time>2015-12-28T10:14:24Z</time>
      </trkpt>
      <trkpt lat="47.22669" lon="0.01877">
        <ele>55</ele>
        <time>2015-12-28T10:14:30Z</time>
      </trkpt>
      <trkpt lat="47.22674" lon="0.01868">
        <ele>51</ele>
        <time>2015-12-28T10:14:38Z</time>
      </trkpt>
      <trkpt lat="47.22676" lon="0.01865">
        <ele>52</ele>
        <time>2015-12-28T10:14:41Z</time>
      </trkpt>
      <trkpt lat="47.22682" lon="0.01858">
        <ele>54</ele>
        <time>2015-12-28T10:14:47Z</time>
      </trkpt>
      <trkpt lat="47.22683" lon="0.01847">
        <ele>52</ele>
        <time>2015-12-28T10:14:54Z</time>
      </trkpt>
      <trkpt lat="47.22683" lon="0.0184">
        <ele>49</ele>
        <time>2015-12-28T10:15:00Z</time>
      </trkpt>
      <trkpt lat="47.22685" lon="0.01835">
        <ele>48</ele>
        <time>2015-12-28T10:15:05Z</time>
      </trkpt>
      <trkpt lat="47.22683" lon="0.01825">
        <ele>47</ele>
        <time>2015-12-28T10:15:11Z</time>
      </trkpt>
      <trkpt lat="47.22681" lon="0.01813">
        <ele>45</ele>
        <time>2015-12-28T10:15:18Z</time>
      </trkpt>
      <trkpt lat="47.2268" lon="0.01794">
        <ele>47</ele>
        <time>2015-12-28T10:15:28Z</time>
      </trkpt>
      <trkpt lat="47.2268" lon="0.01789">
        <ele>46</ele>
        <time>2015-12-28T10:15:31Z</time>
      </trkpt>
      <trkpt lat="47.2268" lon="0.0178">
        <ele>44</ele>
        <time>2015-12-28T10:15:36Z</time>
      </trkpt>
      <trkpt lat="47.22684" lon="0.01771">
        <ele>43</ele>
        <time>2015-12-28T10:15:41Z</time>
      </trkpt>
      <trkpt lat="47.22689" lon="0.01759">
        <ele>40</ele>
        <time>2015-12-28T10:15:49Z</time>
      </trkpt>
      <trkpt lat="47.22693" lon="0.01752">
        <ele>39</ele>
        <time>2015-12-28T10:15:55Z</time>
      </trkpt>
      <trkpt lat="47.22696" lon="0.01748">
        <ele>37</ele>
        <time>2015-12-28T10:15:59Z</time>
      </trkpt>
      <trkpt lat="47.22698" lon="0.01739">
        <ele>34</ele>
        <time>2015-12-28T10:16:09Z</time>
      </trkpt>
      <trkpt lat="47.22699" lon="0.01735">
        <ele>33</ele>
        <time>2015-12-28T10:16:11Z</time>
      </trkpt>
      <trkpt lat="47.22704" lon="0.01726">
        <ele>31</ele>
        <time>2015-12-28T10:16:18Z</time>
      </trkpt>
      <trkpt lat="47.22708" lon="0.01716">
        <ele>27</ele>
        <time>2015-12-28T10:16:25Z</time>
      </trkpt>
      <trkpt lat="47.22707" lon="0.01707">
        <ele>27</ele>
        <time>2015-12-28T10:16:29Z</time>
      </trkpt>
      <trkpt lat="47.22703" lon="0.01696">
        <ele>23</ele>
        <time>2015-12-28T10:16:35Z</time>
      </trkpt>
      <trkpt lat="47.22694" lon="0.01687">
        <ele>22</ele>
        <time>2015-12-28T10:16:42Z</time>
      </trkpt>
      <trkpt lat="47.22685" lon="0.0168">
        <ele>24</ele>
        <time>2015-12-28T10:16:48Z</time>
      </trkpt>
      <trkpt lat="47.22678" lon="0.01674">
        <ele>25</ele>
        <time>2015-12-28T10:16:53Z</time>
      </trkpt>
      <trkpt lat="47.22671" lon="0.01666">
        <ele>25</ele>
        <time>2015-12-28T10:16:59Z</time>
      </trkpt>
      <trkpt lat="47.22661" lon="0.01656">
        <ele>23</ele>
        <time>2015-12-28T10:17:06Z</time>
      </trkpt>
      <trkpt lat="47.22647" lon="0.01641">
        <ele>20</ele>
        <time>2015-12-28T10:17:16Z</time>
      </trkpt>
      <trkpt lat="47.22645" lon="0.01635">
        <ele>21</ele>
        <time>2015-12-28T10:17:20Z</time>
      </trkpt>
      <trkpt lat="47.22645" lon="0.0163">
        <ele>20</ele>
        <time>2015-12-28T10:17:23Z</time>
      </trkpt>
      <trkpt lat="47.22643" lon="0.01609">
        <ele>26</ele>
        <time>2015-12-28T10:17:33Z</time>
      </trkpt>
      <trkpt lat="47.22643" lon="0.01597">
        <ele>29</ele>
        <time>2015-12-28T10:17:38Z</time>
      </trkpt>
      <trkpt lat="47.22644" lon="0.01589">
        <ele>29</ele>
        <time>2015-12-28T10:17:41Z</time>
      </trkpt>
      <trkpt lat="47.22644" lon="0.01574">
        <ele>31</ele>
        <time>2015-12-28T10:17:50Z</time>
      </trkpt>
      <trkpt lat="47.22645" lon="0.01573">
        <ele>30</ele>
        <time>2015-12-28T10:17:53Z</time>
      </trkpt>
      <trkpt lat="47.22643" lon="0.0157">
        <ele>30</ele>
        <time>2015-12-28T10:17:57Z</time>
      </trkpt>
      <trkpt lat="47.22638" lon="0.01565">
        <ele>28</ele>
        <time>2015-12-28T10:18:02Z</time>
      </trkpt>
      <trkpt lat="47.22628" lon="0.01559">
        <ele>29</ele>
        <time>2015-12-28T10:18:08Z</time>
      </trkpt>
      <trkpt lat="47.22623" lon="0.0155">
        <ele>30</ele>
        <time>2015-12-28T10:18:14Z</time>
      </trkpt>
      <trkpt lat="47.22617" lon="0.01537">
        <ele>34</ele>
        <time>2015-12-28T10:18:24Z</time>
      </trkpt>
      <trkpt lat="47.22611" lon="0.0153">
        <ele>34</ele>
        <time>2015-12-28T10:18:30Z</time>
      </trkpt>
      <trkpt lat="47.22609" lon="0.01528">
        <ele>35</ele>
        <time>2015-12-28T10:18:32Z</time>
      </trkpt>
      <trkpt lat="47.22606" lon="0.01511">
        <ele>39</ele>
        <time>2015-12-28T10:18:41Z</time>
      </trkpt>
      <trkpt lat="47.226" lon="0.01501">
        <ele>42</ele>
        <time>2015-12-28T10:18:47Z</time>
      </trkpt>
      <trkpt lat="47.22598" lon="0.01497">
        <ele>42</ele>
        <time>2015-12-28T10:18:50Z</time>
      </trkpt>
      <trkpt lat="47.22596" lon="0.01484">
        <ele>46</ele>
        <time>2015-12-28T10:18:59Z</time>
      </trkpt>
      <trkpt lat="47.22604" lon="0.01479">
        <ele>49</ele>
        <time>2015-12-28T10:19:07Z</time>
      </trkpt>
      <trkpt lat="47.22603" lon="0.01473">
        <ele>51</ele>
        <time>2015-12-28T10:19:11Z</time>
      </trkpt>
      <trkpt lat="47.226" lon="0.0147">
        <ele>53</ele>
        <time>2015-12-28T10:19:14Z</time>
      </trkpt>
      <trkpt lat="47.22594" lon="0.0146">
        <ele>55</ele>
        <time>2015-12-28T10:19:23Z</time>
      </trkpt>
      <trkpt lat="47.2259" lon="0.01457">
        <ele>56</ele>
        <time>2015-12-28T10:19:26Z</time>
      </trkpt>
      <trkpt lat="47.22583" lon="0.01447">
        <ele>55</ele>
        <time>2015-12-28T10:19:33Z</time>
      </trkpt>
      <trkpt lat="47.22585" lon="0.01433">
        <ele>57</ele>
        <time>2015-12-28T10:19:40Z</time>
      </trkpt>
      <trkpt lat="47.22588" lon="0.01427">
        <ele>57</ele>
        <time>2015-12-28T10:19:45Z</time>
      </trkpt>
      <trkpt lat="47.22589" lon="0.01425">
        <ele>55</ele>
        <time>2015-12-28T10:19:50Z</time>
      </trkpt>
      <trkpt lat="47.22589" lon="0.01425">
        <ele>54</ele>
        <time>2015-12-28T10:19:53Z</time>
      </trkpt>
      <trkpt lat="47.22589" lon="0.01425">
        <ele>55</ele>
        <time>2015-12-28T10:19:56Z</time>
      </trkpt>
      <trkpt lat="47.22589" lon="0.01425">
        <ele>55</ele>
        <time>2015-12-28T10:19:59Z</time>
      </trkpt>
      <trkpt lat="47.2259" lon="0.01423">
        <ele>55</ele>
        <time>2015-12-28T10:20:03Z</time>
      </trkpt>
      <trkpt lat="47.22593" lon="0.01419">
        <ele>56</ele>
        <time>2015-12-28T10:20:09Z</time>
      </trkpt>
      <trkpt lat="47.22593" lon="0.01418">
        <ele>55</ele>
        <time>2015-12-28T10:20:14Z</time>
      </trkpt>
      <trkpt lat="47.22593" lon="0.01418">
        <ele>55</ele>
        <time>2015-12-28T10:20:17Z</time>
      </trkpt>
      <trkpt lat="47.22592" lon="0.01418">
        <ele>55</ele>
        <time>2015-12-28T10:20:20Z</time>
      </trkpt>
      <trkpt lat="47.22593" lon="0.01415">
        <ele>56</ele>
        <time>2015-12-28T10:20:23Z</time>
      </trkpt>
      <trkpt lat="47.22598" lon="0.01404">
        <ele>56</ele>
        <time>2015-12-28T10:20:29Z</time>
      </trkpt>
      <trkpt lat="47.22604" lon="0.01392">
        <ele>56</ele>
        <time>2015-12-28T10:20:35Z</time>
      </trkpt>
      <trkpt lat="47.22611" lon="0.0138">
        <ele>57</ele>
        <time>2015-12-28T10:20:42Z</time>
      </trkpt>
      <trkpt lat="47.22617" lon="0.0137">
        <ele>58</ele>
        <time>2015-12-28T10:20:48Z</time>
      </trkpt>
      <trkpt lat="47.22625" lon="0.01363">
        <ele>58</ele>
        <time>2015-12-28T10:20:54Z</time>
      </trkpt>
      <trkpt lat="47.22634" lon="0.01371">
        <ele>60</ele>
        <time>2015-12-28T10:21:01Z</time>
      </trkpt>
      <trkpt lat="47.22638" lon="0.01377">
        <ele>61</ele>
        <time>2015-12-28T10:21:05Z</time>
      </trkpt>
      <trkpt lat="47.22652" lon="0.01391">
        <ele>61</ele>
        <time>2015-12-28T10:21:16Z</time>
      </trkpt>
      <trkpt lat="47.22653" lon="0.01392">
        <ele>61</ele>
        <time>2015-12-28T10:21:17Z</time>
      </trkpt>
      <trkpt lat="47.2266" lon="0.014">
        <ele>61</ele>
        <time>2015-12-28T10:21:23Z</time>
      </trkpt>
      <trkpt lat="47.22662" lon="0.01412">
        <ele>61</ele>
        <time>2015-12-28T10:21:29Z</time>
      </trkpt>
      <trkpt lat="47.22663" lon="0.01425">
        <ele>63</ele>
        <time>2015-12-28T10:21:35Z</time>
      </trkpt>
      <trkpt lat="47.22659" lon="0.01438">
        <ele>71</ele>
        <time>2015-12-28T10:21:41Z</time>
      </trkpt>
      <trkpt lat="47.22655" lon="0.01457">
        <ele>71</ele>
        <time>2015-12-28T10:21:50Z</time>
      </trkpt>
      <trkpt lat="47.22663" lon="0.01467">
        <ele>67</ele>
        <time>2015-12-28T10:21:56Z</time>
      </trkpt>
      <trkpt lat="47.22667" lon="0.01472">
        <ele>66</ele>
        <time>2015-12-28T10:21:59Z</time>
      </trkpt>
      <trkpt lat="47.22676" lon="0.01478">
        <ele>63</ele>
        <time>2015-12-28T10:22:05Z</time>
      </trkpt>
      <trkpt lat="47.22685" lon="0.01485">
        <ele>62</ele>
        <time>2015-12-28T10:22:11Z</time>
      </trkpt>
      <trkpt lat="47.22695" lon="0.01488">
        <ele>60</ele>
        <time>2015-12-28T10:22:18Z</time>
      </trkpt>
      <trkpt lat="47.22701" lon="0.01493">
        <ele>58</ele>
        <time>2015-12-28T10:22:23Z</time>
      </trkpt>
      <trkpt lat="47.22709" lon="0.01498">
        <ele>56</ele>
        <time>2015-12-28T10:22:29Z</time>
      </trkpt>
      <trkpt lat="47.22719" lon="0.01506">
        <ele>55</ele>
        <time>2015-12-28T10:22:37Z</time>
      </trkpt>
      <trkpt lat="47.22725" lon="0.01509">
        <ele>55</ele>
        <time>2015-12-28T10:22:41Z</time>
      </trkpt>
      <trkpt lat="47.22734" lon="0.01514">
        <ele>56</ele>
        <time>2015-12-28T10:22:47Z</time>
      </trkpt>
      <trkpt lat="47.22743" lon="0.01518">
        <ele>56</ele>
        <time>2015-12-28T10:22:53Z</time>
      </trkpt>
      <trkpt lat="47.22753" lon="0.01517">
        <ele>56</ele>
        <time>2015-12-28T10:22:59Z</time>
      </trkpt>
      <trkpt lat="47.2276" lon="0.01506">
        <ele>56</ele>
        <time>2015-12-28T10:23:05Z</time>
      </trkpt>
      <trkpt lat="47.22768" lon="0.01492">
        <ele>56</ele>
        <time>2015-12-28T10:23:12Z</time>
      </trkpt>
      <trkpt lat="47.22773" lon="0.01484">
        <ele>55</ele>
        <time>2015-12-28T10:23:17Z</time>
      </trkpt>
      <trkpt lat="47.2278" lon="0.01474">
        <ele>55</ele>
        <time>2015-12-28T10:23:23Z</time>
      </trkpt>
      <trkpt lat="47.22786" lon="0.01464">
        <ele>56</ele>
        <time>2015-12-28T10:23:29Z</time>
      </trkpt>
      <trkpt lat="47.22792" lon="0.01454">
        <ele>57</ele>
        <time>2015-12-28T10:23:35Z</time>
      </trkpt>
      <trkpt lat="47.22797" lon="0.01443">
        <ele>56</ele>
        <time>2015-12-28T10:23:41Z</time>
      </trkpt>
      <trkpt lat="47.22803" lon="0.01428">
        <ele>56</ele>
        <time>2015-12-28T10:23:49Z</time>
      </trkpt>
      <trkpt lat="47.22806" lon="0.01422">
        <ele>55</ele>
        <time>2015-12-28T10:23:53Z</time>
      </trkpt>
      <trkpt lat="47.22816" lon="0.01405">
        <ele>56</ele>
        <time>2015-12-28T10:24:02Z</time>
      </trkpt>
      <trkpt lat="47.2282" lon="0.014">
        <ele>57</ele>
        <time>2015-12-28T10:24:05Z</time>
      </trkpt>
      <trkpt lat="47.22827" lon="0.01388">
        <ele>57</ele>
        <time>2015-12-28T10:24:11Z</time>
      </trkpt>
      <trkpt lat="47.22836" lon="0.01385">
        <ele>57</ele>
        <time>2015-12-28T10:24:17Z</time>
      </trkpt>
      <trkpt lat="47.22843" lon="0.01393">
        <ele>57</ele>
        <time>2015-12-28T10:24:23Z</time>
      </trkpt>
      <trkpt lat="47.22851" lon="0.01401">
        <ele>58</ele>
        <time>2015-12-28T10:24:30Z</time>
      </trkpt>
      <trkpt lat="47.2286" lon="0.01405">
        <ele>59</ele>
        <time>2015-12-28T10:24:36Z</time>
      </trkpt>
      <trkpt lat="47.22868" lon="0.014">
        <ele>58</ele>
        <time>2015-12-28T10:24:41Z</time>
      </trkpt>
      <trkpt lat="47.22875" lon="0.01389">
        <ele>58</ele>
        <time>2015-12-28T10:24:47Z</time>
      </trkpt>
      <trkpt lat="47.22882" lon="0.01379">
        <ele>56</ele>
        <time>2015-12-28T10:24:53Z</time>
      </trkpt>
      <trkpt lat="47.22889" lon="0.01368">
        <ele>57</ele>
        <time>2015-12-28T10:24:59Z</time>
      </trkpt>
      <trkpt lat="47.22895" lon="0.01358">
        <ele>57</ele>
        <time>2015-12-28T10:25:05Z</time>
      </trkpt>
      <trkpt lat="47.22902" lon="0.01346">
        <ele>55</ele>
        <time>2015-12-28T10:25:12Z</time>
      </trkpt>
      <trkpt lat="47.22907" lon="0.01337">
        <ele>56</ele>
        <time>2015-12-28T10:25:17Z</time>
      </trkpt>
      <trkpt lat="47.22914" lon="0.01327">
        <ele>57</ele>
        <time>2015-12-28T10:25:23Z</time>
      </trkpt>
      <trkpt lat="47.2292" lon="0.01317">
        <ele>57</ele>
        <time>2015-12-28T10:25:29Z</time>
      </trkpt>
      <trkpt lat="47.22929" lon="0.01305">
        <ele>57</ele>
        <time>2015-12-28T10:25:36Z</time>
      </trkpt>
      <trkpt lat="47.22937" lon="0.01298">
        <ele>56</ele>
        <time>2015-12-28T10:25:42Z</time>
      </trkpt>
      <trkpt lat="47.22947" lon="0.01291">
        <ele>57</ele>
        <time>2015-12-28T10:25:49Z</time>
      </trkpt>
      <trkpt lat="47.22954" lon="0.01287">
        <ele>57</ele>
        <time>2015-12-28T10:25:54Z</time>
      </trkpt>
      <trkpt lat="47.22962" lon="0.01283">
        <ele>58</ele>
        <time>2015-12-28T10:25:59Z</time>
      </trkpt>
      <trkpt lat="47.22973" lon="0.01276">
        <ele>58</ele>
        <time>2015-12-28T10:26:06Z</time>
      </trkpt>
      <trkpt lat="47.2298" lon="0.01272">
        <ele>58</ele>
        <time>2015-12-28T10:26:11Z</time>
      </trkpt>
      <trkpt lat="47.22989" lon="0.01263">
        <ele>60</ele>
        <time>2015-12-28T10:26:17Z</time>
      </trkpt>
      <trkpt lat="47.22999" lon="0.01248">
        <ele>55</ele>
        <time>2015-12-28T10:26:26Z</time>
      </trkpt>
      <trkpt lat="47.23001" lon="0.01243">
        <ele>52</ele>
        <time>2015-12-28T10:26:29Z</time>
      </trkpt>
      <trkpt lat="47.23008" lon="0.01221">
        <ele>49</ele>
        <time>2015-12-28T10:26:39Z</time>
      </trkpt>
      <trkpt lat="47.23011" lon="0.01214">
        <ele>51</ele>
        <time>2015-12-28T10:26:42Z</time>
      </trkpt>
      <trkpt lat="47.23015" lon="0.01203">
        <ele>55</ele>
        <time>2015-12-28T10:26:47Z</time>
      </trkpt>
      <trkpt lat="47.23021" lon="0.01191">
        <ele>55</ele>
        <time>2015-12-28T10:26:53Z</time>
      </trkpt>
      <trkpt lat="47.23027" lon="0.0118">
        <ele>54</ele>
        <time>2015-12-28T10:26:59Z</time>
      </trkpt>
      <trkpt lat="47.23034" lon="0.01169">
        <ele>55</ele>
        <time>2015-12-28T10:27:05Z</time>
      </trkpt>
      <trkpt lat="47.23041" lon="0.01157">
        <ele>55</ele>
        <time>2015-12-28T10:27:11Z</time>
      </trkpt>
      <trkpt lat="47.23045" lon="0.01144">
        <ele>56</ele>
        <time>2015-12-28T10:27:17Z</time>
      </trkpt>
      <trkpt lat="47.2305" lon="0.01131">
        <ele>56</ele>
        <time>2015-12-28T10:27:23Z</time>
      </trkpt>
      <trkpt lat="47.23055" lon="0.01118">
        <ele>56</ele>
        <time>2015-12-28T10:27:29Z</time>
      </trkpt>
      <trkpt lat="47.2306" lon="0.01106">
        <ele>56</ele>
        <time>2015-12-28T10:27:35Z</time>
      </trkpt>
      <trkpt lat="47.23065" lon="0.01094">
        <ele>56</ele>
        <time>2015-12-28T10:27:41Z</time>
      </trkpt>
      <trkpt lat="47.2307" lon="0.01082">
        <ele>56</ele>
        <time>2015-12-28T10:27:47Z</time>
      </trkpt>
      <trkpt lat="47.23075" lon="0.01072">
        <ele>55</ele>
        <time>2015-12-28T10:27:53Z</time>
      </trkpt>
      <trkpt lat="47.23079" lon="0.01061">
        <ele>56</ele>
        <time>2015-12-28T10:27:59Z</time>
      </trkpt>
      <trkpt lat="47.23084" lon="0.01048">
        <ele>57</ele>
        <time>2015-12-28T10:28:05Z</time>
      </trkpt>
      <trkpt lat="47.23089" lon="0.01035">
        <ele>57</ele>
        <time>2015-12-28T10:28:11Z</time>
      </trkpt>
      <trkpt lat="47.23094" lon="0.01021">
        <ele>57</ele>
        <time>2015-12-28T10:28:18Z</time>
      </trkpt>
      <trkpt lat="47.23096" lon="0.01012">
        <ele>57</ele>
        <time>2015-12-28T10:28:23Z</time>
      </trkpt>
      <trkpt lat="47.23099" lon="0.01001">
        <ele>58</ele>
        <time>2015-12-28T10:28:29Z</time>
      </trkpt>
      <trkpt lat="47.23103" lon="0.00989">
        <ele>57</ele>
        <time>2015-12-28T10:28:35Z</time>
      </trkpt>
      <trkpt lat="47.23106" lon="0.00976">
        <ele>57</ele>
        <time>2015-12-28T10:28:41Z</time>
      </trkpt>
      <trkpt lat="47.2311" lon="0.00963">
        <ele>58</ele>
        <time>2015-12-28T10:28:47Z</time>
      </trkpt>
      <trkpt lat="47.23113" lon="0.00947">
        <ele>58</ele>
        <time>2015-12-28T10:28:54Z</time>
      </trkpt>
      <trkpt lat="47.23113" lon="0.00933">
        <ele>56</ele>
        <time>2015-12-28T10:29:00Z</time>
      </trkpt>
      <trkpt lat="47.23111" lon="0.00923">
        <ele>55</ele>
        <time>2015-12-28T10:29:05Z</time>
      </trkpt>
      <trkpt lat="47.2311" lon="0.00911">
        <ele>56</ele>
        <time>2015-12-28T10:29:11Z</time>
      </trkpt>
      <trkpt lat="47.23112" lon="0.00898">
        <ele>58</ele>
        <time>2015-12-28T10:29:17Z</time>
      </trkpt>
      <trkpt lat="47.23115" lon="0.00885">
        <ele>60</ele>
        <time>2015-12-28T10:29:23Z</time>
      </trkpt>
      <trkpt lat="47.23118" lon="0.00867">
        <ele>59</ele>
        <time>2015-12-28T10:29:33Z</time>
      </trkpt>
      <trkpt lat="47.23119" lon="0.00863">
        <ele>59</ele>
        <time>2015-12-28T10:29:35Z</time>
      </trkpt>
      <trkpt lat="47.23123" lon="0.00852">
        <ele>58</ele>
        <time>2015-12-28T10:29:42Z</time>
      </trkpt>
      <trkpt lat="47.23125" lon="0.00844">
        <ele>59</ele>
        <time>2015-12-28T10:29:47Z</time>
      </trkpt>
      <trkpt lat="47.23129" lon="0.00834">
        <ele>56</ele>
        <time>2015-12-28T10:29:55Z</time>
      </trkpt>
      <trkpt lat="47.23128" lon="0.00834">
        <ele>56</ele>
        <time>2015-12-28T10:29:59Z</time>
      </trkpt>
      <trkpt lat="47.23128" lon="0.00834">
        <ele>55</ele>
        <time>2015-12-28T10:30:02Z</time>
      </trkpt>
      <trkpt lat="47.23128" lon="0.00834">
        <ele>55</ele>
        <time>2015-12-28T10:30:05Z</time>
      </trkpt>
      <trkpt lat="47.23128" lon="0.00833">
        <ele>55</ele>
        <time>2015-12-28T10:30:08Z</time>
      </trkpt>
    </trkseg>
  </trk>
</gpx>